<?xml version="1.0" encoding="UTF-8" standalone="no" ?>
<gpx xmlns="http://www.topografix.com/GPX/1/1" xmlns:xsi="http://www.w3.org/2001/XMLSchema-instance" xsi:schemaLocation="http://www.topografix.com/GPX/1/1 http://www.topografix.com/GPX/1/1/gpx.xsd" version="1.1" creator="VisuGPX - https://www.visugpx.com">
  <metadata>
    <name>Rocher de Roquebrune</name>
    <desc><![CDATA[Boucle autour et dans le rocher de Roquebrune qui emprunte tous les sentiers balisés : rouge, bleu, jaune et vert.

A ne pas faire dans ce sens là car la descente au niveau des chaînes est dangereuse : cela se monte !]]></desc>
  </metadata>
  <wpt lat="43.45085" lon="6.59994">
    <ele>266</ele>
    <name><![CDATA[Chaine]]></name>
  </wpt>
  <trk>
    <name><![CDATA[Rocher de Roquebrune]]></name>
    <trkseg>
      <trkpt lat="43.44818" lon="6.58644">
        <ele>146.16</ele>
        <time>2025-05-02T08:55:28Z</time>
      </trkpt>
      <trkpt lat="43.44817" lon="6.58654">
        <ele>146.16</ele>
        <time>2025-05-02T08:55:51Z</time>
      </trkpt>
      <trkpt lat="43.44815" lon="6.58674">
        <ele>146.16</ele>
        <time>2025-05-02T08:56:13Z</time>
      </trkpt>
      <trkpt lat="43.44818" lon="6.58684">
        <ele>145.59</ele>
        <time>2025-05-02T08:56:21Z</time>
      </trkpt>
      <trkpt lat="43.4483" lon="6.58697">
        <ele>145.44</ele>
        <time>2025-05-02T08:56:38Z</time>
      </trkpt>
      <trkpt lat="43.44844" lon="6.58696">
        <ele>145.03</ele>
        <time>2025-05-02T08:56:57Z</time>
      </trkpt>
      <trkpt lat="43.44864" lon="6.58691">
        <ele>145.33</ele>
        <time>2025-05-02T08:57:17Z</time>
      </trkpt>
      <trkpt lat="43.44879" lon="6.58693">
        <ele>146.43</ele>
        <time>2025-05-02T08:57:35Z</time>
      </trkpt>
      <trkpt lat="43.44882" lon="6.58712">
        <ele>147.24</ele>
        <time>2025-05-02T08:57:57Z</time>
      </trkpt>
      <trkpt lat="43.44877" lon="6.58735">
        <ele>147.19</ele>
        <time>2025-05-02T08:58:15Z</time>
      </trkpt>
      <trkpt lat="43.44877" lon="6.58758">
        <ele>146.51</ele>
        <time>2025-05-02T08:58:33Z</time>
      </trkpt>
      <trkpt lat="43.44875" lon="6.5877">
        <ele>144.49</ele>
        <time>2025-05-02T08:58:51Z</time>
      </trkpt>
      <trkpt lat="43.44876" lon="6.58782">
        <ele>142.65</ele>
        <time>2025-05-02T08:59:05Z</time>
      </trkpt>
      <trkpt lat="43.44875" lon="6.58791">
        <ele>139.48</ele>
        <time>2025-05-02T08:59:22Z</time>
      </trkpt>
      <trkpt lat="43.44876" lon="6.58799">
        <ele>137.09</ele>
        <time>2025-05-02T08:59:35Z</time>
      </trkpt>
      <trkpt lat="43.44874" lon="6.58804">
        <ele>136.2</ele>
        <time>2025-05-02T08:59:40Z</time>
      </trkpt>
      <trkpt lat="43.44876" lon="6.58812">
        <ele>133.04</ele>
        <time>2025-05-02T08:59:51Z</time>
      </trkpt>
      <trkpt lat="43.44872" lon="6.58827">
        <ele>130.5</ele>
        <time>2025-05-02T09:00:07Z</time>
      </trkpt>
      <trkpt lat="43.44874" lon="6.58835">
        <ele>128.48</ele>
        <time>2025-05-02T09:00:21Z</time>
      </trkpt>
      <trkpt lat="43.44874" lon="6.58851">
        <ele>126.19</ele>
        <time>2025-05-02T09:00:37Z</time>
      </trkpt>
      <trkpt lat="43.44875" lon="6.58852">
        <ele>125.86</ele>
        <time>2025-05-02T09:00:57Z</time>
      </trkpt>
      <trkpt lat="43.44876" lon="6.58853">
        <ele>125.45</ele>
        <time>2025-05-02T09:01:16Z</time>
      </trkpt>
      <trkpt lat="43.44882" lon="6.58853">
        <ele>124.99</ele>
        <time>2025-05-02T09:01:35Z</time>
      </trkpt>
      <trkpt lat="43.44884" lon="6.58854">
        <ele>124.88</ele>
        <time>2025-05-02T09:01:36Z</time>
      </trkpt>
      <trkpt lat="43.44893" lon="6.58859">
        <ele>122.65</ele>
        <time>2025-05-02T09:01:51Z</time>
      </trkpt>
      <trkpt lat="43.44898" lon="6.58861">
        <ele>121.1</ele>
        <time>2025-05-02T09:02:07Z</time>
      </trkpt>
      <trkpt lat="43.44901" lon="6.58864">
        <ele>120.96</ele>
        <time>2025-05-02T09:02:40Z</time>
      </trkpt>
      <trkpt lat="43.44907" lon="6.58862">
        <ele>119.04</ele>
        <time>2025-05-02T09:02:53Z</time>
      </trkpt>
      <trkpt lat="43.44916" lon="6.58865">
        <ele>116.99</ele>
        <time>2025-05-02T09:03:09Z</time>
      </trkpt>
      <trkpt lat="43.44923" lon="6.5887">
        <ele>114.81</ele>
        <time>2025-05-02T09:03:23Z</time>
      </trkpt>
      <trkpt lat="43.44935" lon="6.58872">
        <ele>113.31</ele>
        <time>2025-05-02T09:03:39Z</time>
      </trkpt>
      <trkpt lat="43.44941" lon="6.58878">
        <ele>112.94</ele>
        <time>2025-05-02T09:03:59Z</time>
      </trkpt>
      <trkpt lat="43.4494" lon="6.58892">
        <ele>112.59</ele>
        <time>2025-05-02T09:04:14Z</time>
      </trkpt>
      <trkpt lat="43.4494" lon="6.58898">
        <ele>111.96</ele>
        <time>2025-05-02T09:04:36Z</time>
      </trkpt>
      <trkpt lat="43.44949" lon="6.58896">
        <ele>111.51</ele>
        <time>2025-05-02T09:04:55Z</time>
      </trkpt>
      <trkpt lat="43.44953" lon="6.58895">
        <ele>111.48</ele>
        <time>2025-05-02T09:04:59Z</time>
      </trkpt>
      <trkpt lat="43.4496" lon="6.58896">
        <ele>112.39</ele>
        <time>2025-05-02T09:05:12Z</time>
      </trkpt>
      <trkpt lat="43.4496" lon="6.58916">
        <ele>114.59</ele>
        <time>2025-05-02T09:05:32Z</time>
      </trkpt>
      <trkpt lat="43.44966" lon="6.58925">
        <ele>116.69</ele>
        <time>2025-05-02T09:05:45Z</time>
      </trkpt>
      <trkpt lat="43.44971" lon="6.58936">
        <ele>119.47</ele>
        <time>2025-05-02T09:06:01Z</time>
      </trkpt>
      <trkpt lat="43.44971" lon="6.58941">
        <ele>120.95</ele>
        <time>2025-05-02T09:06:18Z</time>
      </trkpt>
      <trkpt lat="43.44969" lon="6.58947">
        <ele>120.84</ele>
        <time>2025-05-02T09:06:52Z</time>
      </trkpt>
      <trkpt lat="43.4497" lon="6.58948">
        <ele>120.96</ele>
        <time>2025-05-02T09:06:53Z</time>
      </trkpt>
      <trkpt lat="43.44979" lon="6.58956">
        <ele>122.73</ele>
        <time>2025-05-02T09:07:06Z</time>
      </trkpt>
      <trkpt lat="43.44985" lon="6.58967">
        <ele>125.58</ele>
        <time>2025-05-02T09:07:20Z</time>
      </trkpt>
      <trkpt lat="43.44989" lon="6.58976">
        <ele>126.44</ele>
        <time>2025-05-02T09:07:28Z</time>
      </trkpt>
      <trkpt lat="43.44993" lon="6.58982">
        <ele>127.17</ele>
        <time>2025-05-02T09:07:34Z</time>
      </trkpt>
      <trkpt lat="43.44999" lon="6.58997">
        <ele>127.88</ele>
        <time>2025-05-02T09:07:50Z</time>
      </trkpt>
      <trkpt lat="43.45" lon="6.5901">
        <ele>125.24</ele>
        <time>2025-05-02T09:08:07Z</time>
      </trkpt>
      <trkpt lat="43.44999" lon="6.59025">
        <ele>123.24</ele>
        <time>2025-05-02T09:08:23Z</time>
      </trkpt>
      <trkpt lat="43.45004" lon="6.59041">
        <ele>121.91</ele>
        <time>2025-05-02T09:08:37Z</time>
      </trkpt>
      <trkpt lat="43.45005" lon="6.59042">
        <ele>121.84</ele>
        <time>2025-05-02T09:08:38Z</time>
      </trkpt>
      <trkpt lat="43.45006" lon="6.59043">
        <ele>121.82</ele>
        <time>2025-05-02T09:08:39Z</time>
      </trkpt>
      <trkpt lat="43.45011" lon="6.59049">
        <ele>121.84</ele>
        <time>2025-05-02T09:08:46Z</time>
      </trkpt>
      <trkpt lat="43.45014" lon="6.59064">
        <ele>123.63</ele>
        <time>2025-05-02T09:08:59Z</time>
      </trkpt>
      <trkpt lat="43.45013" lon="6.59082">
        <ele>126.16</ele>
        <time>2025-05-02T09:09:13Z</time>
      </trkpt>
      <trkpt lat="43.45014" lon="6.59093">
        <ele>127.08</ele>
        <time>2025-05-02T09:09:20Z</time>
      </trkpt>
      <trkpt lat="43.45014" lon="6.59094">
        <ele>127.13</ele>
        <time>2025-05-02T09:09:21Z</time>
      </trkpt>
      <trkpt lat="43.45016" lon="6.59111">
        <ele>127.44</ele>
        <time>2025-05-02T09:09:38Z</time>
      </trkpt>
      <trkpt lat="43.45019" lon="6.59119">
        <ele>126.14</ele>
        <time>2025-05-02T09:09:45Z</time>
      </trkpt>
      <trkpt lat="43.45023" lon="6.59123">
        <ele>127.02</ele>
        <time>2025-05-02T09:09:58Z</time>
      </trkpt>
      <trkpt lat="43.45028" lon="6.59139">
        <ele>125.7</ele>
        <time>2025-05-02T09:10:16Z</time>
      </trkpt>
      <trkpt lat="43.45025" lon="6.59145">
        <ele>124.59</ele>
        <time>2025-05-02T09:10:34Z</time>
      </trkpt>
      <trkpt lat="43.45026" lon="6.59156">
        <ele>124.76</ele>
        <time>2025-05-02T09:10:54Z</time>
      </trkpt>
      <trkpt lat="43.45027" lon="6.59161">
        <ele>125.63</ele>
        <time>2025-05-02T09:11:13Z</time>
      </trkpt>
      <trkpt lat="43.45024" lon="6.59166">
        <ele>127.67</ele>
        <time>2025-05-02T09:11:28Z</time>
      </trkpt>
      <trkpt lat="43.45019" lon="6.5917">
        <ele>128.02</ele>
        <time>2025-05-02T09:11:56Z</time>
      </trkpt>
      <trkpt lat="43.45009" lon="6.59172">
        <ele>129.66</ele>
        <time>2025-05-02T09:12:08Z</time>
      </trkpt>
      <trkpt lat="43.45006" lon="6.59175">
        <ele>132.4</ele>
        <time>2025-05-02T09:12:24Z</time>
      </trkpt>
      <trkpt lat="43.45007" lon="6.59175">
        <ele>132.75</ele>
        <time>2025-05-02T09:12:49Z</time>
      </trkpt>
      <trkpt lat="43.45008" lon="6.59175">
        <ele>132.35</ele>
        <time>2025-05-02T09:13:15Z</time>
      </trkpt>
      <trkpt lat="43.44995" lon="6.59169">
        <ele>132.31</ele>
        <time>2025-05-02T09:13:33Z</time>
      </trkpt>
      <trkpt lat="43.44989" lon="6.5917">
        <ele>133.85</ele>
        <time>2025-05-02T09:13:40Z</time>
      </trkpt>
      <trkpt lat="43.44981" lon="6.59178">
        <ele>135.87</ele>
        <time>2025-05-02T09:13:55Z</time>
      </trkpt>
      <trkpt lat="43.44974" lon="6.59185">
        <ele>139.09</ele>
        <time>2025-05-02T09:14:07Z</time>
      </trkpt>
      <trkpt lat="43.44972" lon="6.59195">
        <ele>141.94</ele>
        <time>2025-05-02T09:14:24Z</time>
      </trkpt>
      <trkpt lat="43.44966" lon="6.59196">
        <ele>143.71</ele>
        <time>2025-05-02T09:14:41Z</time>
      </trkpt>
      <trkpt lat="43.44961" lon="6.59206">
        <ele>145.62</ele>
        <time>2025-05-02T09:14:53Z</time>
      </trkpt>
      <trkpt lat="43.4496" lon="6.59209">
        <ele>146.86</ele>
        <time>2025-05-02T09:15:08Z</time>
      </trkpt>
      <trkpt lat="43.44958" lon="6.59221">
        <ele>147.43</ele>
        <time>2025-05-02T09:15:29Z</time>
      </trkpt>
      <trkpt lat="43.44958" lon="6.59221">
        <ele>147.09</ele>
        <time>2025-05-02T09:15:56Z</time>
      </trkpt>
      <trkpt lat="43.44958" lon="6.59222">
        <ele>147.21</ele>
        <time>2025-05-02T09:17:49Z</time>
      </trkpt>
      <trkpt lat="43.44958" lon="6.5922">
        <ele>147.21</ele>
        <time>2025-05-02T09:21:38Z</time>
      </trkpt>
      <trkpt lat="43.44958" lon="6.5922">
        <ele>147.21</ele>
        <time>2025-05-02T09:23:21Z</time>
      </trkpt>
      <trkpt lat="43.44961" lon="6.59228">
        <ele>147.21</ele>
        <time>2025-05-02T09:23:40Z</time>
      </trkpt>
      <trkpt lat="43.44962" lon="6.59234">
        <ele>147.21</ele>
        <time>2025-05-02T09:23:58Z</time>
      </trkpt>
      <trkpt lat="43.44959" lon="6.59242">
        <ele>146.85</ele>
        <time>2025-05-02T09:24:10Z</time>
      </trkpt>
      <trkpt lat="43.44958" lon="6.59244">
        <ele>146.03</ele>
        <time>2025-05-02T09:24:31Z</time>
      </trkpt>
      <trkpt lat="43.44956" lon="6.5925">
        <ele>145.91</ele>
        <time>2025-05-02T09:24:57Z</time>
      </trkpt>
      <trkpt lat="43.44956" lon="6.59251">
        <ele>145.87</ele>
        <time>2025-05-02T09:24:58Z</time>
      </trkpt>
      <trkpt lat="43.44954" lon="6.59274">
        <ele>145.7</ele>
        <time>2025-05-02T09:25:14Z</time>
      </trkpt>
      <trkpt lat="43.44949" lon="6.59285">
        <ele>144.21</ele>
        <time>2025-05-02T09:25:25Z</time>
      </trkpt>
      <trkpt lat="43.44949" lon="6.59287">
        <ele>143.95</ele>
        <time>2025-05-02T09:25:26Z</time>
      </trkpt>
      <trkpt lat="43.44949" lon="6.59288">
        <ele>143.71</ele>
        <time>2025-05-02T09:25:27Z</time>
      </trkpt>
      <trkpt lat="43.44949" lon="6.5929">
        <ele>143.5</ele>
        <time>2025-05-02T09:25:28Z</time>
      </trkpt>
      <trkpt lat="43.44952" lon="6.59306">
        <ele>143.13</ele>
        <time>2025-05-02T09:25:40Z</time>
      </trkpt>
      <trkpt lat="43.44961" lon="6.59323">
        <ele>145.05</ele>
        <time>2025-05-02T09:25:55Z</time>
      </trkpt>
      <trkpt lat="43.44972" lon="6.59325">
        <ele>146.65</ele>
        <time>2025-05-02T09:26:10Z</time>
      </trkpt>
      <trkpt lat="43.44978" lon="6.59323">
        <ele>148.6</ele>
        <time>2025-05-02T09:26:27Z</time>
      </trkpt>
      <trkpt lat="43.44982" lon="6.59327">
        <ele>149.45</ele>
        <time>2025-05-02T09:26:40Z</time>
      </trkpt>
      <trkpt lat="43.44989" lon="6.59336">
        <ele>151.36</ele>
        <time>2025-05-02T09:26:54Z</time>
      </trkpt>
      <trkpt lat="43.45001" lon="6.59342">
        <ele>153.75</ele>
        <time>2025-05-02T09:27:14Z</time>
      </trkpt>
      <trkpt lat="43.45003" lon="6.59349">
        <ele>154.75</ele>
        <time>2025-05-02T09:27:33Z</time>
      </trkpt>
      <trkpt lat="43.45008" lon="6.59356">
        <ele>155.69</ele>
        <time>2025-05-02T09:27:51Z</time>
      </trkpt>
      <trkpt lat="43.45014" lon="6.59358">
        <ele>157.86</ele>
        <time>2025-05-02T09:28:11Z</time>
      </trkpt>
      <trkpt lat="43.45024" lon="6.59357">
        <ele>160.31</ele>
        <time>2025-05-02T09:28:26Z</time>
      </trkpt>
      <trkpt lat="43.45034" lon="6.59358">
        <ele>162.46</ele>
        <time>2025-05-02T09:28:46Z</time>
      </trkpt>
      <trkpt lat="43.45047" lon="6.59359">
        <ele>165.48</ele>
        <time>2025-05-02T09:29:03Z</time>
      </trkpt>
      <trkpt lat="43.45058" lon="6.59357">
        <ele>168.1</ele>
        <time>2025-05-02T09:29:20Z</time>
      </trkpt>
      <trkpt lat="43.45064" lon="6.59358">
        <ele>168.48</ele>
        <time>2025-05-02T09:29:27Z</time>
      </trkpt>
      <trkpt lat="43.45076" lon="6.59358">
        <ele>169.38</ele>
        <time>2025-05-02T09:29:41Z</time>
      </trkpt>
      <trkpt lat="43.4509" lon="6.59357">
        <ele>169.36</ele>
        <time>2025-05-02T09:29:56Z</time>
      </trkpt>
      <trkpt lat="43.45106" lon="6.5936">
        <ele>168.54</ele>
        <time>2025-05-02T09:30:12Z</time>
      </trkpt>
      <trkpt lat="43.45116" lon="6.59365">
        <ele>168.01</ele>
        <time>2025-05-02T09:30:23Z</time>
      </trkpt>
      <trkpt lat="43.45118" lon="6.59366">
        <ele>167.98</ele>
        <time>2025-05-02T09:30:24Z</time>
      </trkpt>
      <trkpt lat="43.45119" lon="6.59367">
        <ele>167.98</ele>
        <time>2025-05-02T09:30:25Z</time>
      </trkpt>
      <trkpt lat="43.4512" lon="6.59368">
        <ele>167.98</ele>
        <time>2025-05-02T09:30:26Z</time>
      </trkpt>
      <trkpt lat="43.45121" lon="6.59369">
        <ele>167.98</ele>
        <time>2025-05-02T09:30:27Z</time>
      </trkpt>
      <trkpt lat="43.45128" lon="6.59376">
        <ele>169</ele>
        <time>2025-05-02T09:30:36Z</time>
      </trkpt>
      <trkpt lat="43.45139" lon="6.59376">
        <ele>168.65</ele>
        <time>2025-05-02T09:30:49Z</time>
      </trkpt>
      <trkpt lat="43.45152" lon="6.59373">
        <ele>167.28</ele>
        <time>2025-05-02T09:31:04Z</time>
      </trkpt>
      <trkpt lat="43.4516" lon="6.59371">
        <ele>165.72</ele>
        <time>2025-05-02T09:31:15Z</time>
      </trkpt>
      <trkpt lat="43.45162" lon="6.5937">
        <ele>165.54</ele>
        <time>2025-05-02T09:31:17Z</time>
      </trkpt>
      <trkpt lat="43.45163" lon="6.59371">
        <ele>165.36</ele>
        <time>2025-05-02T09:31:18Z</time>
      </trkpt>
      <trkpt lat="43.45172" lon="6.59371">
        <ele>164.94</ele>
        <time>2025-05-02T09:31:27Z</time>
      </trkpt>
      <trkpt lat="43.45181" lon="6.59372">
        <ele>165.7</ele>
        <time>2025-05-02T09:31:37Z</time>
      </trkpt>
      <trkpt lat="43.4519" lon="6.59374">
        <ele>165.49</ele>
        <time>2025-05-02T09:31:48Z</time>
      </trkpt>
      <trkpt lat="43.45201" lon="6.59381">
        <ele>166.88</ele>
        <time>2025-05-02T09:32:07Z</time>
      </trkpt>
      <trkpt lat="43.45216" lon="6.5939">
        <ele>168.14</ele>
        <time>2025-05-02T09:32:22Z</time>
      </trkpt>
      <trkpt lat="43.45224" lon="6.59394">
        <ele>167.15</ele>
        <time>2025-05-02T09:32:40Z</time>
      </trkpt>
      <trkpt lat="43.45239" lon="6.59395">
        <ele>166.96</ele>
        <time>2025-05-02T09:32:56Z</time>
      </trkpt>
      <trkpt lat="43.45258" lon="6.59398">
        <ele>166.44</ele>
        <time>2025-05-02T09:33:15Z</time>
      </trkpt>
      <trkpt lat="43.45271" lon="6.59401">
        <ele>166.02</ele>
        <time>2025-05-02T09:33:32Z</time>
      </trkpt>
      <trkpt lat="43.45288" lon="6.59412">
        <ele>165.5</ele>
        <time>2025-05-02T09:33:52Z</time>
      </trkpt>
      <trkpt lat="43.45293" lon="6.5941">
        <ele>165.36</ele>
        <time>2025-05-02T09:33:58Z</time>
      </trkpt>
      <trkpt lat="43.45308" lon="6.59398">
        <ele>165.55</ele>
        <time>2025-05-02T09:34:18Z</time>
      </trkpt>
      <trkpt lat="43.4532" lon="6.5938">
        <ele>168.28</ele>
        <time>2025-05-02T09:34:39Z</time>
      </trkpt>
      <trkpt lat="43.45322" lon="6.5938">
        <ele>168.5</ele>
        <time>2025-05-02T09:34:41Z</time>
      </trkpt>
      <trkpt lat="43.45324" lon="6.59377">
        <ele>169.33</ele>
        <time>2025-05-02T09:34:47Z</time>
      </trkpt>
      <trkpt lat="43.45339" lon="6.59374">
        <ele>170.49</ele>
        <time>2025-05-02T09:35:07Z</time>
      </trkpt>
      <trkpt lat="43.45349" lon="6.59378">
        <ele>171.79</ele>
        <time>2025-05-02T09:35:21Z</time>
      </trkpt>
      <trkpt lat="43.45357" lon="6.59376">
        <ele>173.46</ele>
        <time>2025-05-02T09:35:36Z</time>
      </trkpt>
      <trkpt lat="43.45363" lon="6.59375">
        <ele>174.79</ele>
        <time>2025-05-02T09:35:52Z</time>
      </trkpt>
      <trkpt lat="43.45371" lon="6.59383">
        <ele>174.69</ele>
        <time>2025-05-02T09:36:05Z</time>
      </trkpt>
      <trkpt lat="43.45374" lon="6.59386">
        <ele>175.01</ele>
        <time>2025-05-02T09:36:12Z</time>
      </trkpt>
      <trkpt lat="43.45381" lon="6.59396">
        <ele>174.35</ele>
        <time>2025-05-02T09:36:27Z</time>
      </trkpt>
      <trkpt lat="43.45381" lon="6.59397">
        <ele>174.34</ele>
        <time>2025-05-02T09:36:28Z</time>
      </trkpt>
      <trkpt lat="43.45387" lon="6.59413">
        <ele>172.92</ele>
        <time>2025-05-02T09:36:45Z</time>
      </trkpt>
      <trkpt lat="43.45389" lon="6.59416">
        <ele>172.55</ele>
        <time>2025-05-02T09:37:02Z</time>
      </trkpt>
      <trkpt lat="43.45389" lon="6.59415">
        <ele>172.55</ele>
        <time>2025-05-02T09:37:41Z</time>
      </trkpt>
      <trkpt lat="43.45393" lon="6.59418">
        <ele>172.16</ele>
        <time>2025-05-02T09:38:01Z</time>
      </trkpt>
      <trkpt lat="43.45392" lon="6.59418">
        <ele>172.49</ele>
        <time>2025-05-02T09:38:27Z</time>
      </trkpt>
      <trkpt lat="43.45389" lon="6.59414">
        <ele>172.49</ele>
        <time>2025-05-02T09:38:40Z</time>
      </trkpt>
      <trkpt lat="43.45385" lon="6.59412">
        <ele>172.49</ele>
        <time>2025-05-02T09:39:00Z</time>
      </trkpt>
      <trkpt lat="43.45381" lon="6.59411">
        <ele>172.49</ele>
        <time>2025-05-02T09:39:14Z</time>
      </trkpt>
      <trkpt lat="43.45379" lon="6.59411">
        <ele>172.49</ele>
        <time>2025-05-02T09:39:31Z</time>
      </trkpt>
      <trkpt lat="43.4538" lon="6.59412">
        <ele>172.49</ele>
        <time>2025-05-02T09:39:51Z</time>
      </trkpt>
      <trkpt lat="43.45372" lon="6.59411">
        <ele>172.49</ele>
        <time>2025-05-02T09:40:05Z</time>
      </trkpt>
      <trkpt lat="43.45365" lon="6.59408">
        <ele>168.97</ele>
        <time>2025-05-02T09:40:21Z</time>
      </trkpt>
      <trkpt lat="43.45364" lon="6.59408">
        <ele>168.9</ele>
        <time>2025-05-02T09:40:22Z</time>
      </trkpt>
      <trkpt lat="43.45356" lon="6.59402">
        <ele>166.79</ele>
        <time>2025-05-02T09:40:39Z</time>
      </trkpt>
      <trkpt lat="43.45347" lon="6.59405">
        <ele>165.33</ele>
        <time>2025-05-02T09:40:57Z</time>
      </trkpt>
      <trkpt lat="43.45333" lon="6.5941">
        <ele>165.73</ele>
        <time>2025-05-02T09:41:18Z</time>
      </trkpt>
      <trkpt lat="43.45328" lon="6.59408">
        <ele>165.52</ele>
        <time>2025-05-02T09:41:39Z</time>
      </trkpt>
      <trkpt lat="43.45324" lon="6.59408">
        <ele>165.94</ele>
        <time>2025-05-02T09:42:02Z</time>
      </trkpt>
      <trkpt lat="43.45321" lon="6.59413">
        <ele>165.58</ele>
        <time>2025-05-02T09:42:21Z</time>
      </trkpt>
      <trkpt lat="43.45309" lon="6.59414">
        <ele>165.6</ele>
        <time>2025-05-02T09:42:41Z</time>
      </trkpt>
      <trkpt lat="43.45293" lon="6.59404">
        <ele>165.6</ele>
        <time>2025-05-02T09:43:02Z</time>
      </trkpt>
      <trkpt lat="43.45275" lon="6.59397">
        <ele>165.6</ele>
        <time>2025-05-02T09:43:24Z</time>
      </trkpt>
      <trkpt lat="43.45258" lon="6.59402">
        <ele>165.6</ele>
        <time>2025-05-02T09:43:43Z</time>
      </trkpt>
      <trkpt lat="43.45263" lon="6.59417">
        <ele>165.6</ele>
        <time>2025-05-02T09:44:05Z</time>
      </trkpt>
      <trkpt lat="43.45276" lon="6.59428">
        <ele>169.56</ele>
        <time>2025-05-02T09:44:24Z</time>
      </trkpt>
      <trkpt lat="43.45276" lon="6.59429">
        <ele>169.65</ele>
        <time>2025-05-02T09:44:25Z</time>
      </trkpt>
      <trkpt lat="43.45278" lon="6.59432">
        <ele>169.58</ele>
        <time>2025-05-02T09:44:33Z</time>
      </trkpt>
      <trkpt lat="43.45274" lon="6.59453">
        <ele>172.65</ele>
        <time>2025-05-02T09:44:53Z</time>
      </trkpt>
      <trkpt lat="43.45272" lon="6.59459">
        <ele>175.68</ele>
        <time>2025-05-02T09:45:09Z</time>
      </trkpt>
      <trkpt lat="43.45266" lon="6.59477">
        <ele>178.88</ele>
        <time>2025-05-02T09:45:28Z</time>
      </trkpt>
      <trkpt lat="43.45267" lon="6.59488">
        <ele>181.13</ele>
        <time>2025-05-02T09:45:51Z</time>
      </trkpt>
      <trkpt lat="43.45263" lon="6.59492">
        <ele>182.06</ele>
        <time>2025-05-02T09:46:01Z</time>
      </trkpt>
      <trkpt lat="43.45257" lon="6.59497">
        <ele>184.34</ele>
        <time>2025-05-02T09:46:14Z</time>
      </trkpt>
      <trkpt lat="43.45251" lon="6.59506">
        <ele>186.82</ele>
        <time>2025-05-02T09:46:36Z</time>
      </trkpt>
      <trkpt lat="43.45249" lon="6.59517">
        <ele>189.76</ele>
        <time>2025-05-02T09:46:59Z</time>
      </trkpt>
      <trkpt lat="43.45248" lon="6.5952">
        <ele>190.5</ele>
        <time>2025-05-02T09:47:24Z</time>
      </trkpt>
      <trkpt lat="43.45238" lon="6.59531">
        <ele>193.19</ele>
        <time>2025-05-02T09:47:48Z</time>
      </trkpt>
      <trkpt lat="43.45239" lon="6.59538">
        <ele>194.56</ele>
        <time>2025-05-02T09:48:04Z</time>
      </trkpt>
      <trkpt lat="43.45236" lon="6.59545">
        <ele>195.91</ele>
        <time>2025-05-02T09:48:26Z</time>
      </trkpt>
      <trkpt lat="43.45246" lon="6.59559">
        <ele>198.61</ele>
        <time>2025-05-02T09:48:46Z</time>
      </trkpt>
      <trkpt lat="43.45247" lon="6.59558">
        <ele>199.07</ele>
        <time>2025-05-02T09:49:09Z</time>
      </trkpt>
      <trkpt lat="43.45249" lon="6.59557">
        <ele>198.95</ele>
        <time>2025-05-02T09:49:27Z</time>
      </trkpt>
      <trkpt lat="43.4525" lon="6.59558">
        <ele>198.94</ele>
        <time>2025-05-02T09:49:45Z</time>
      </trkpt>
      <trkpt lat="43.4525" lon="6.59558">
        <ele>198.87</ele>
        <time>2025-05-02T09:49:59Z</time>
      </trkpt>
      <trkpt lat="43.4525" lon="6.59554">
        <ele>197.96</ele>
        <time>2025-05-02T09:50:17Z</time>
      </trkpt>
      <trkpt lat="43.4525" lon="6.59551">
        <ele>197.46</ele>
        <time>2025-05-02T09:50:37Z</time>
      </trkpt>
      <trkpt lat="43.45252" lon="6.59562">
        <ele>200</ele>
        <time>2025-05-02T09:50:55Z</time>
      </trkpt>
      <trkpt lat="43.45253" lon="6.59565">
        <ele>200.67</ele>
        <time>2025-05-02T09:51:13Z</time>
      </trkpt>
      <trkpt lat="43.45255" lon="6.59565">
        <ele>200.29</ele>
        <time>2025-05-02T09:51:51Z</time>
      </trkpt>
      <trkpt lat="43.45252" lon="6.59572">
        <ele>201.16</ele>
        <time>2025-05-02T09:52:12Z</time>
      </trkpt>
      <trkpt lat="43.45253" lon="6.59577">
        <ele>203.49</ele>
        <time>2025-05-02T09:52:30Z</time>
      </trkpt>
      <trkpt lat="43.45257" lon="6.5958">
        <ele>204.36</ele>
        <time>2025-05-02T09:52:43Z</time>
      </trkpt>
      <trkpt lat="43.4526" lon="6.59581">
        <ele>204.12</ele>
        <time>2025-05-02T09:52:45Z</time>
      </trkpt>
      <trkpt lat="43.45269" lon="6.59588">
        <ele>204.95</ele>
        <time>2025-05-02T09:52:59Z</time>
      </trkpt>
      <trkpt lat="43.4527" lon="6.59594">
        <ele>205.83</ele>
        <time>2025-05-02T09:53:16Z</time>
      </trkpt>
      <trkpt lat="43.45266" lon="6.59596">
        <ele>207.37</ele>
        <time>2025-05-02T09:53:24Z</time>
      </trkpt>
      <trkpt lat="43.45258" lon="6.59602">
        <ele>210.82</ele>
        <time>2025-05-02T09:53:46Z</time>
      </trkpt>
      <trkpt lat="43.45258" lon="6.59603">
        <ele>211.61</ele>
        <time>2025-05-02T09:54:03Z</time>
      </trkpt>
      <trkpt lat="43.45259" lon="6.59602">
        <ele>211.27</ele>
        <time>2025-05-02T09:54:17Z</time>
      </trkpt>
      <trkpt lat="43.45259" lon="6.59603">
        <ele>211.3</ele>
        <time>2025-05-02T09:54:33Z</time>
      </trkpt>
      <trkpt lat="43.45266" lon="6.59603">
        <ele>211.48</ele>
        <time>2025-05-02T09:54:45Z</time>
      </trkpt>
      <trkpt lat="43.45269" lon="6.59604">
        <ele>211.76</ele>
        <time>2025-05-02T09:55:04Z</time>
      </trkpt>
      <trkpt lat="43.45271" lon="6.5961">
        <ele>211.05</ele>
        <time>2025-05-02T09:55:21Z</time>
      </trkpt>
      <trkpt lat="43.45267" lon="6.5962">
        <ele>211.63</ele>
        <time>2025-05-02T09:55:45Z</time>
      </trkpt>
      <trkpt lat="43.45269" lon="6.59619">
        <ele>211.63</ele>
        <time>2025-05-02T09:56:08Z</time>
      </trkpt>
      <trkpt lat="43.45266" lon="6.59618">
        <ele>211.63</ele>
        <time>2025-05-02T09:56:23Z</time>
      </trkpt>
      <trkpt lat="43.45267" lon="6.59621">
        <ele>214.69</ele>
        <time>2025-05-02T09:56:36Z</time>
      </trkpt>
      <trkpt lat="43.45266" lon="6.5962">
        <ele>214.7</ele>
        <time>2025-05-02T09:56:37Z</time>
      </trkpt>
      <trkpt lat="43.45219" lon="6.59588">
        <ele>234.38</ele>
        <time>2025-05-02T10:12:06Z</time>
      </trkpt>
      <trkpt lat="43.45237" lon="6.59634">
        <ele>234.38</ele>
        <time>2025-05-02T10:12:07Z</time>
      </trkpt>
      <trkpt lat="43.45235" lon="6.59642">
        <ele>234.38</ele>
        <time>2025-05-02T10:12:23Z</time>
      </trkpt>
      <trkpt lat="43.45235" lon="6.59641">
        <ele>234.38</ele>
        <time>2025-05-02T10:12:45Z</time>
      </trkpt>
      <trkpt lat="43.45235" lon="6.59641">
        <ele>234.38</ele>
        <time>2025-05-02T10:13:03Z</time>
      </trkpt>
      <trkpt lat="43.45244" lon="6.59647">
        <ele>234.38</ele>
        <time>2025-05-02T10:13:19Z</time>
      </trkpt>
      <trkpt lat="43.45239" lon="6.59641">
        <ele>234.38</ele>
        <time>2025-05-02T10:13:39Z</time>
      </trkpt>
      <trkpt lat="43.45236" lon="6.59642">
        <ele>234.38</ele>
        <time>2025-05-02T10:14:02Z</time>
      </trkpt>
      <trkpt lat="43.45235" lon="6.59641">
        <ele>234.38</ele>
        <time>2025-05-02T10:14:32Z</time>
      </trkpt>
      <trkpt lat="43.45236" lon="6.59642">
        <ele>234.38</ele>
        <time>2025-05-02T10:15:00Z</time>
      </trkpt>
      <trkpt lat="43.45235" lon="6.59643">
        <ele>234.38</ele>
        <time>2025-05-02T10:15:22Z</time>
      </trkpt>
      <trkpt lat="43.45236" lon="6.59643">
        <ele>234.38</ele>
        <time>2025-05-02T10:15:47Z</time>
      </trkpt>
      <trkpt lat="43.45236" lon="6.59642">
        <ele>234.38</ele>
        <time>2025-05-02T10:16:15Z</time>
      </trkpt>
      <trkpt lat="43.45235" lon="6.59642">
        <ele>234.38</ele>
        <time>2025-05-02T10:16:43Z</time>
      </trkpt>
      <trkpt lat="43.45234" lon="6.59642">
        <ele>234.38</ele>
        <time>2025-05-02T10:17:14Z</time>
      </trkpt>
      <trkpt lat="43.45233" lon="6.59643">
        <ele>234.38</ele>
        <time>2025-05-02T10:17:36Z</time>
      </trkpt>
      <trkpt lat="43.45235" lon="6.59643">
        <ele>234.38</ele>
        <time>2025-05-02T10:17:58Z</time>
      </trkpt>
      <trkpt lat="43.45234" lon="6.5964">
        <ele>234.38</ele>
        <time>2025-05-02T10:18:24Z</time>
      </trkpt>
      <trkpt lat="43.45231" lon="6.59634">
        <ele>234.38</ele>
        <time>2025-05-02T10:18:37Z</time>
      </trkpt>
      <trkpt lat="43.45225" lon="6.59632">
        <ele>234.38</ele>
        <time>2025-05-02T10:18:58Z</time>
      </trkpt>
      <trkpt lat="43.45224" lon="6.59627">
        <ele>234.38</ele>
        <time>2025-05-02T10:19:19Z</time>
      </trkpt>
      <trkpt lat="43.45225" lon="6.59628">
        <ele>234.38</ele>
        <time>2025-05-02T10:19:35Z</time>
      </trkpt>
      <trkpt lat="43.45225" lon="6.5963">
        <ele>237.26</ele>
        <time>2025-05-02T10:19:48Z</time>
      </trkpt>
      <trkpt lat="43.45222" lon="6.59625">
        <ele>237.1</ele>
        <time>2025-05-02T10:20:05Z</time>
      </trkpt>
      <trkpt lat="43.4522" lon="6.59627">
        <ele>238.35</ele>
        <time>2025-05-02T10:20:21Z</time>
      </trkpt>
      <trkpt lat="43.4522" lon="6.5963">
        <ele>239.05</ele>
        <time>2025-05-02T10:20:38Z</time>
      </trkpt>
      <trkpt lat="43.45221" lon="6.59632">
        <ele>238.47</ele>
        <time>2025-05-02T10:20:52Z</time>
      </trkpt>
      <trkpt lat="43.45217" lon="6.59639">
        <ele>241.16</ele>
        <time>2025-05-02T10:21:03Z</time>
      </trkpt>
      <trkpt lat="43.45218" lon="6.59641">
        <ele>242.76</ele>
        <time>2025-05-02T10:21:15Z</time>
      </trkpt>
      <trkpt lat="43.45223" lon="6.5964">
        <ele>244.52</ele>
        <time>2025-05-02T10:21:34Z</time>
      </trkpt>
      <trkpt lat="43.45221" lon="6.59642">
        <ele>245.77</ele>
        <time>2025-05-02T10:21:47Z</time>
      </trkpt>
      <trkpt lat="43.45222" lon="6.59643">
        <ele>246.8</ele>
        <time>2025-05-02T10:22:00Z</time>
      </trkpt>
      <trkpt lat="43.45224" lon="6.59648">
        <ele>248.48</ele>
        <time>2025-05-02T10:22:16Z</time>
      </trkpt>
      <trkpt lat="43.45224" lon="6.59649">
        <ele>250.22</ele>
        <time>2025-05-02T10:22:31Z</time>
      </trkpt>
      <trkpt lat="43.45224" lon="6.59654">
        <ele>251.39</ele>
        <time>2025-05-02T10:22:44Z</time>
      </trkpt>
      <trkpt lat="43.45223" lon="6.59654">
        <ele>251.35</ele>
        <time>2025-05-02T10:23:01Z</time>
      </trkpt>
      <trkpt lat="43.45223" lon="6.59651">
        <ele>251.12</ele>
        <time>2025-05-02T10:23:25Z</time>
      </trkpt>
      <trkpt lat="43.45223" lon="6.59651">
        <ele>250.93</ele>
        <time>2025-05-02T10:23:53Z</time>
      </trkpt>
      <trkpt lat="43.45224" lon="6.59651">
        <ele>250.93</ele>
        <time>2025-05-02T10:24:08Z</time>
      </trkpt>
      <trkpt lat="43.45225" lon="6.59655">
        <ele>250.93</ele>
        <time>2025-05-02T10:24:33Z</time>
      </trkpt>
      <trkpt lat="43.45225" lon="6.59657">
        <ele>250.93</ele>
        <time>2025-05-02T10:24:48Z</time>
      </trkpt>
      <trkpt lat="43.45223" lon="6.59658">
        <ele>250.93</ele>
        <time>2025-05-02T10:25:05Z</time>
      </trkpt>
      <trkpt lat="43.45222" lon="6.5966">
        <ele>250.93</ele>
        <time>2025-05-02T10:25:15Z</time>
      </trkpt>
      <trkpt lat="43.45223" lon="6.59659">
        <ele>250.93</ele>
        <time>2025-05-02T10:25:37Z</time>
      </trkpt>
      <trkpt lat="43.45218" lon="6.59659">
        <ele>250.93</ele>
        <time>2025-05-02T10:25:57Z</time>
      </trkpt>
      <trkpt lat="43.45212" lon="6.59657">
        <ele>250.93</ele>
        <time>2025-05-02T10:26:10Z</time>
      </trkpt>
      <trkpt lat="43.45203" lon="6.59659">
        <ele>251.04</ele>
        <time>2025-05-02T10:26:23Z</time>
      </trkpt>
      <trkpt lat="43.45191" lon="6.59661">
        <ele>250.96</ele>
        <time>2025-05-02T10:26:38Z</time>
      </trkpt>
      <trkpt lat="43.45178" lon="6.5966">
        <ele>253.77</ele>
        <time>2025-05-02T10:26:54Z</time>
      </trkpt>
      <trkpt lat="43.4517" lon="6.59667">
        <ele>255.16</ele>
        <time>2025-05-02T10:27:08Z</time>
      </trkpt>
      <trkpt lat="43.45167" lon="6.59673">
        <ele>255.3</ele>
        <time>2025-05-02T10:27:21Z</time>
      </trkpt>
      <trkpt lat="43.45162" lon="6.59676">
        <ele>256.15</ele>
        <time>2025-05-02T10:27:36Z</time>
      </trkpt>
      <trkpt lat="43.45155" lon="6.5967">
        <ele>256.43</ele>
        <time>2025-05-02T10:27:51Z</time>
      </trkpt>
      <trkpt lat="43.45152" lon="6.59675">
        <ele>256.55</ele>
        <time>2025-05-02T10:28:04Z</time>
      </trkpt>
      <trkpt lat="43.45151" lon="6.59676">
        <ele>256.53</ele>
        <time>2025-05-02T10:28:23Z</time>
      </trkpt>
      <trkpt lat="43.45149" lon="6.59677">
        <ele>258.09</ele>
        <time>2025-05-02T10:28:29Z</time>
      </trkpt>
      <trkpt lat="43.45142" lon="6.5968">
        <ele>256.72</ele>
        <time>2025-05-02T10:28:44Z</time>
      </trkpt>
      <trkpt lat="43.45138" lon="6.59676">
        <ele>257.25</ele>
        <time>2025-05-02T10:29:00Z</time>
      </trkpt>
      <trkpt lat="43.45123" lon="6.59677">
        <ele>256.9</ele>
        <time>2025-05-02T10:29:21Z</time>
      </trkpt>
      <trkpt lat="43.45111" lon="6.59676">
        <ele>257.45</ele>
        <time>2025-05-02T10:29:42Z</time>
      </trkpt>
      <trkpt lat="43.45095" lon="6.5968">
        <ele>259.43</ele>
        <time>2025-05-02T10:30:02Z</time>
      </trkpt>
      <trkpt lat="43.45095" lon="6.59696">
        <ele>262.5</ele>
        <time>2025-05-02T10:30:21Z</time>
      </trkpt>
      <trkpt lat="43.45096" lon="6.59714">
        <ele>265.51</ele>
        <time>2025-05-02T10:30:40Z</time>
      </trkpt>
      <trkpt lat="43.45096" lon="6.59729">
        <ele>268.24</ele>
        <time>2025-05-02T10:30:59Z</time>
      </trkpt>
      <trkpt lat="43.45095" lon="6.59736">
        <ele>269.49</ele>
        <time>2025-05-02T10:31:16Z</time>
      </trkpt>
      <trkpt lat="43.45096" lon="6.59739">
        <ele>271.14</ele>
        <time>2025-05-02T10:31:19Z</time>
      </trkpt>
      <trkpt lat="43.45096" lon="6.59752">
        <ele>272.82</ele>
        <time>2025-05-02T10:31:35Z</time>
      </trkpt>
      <trkpt lat="43.4509" lon="6.59761">
        <ele>275.74</ele>
        <time>2025-05-02T10:31:51Z</time>
      </trkpt>
      <trkpt lat="43.45095" lon="6.5977">
        <ele>276.73</ele>
        <time>2025-05-02T10:32:07Z</time>
      </trkpt>
      <trkpt lat="43.451" lon="6.59779">
        <ele>278.18</ele>
        <time>2025-05-02T10:32:21Z</time>
      </trkpt>
      <trkpt lat="43.45104" lon="6.59787">
        <ele>280.07</ele>
        <time>2025-05-02T10:32:29Z</time>
      </trkpt>
      <trkpt lat="43.45111" lon="6.59798">
        <ele>279.97</ele>
        <time>2025-05-02T10:32:42Z</time>
      </trkpt>
      <trkpt lat="43.45118" lon="6.59807">
        <ele>279.02</ele>
        <time>2025-05-02T10:32:57Z</time>
      </trkpt>
      <trkpt lat="43.45119" lon="6.59816">
        <ele>279.5</ele>
        <time>2025-05-02T10:33:13Z</time>
      </trkpt>
      <trkpt lat="43.45126" lon="6.59806">
        <ele>278.91</ele>
        <time>2025-05-02T10:33:33Z</time>
      </trkpt>
      <trkpt lat="43.45131" lon="6.59812">
        <ele>277</ele>
        <time>2025-05-02T10:33:47Z</time>
      </trkpt>
      <trkpt lat="43.4513" lon="6.59813">
        <ele>275.86</ele>
        <time>2025-05-02T10:34:02Z</time>
      </trkpt>
      <trkpt lat="43.4513" lon="6.59813">
        <ele>275.82</ele>
        <time>2025-05-02T10:34:27Z</time>
      </trkpt>
      <trkpt lat="43.45131" lon="6.59817">
        <ele>275.69</ele>
        <time>2025-05-02T10:34:43Z</time>
      </trkpt>
      <trkpt lat="43.45138" lon="6.59812">
        <ele>274.32</ele>
        <time>2025-05-02T10:34:59Z</time>
      </trkpt>
      <trkpt lat="43.45139" lon="6.59815">
        <ele>273.83</ele>
        <time>2025-05-02T10:35:13Z</time>
      </trkpt>
      <trkpt lat="43.45136" lon="6.59808">
        <ele>274.84</ele>
        <time>2025-05-02T10:35:27Z</time>
      </trkpt>
      <trkpt lat="43.45139" lon="6.59799">
        <ele>274.38</ele>
        <time>2025-05-02T10:35:39Z</time>
      </trkpt>
      <trkpt lat="43.45149" lon="6.59792">
        <ele>272.99</ele>
        <time>2025-05-02T10:35:50Z</time>
      </trkpt>
      <trkpt lat="43.45158" lon="6.59792">
        <ele>270.45</ele>
        <time>2025-05-02T10:36:06Z</time>
      </trkpt>
      <trkpt lat="43.45154" lon="6.59799">
        <ele>269.87</ele>
        <time>2025-05-02T10:36:26Z</time>
      </trkpt>
      <trkpt lat="43.4515" lon="6.59803">
        <ele>270.9</ele>
        <time>2025-05-02T10:36:36Z</time>
      </trkpt>
      <trkpt lat="43.45155" lon="6.59809">
        <ele>271.36</ele>
        <time>2025-05-02T10:36:49Z</time>
      </trkpt>
      <trkpt lat="43.45157" lon="6.59809">
        <ele>270.37</ele>
        <time>2025-05-02T10:37:03Z</time>
      </trkpt>
      <trkpt lat="43.45155" lon="6.59816">
        <ele>270.33</ele>
        <time>2025-05-02T10:37:23Z</time>
      </trkpt>
      <trkpt lat="43.45147" lon="6.59827">
        <ele>270.64</ele>
        <time>2025-05-02T10:37:36Z</time>
      </trkpt>
      <trkpt lat="43.45147" lon="6.59829">
        <ele>270.88</ele>
        <time>2025-05-02T10:37:38Z</time>
      </trkpt>
      <trkpt lat="43.45144" lon="6.59848">
        <ele>271.22</ele>
        <time>2025-05-02T10:37:53Z</time>
      </trkpt>
      <trkpt lat="43.45154" lon="6.59846">
        <ele>269.6</ele>
        <time>2025-05-02T10:38:07Z</time>
      </trkpt>
      <trkpt lat="43.4516" lon="6.59825">
        <ele>267.72</ele>
        <time>2025-05-02T10:38:24Z</time>
      </trkpt>
      <trkpt lat="43.45164" lon="6.59817">
        <ele>266.47</ele>
        <time>2025-05-02T10:38:36Z</time>
      </trkpt>
      <trkpt lat="43.45173" lon="6.59808">
        <ele>264.59</ele>
        <time>2025-05-02T10:38:52Z</time>
      </trkpt>
      <trkpt lat="43.45176" lon="6.59804">
        <ele>263.25</ele>
        <time>2025-05-02T10:39:02Z</time>
      </trkpt>
      <trkpt lat="43.45177" lon="6.59804">
        <ele>263.2</ele>
        <time>2025-05-02T10:39:17Z</time>
      </trkpt>
      <trkpt lat="43.45177" lon="6.59806">
        <ele>263.26</ele>
        <time>2025-05-02T10:39:35Z</time>
      </trkpt>
      <trkpt lat="43.45179" lon="6.59807">
        <ele>261.95</ele>
        <time>2025-05-02T10:39:49Z</time>
      </trkpt>
      <trkpt lat="43.45176" lon="6.59807">
        <ele>261.56</ele>
        <time>2025-05-02T10:39:54Z</time>
      </trkpt>
      <trkpt lat="43.45164" lon="6.5981">
        <ele>263.49</ele>
        <time>2025-05-02T10:40:07Z</time>
      </trkpt>
      <trkpt lat="43.45163" lon="6.59814">
        <ele>266.21</ele>
        <time>2025-05-02T10:40:11Z</time>
      </trkpt>
      <trkpt lat="43.45156" lon="6.59826">
        <ele>266.8</ele>
        <time>2025-05-02T10:40:25Z</time>
      </trkpt>
      <trkpt lat="43.45155" lon="6.59831">
        <ele>267.42</ele>
        <time>2025-05-02T10:40:29Z</time>
      </trkpt>
      <trkpt lat="43.45149" lon="6.59848">
        <ele>268.53</ele>
        <time>2025-05-02T10:40:44Z</time>
      </trkpt>
      <trkpt lat="43.45143" lon="6.59846">
        <ele>271.07</ele>
        <time>2025-05-02T10:40:59Z</time>
      </trkpt>
      <trkpt lat="43.45139" lon="6.59843">
        <ele>272.91</ele>
        <time>2025-05-02T10:41:08Z</time>
      </trkpt>
      <trkpt lat="43.45135" lon="6.59842">
        <ele>273.82</ele>
        <time>2025-05-02T10:41:17Z</time>
      </trkpt>
      <trkpt lat="43.45137" lon="6.59828">
        <ele>274.82</ele>
        <time>2025-05-02T10:41:29Z</time>
      </trkpt>
      <trkpt lat="43.45134" lon="6.59822">
        <ele>274.87</ele>
        <time>2025-05-02T10:41:40Z</time>
      </trkpt>
      <trkpt lat="43.45133" lon="6.59822">
        <ele>274.89</ele>
        <time>2025-05-02T10:41:41Z</time>
      </trkpt>
      <trkpt lat="43.45129" lon="6.59822">
        <ele>275.18</ele>
        <time>2025-05-02T10:41:44Z</time>
      </trkpt>
      <trkpt lat="43.45126" lon="6.59823">
        <ele>275.44</ele>
        <time>2025-05-02T10:41:47Z</time>
      </trkpt>
      <trkpt lat="43.45125" lon="6.59824">
        <ele>275.52</ele>
        <time>2025-05-02T10:41:48Z</time>
      </trkpt>
      <trkpt lat="43.45113" lon="6.59838">
        <ele>278.75</ele>
        <time>2025-05-02T10:42:03Z</time>
      </trkpt>
      <trkpt lat="43.45106" lon="6.59845">
        <ele>280.28</ele>
        <time>2025-05-02T10:42:11Z</time>
      </trkpt>
      <trkpt lat="43.45096" lon="6.59845">
        <ele>282.42</ele>
        <time>2025-05-02T10:42:24Z</time>
      </trkpt>
      <trkpt lat="43.45092" lon="6.59852">
        <ele>284.11</ele>
        <time>2025-05-02T10:42:36Z</time>
      </trkpt>
      <trkpt lat="43.45091" lon="6.5986">
        <ele>284.78</ele>
        <time>2025-05-02T10:42:49Z</time>
      </trkpt>
      <trkpt lat="43.45086" lon="6.59867">
        <ele>283.75</ele>
        <time>2025-05-02T10:43:03Z</time>
      </trkpt>
      <trkpt lat="43.45084" lon="6.59877">
        <ele>283.67</ele>
        <time>2025-05-02T10:43:16Z</time>
      </trkpt>
      <trkpt lat="43.45086" lon="6.59887">
        <ele>283.11</ele>
        <time>2025-05-02T10:43:35Z</time>
      </trkpt>
      <trkpt lat="43.45093" lon="6.59888">
        <ele>283.11</ele>
        <time>2025-05-02T10:43:47Z</time>
      </trkpt>
      <trkpt lat="43.45097" lon="6.59898">
        <ele>283.11</ele>
        <time>2025-05-02T10:43:59Z</time>
      </trkpt>
      <trkpt lat="43.45101" lon="6.59903">
        <ele>283.11</ele>
        <time>2025-05-02T10:44:12Z</time>
      </trkpt>
      <trkpt lat="43.45101" lon="6.59904">
        <ele>283.11</ele>
        <time>2025-05-02T10:44:14Z</time>
      </trkpt>
      <trkpt lat="43.451" lon="6.59912">
        <ele>284.57</ele>
        <time>2025-05-02T10:44:21Z</time>
      </trkpt>
      <trkpt lat="43.451" lon="6.59922">
        <ele>285.35</ele>
        <time>2025-05-02T10:44:34Z</time>
      </trkpt>
      <trkpt lat="43.45097" lon="6.59926">
        <ele>285.2</ele>
        <time>2025-05-02T10:44:53Z</time>
      </trkpt>
      <trkpt lat="43.45094" lon="6.5993">
        <ele>286.53</ele>
        <time>2025-05-02T10:45:09Z</time>
      </trkpt>
      <trkpt lat="43.45091" lon="6.59932">
        <ele>288.86</ele>
        <time>2025-05-02T10:45:28Z</time>
      </trkpt>
      <trkpt lat="43.45094" lon="6.59938">
        <ele>291.97</ele>
        <time>2025-05-02T10:45:44Z</time>
      </trkpt>
      <trkpt lat="43.45094" lon="6.59942">
        <ele>294.05</ele>
        <time>2025-05-02T10:46:08Z</time>
      </trkpt>
      <trkpt lat="43.45088" lon="6.59946">
        <ele>295.41</ele>
        <time>2025-05-02T10:46:26Z</time>
      </trkpt>
      <trkpt lat="43.45084" lon="6.5995">
        <ele>297.51</ele>
        <time>2025-05-02T10:46:38Z</time>
      </trkpt>
      <trkpt lat="43.45086" lon="6.59959">
        <ele>297.49</ele>
        <time>2025-05-02T10:46:51Z</time>
      </trkpt>
      <trkpt lat="43.45086" lon="6.59964">
        <ele>296.64</ele>
        <time>2025-05-02T10:47:15Z</time>
      </trkpt>
      <trkpt lat="43.45085" lon="6.59966">
        <ele>297.24</ele>
        <time>2025-05-02T10:47:31Z</time>
      </trkpt>
      <trkpt lat="43.45086" lon="6.59966">
        <ele>296.62</ele>
        <time>2025-05-02T10:47:52Z</time>
      </trkpt>
      <trkpt lat="43.45092" lon="6.59969">
        <ele>297.85</ele>
        <time>2025-05-02T10:48:14Z</time>
      </trkpt>
      <trkpt lat="43.45093" lon="6.59969">
        <ele>298.24</ele>
        <time>2025-05-02T10:48:18Z</time>
      </trkpt>
      <trkpt lat="43.45092" lon="6.59969">
        <ele>299.72</ele>
        <time>2025-05-02T10:48:40Z</time>
      </trkpt>
      <trkpt lat="43.45091" lon="6.59975">
        <ele>301.38</ele>
        <time>2025-05-02T10:48:57Z</time>
      </trkpt>
      <trkpt lat="43.45089" lon="6.59974">
        <ele>301.35</ele>
        <time>2025-05-02T10:49:16Z</time>
      </trkpt>
      <trkpt lat="43.45089" lon="6.59974">
        <ele>299.07</ele>
        <time>2025-05-02T10:49:22Z</time>
      </trkpt>
      <trkpt lat="43.45089" lon="6.59974">
        <ele>303.98</ele>
        <time>2025-05-02T10:49:25Z</time>
      </trkpt>
      <trkpt lat="43.45091" lon="6.59971">
        <ele>300.83</ele>
        <time>2025-05-02T10:49:37Z</time>
      </trkpt>
      <trkpt lat="43.45087" lon="6.5997">
        <ele>299.39</ele>
        <time>2025-05-02T10:49:55Z</time>
      </trkpt>
      <trkpt lat="43.45085" lon="6.5997">
        <ele>300.61</ele>
        <time>2025-05-02T10:50:07Z</time>
      </trkpt>
      <trkpt lat="43.45084" lon="6.5997">
        <ele>297.96</ele>
        <time>2025-05-02T10:50:13Z</time>
      </trkpt>
      <trkpt lat="43.45082" lon="6.59969">
        <ele>294.94</ele>
        <time>2025-05-02T10:50:33Z</time>
      </trkpt>
      <trkpt lat="43.45081" lon="6.5997">
        <ele>293.39</ele>
        <time>2025-05-02T10:50:53Z</time>
      </trkpt>
      <trkpt lat="43.45077" lon="6.59971">
        <ele>291.63</ele>
        <time>2025-05-02T10:51:12Z</time>
      </trkpt>
      <trkpt lat="43.45077" lon="6.59975">
        <ele>290.62</ele>
        <time>2025-05-02T10:51:29Z</time>
      </trkpt>
      <trkpt lat="43.4508" lon="6.59974">
        <ele>290.4</ele>
        <time>2025-05-02T10:51:55Z</time>
      </trkpt>
      <trkpt lat="43.4508" lon="6.59973">
        <ele>290.79</ele>
        <time>2025-05-02T10:52:21Z</time>
      </trkpt>
      <trkpt lat="43.45078" lon="6.59971">
        <ele>290.82</ele>
        <time>2025-05-02T10:52:46Z</time>
      </trkpt>
      <trkpt lat="43.45079" lon="6.5997">
        <ele>290.55</ele>
        <time>2025-05-02T10:53:07Z</time>
      </trkpt>
      <trkpt lat="43.45079" lon="6.59972">
        <ele>289.34</ele>
        <time>2025-05-02T10:53:33Z</time>
      </trkpt>
      <trkpt lat="43.45078" lon="6.59971">
        <ele>290.17</ele>
        <time>2025-05-02T10:53:59Z</time>
      </trkpt>
      <trkpt lat="43.45078" lon="6.5997">
        <ele>290.13</ele>
        <time>2025-05-02T10:54:23Z</time>
      </trkpt>
      <trkpt lat="43.45078" lon="6.59968">
        <ele>290.53</ele>
        <time>2025-05-02T10:54:55Z</time>
      </trkpt>
      <trkpt lat="43.45079" lon="6.59966">
        <ele>289.78</ele>
        <time>2025-05-02T10:55:18Z</time>
      </trkpt>
      <trkpt lat="43.4508" lon="6.59966">
        <ele>289.58</ele>
        <time>2025-05-02T10:55:41Z</time>
      </trkpt>
      <trkpt lat="43.45081" lon="6.59965">
        <ele>289.94</ele>
        <time>2025-05-02T10:56:00Z</time>
      </trkpt>
      <trkpt lat="43.45081" lon="6.59966">
        <ele>290.06</ele>
        <time>2025-05-02T10:56:26Z</time>
      </trkpt>
      <trkpt lat="43.4508" lon="6.59967">
        <ele>290.25</ele>
        <time>2025-05-02T10:57:06Z</time>
      </trkpt>
      <trkpt lat="43.45081" lon="6.59963">
        <ele>290.25</ele>
        <time>2025-05-02T10:57:33Z</time>
      </trkpt>
      <trkpt lat="43.45084" lon="6.59966">
        <ele>290.25</ele>
        <time>2025-05-02T10:58:10Z</time>
      </trkpt>
      <trkpt lat="43.45083" lon="6.59965">
        <ele>290.25</ele>
        <time>2025-05-02T10:58:39Z</time>
      </trkpt>
      <trkpt lat="43.4508" lon="6.59968">
        <ele>290.25</ele>
        <time>2025-05-02T10:59:16Z</time>
      </trkpt>
      <trkpt lat="43.45078" lon="6.59969">
        <ele>290.25</ele>
        <time>2025-05-02T10:59:42Z</time>
      </trkpt>
      <trkpt lat="43.45083" lon="6.59963">
        <ele>290.25</ele>
        <time>2025-05-02T11:00:05Z</time>
      </trkpt>
      <trkpt lat="43.45082" lon="6.59964">
        <ele>290.25</ele>
        <time>2025-05-02T11:00:22Z</time>
      </trkpt>
      <trkpt lat="43.4508" lon="6.59971">
        <ele>290.25</ele>
        <time>2025-05-02T11:00:49Z</time>
      </trkpt>
      <trkpt lat="43.45079" lon="6.59972">
        <ele>290.25</ele>
        <time>2025-05-02T11:01:19Z</time>
      </trkpt>
      <trkpt lat="43.45078" lon="6.59967">
        <ele>290.25</ele>
        <time>2025-05-02T11:01:53Z</time>
      </trkpt>
      <trkpt lat="43.45079" lon="6.59963">
        <ele>290.25</ele>
        <time>2025-05-02T11:02:34Z</time>
      </trkpt>
      <trkpt lat="43.4508" lon="6.59965">
        <ele>290.25</ele>
        <time>2025-05-02T11:02:56Z</time>
      </trkpt>
      <trkpt lat="43.4508" lon="6.59972">
        <ele>290.25</ele>
        <time>2025-05-02T11:03:19Z</time>
      </trkpt>
      <trkpt lat="43.45077" lon="6.5998">
        <ele>290.25</ele>
        <time>2025-05-02T11:03:32Z</time>
      </trkpt>
      <trkpt lat="43.45075" lon="6.59987">
        <ele>290.25</ele>
        <time>2025-05-02T11:03:44Z</time>
      </trkpt>
      <trkpt lat="43.45074" lon="6.59991">
        <ele>287.09</ele>
        <time>2025-05-02T11:03:55Z</time>
      </trkpt>
      <trkpt lat="43.45074" lon="6.59991">
        <ele>287.07</ele>
        <time>2025-05-02T11:03:56Z</time>
      </trkpt>
      <trkpt lat="43.45075" lon="6.5999">
        <ele>287.56</ele>
        <time>2025-05-02T11:04:02Z</time>
      </trkpt>
      <trkpt lat="43.45078" lon="6.59977">
        <ele>287.79</ele>
        <time>2025-05-02T11:04:20Z</time>
      </trkpt>
      <trkpt lat="43.45079" lon="6.59974">
        <ele>287.27</ele>
        <time>2025-05-02T11:04:31Z</time>
      </trkpt>
      <trkpt lat="43.45081" lon="6.59974">
        <ele>286.62</ele>
        <time>2025-05-02T11:04:43Z</time>
      </trkpt>
      <trkpt lat="43.45078" lon="6.59982">
        <ele>285.05</ele>
        <time>2025-05-02T11:05:06Z</time>
      </trkpt>
      <trkpt lat="43.45078" lon="6.59988">
        <ele>284.94</ele>
        <time>2025-05-02T11:05:13Z</time>
      </trkpt>
      <trkpt lat="43.45077" lon="6.60004">
        <ele>285.14</ele>
        <time>2025-05-02T11:05:38Z</time>
      </trkpt>
      <trkpt lat="43.45079" lon="6.6001">
        <ele>285.2</ele>
        <time>2025-05-02T11:06:02Z</time>
      </trkpt>
      <trkpt lat="43.45081" lon="6.59995">
        <ele>285.2</ele>
        <time>2025-05-02T11:06:29Z</time>
      </trkpt>
      <trkpt lat="43.45079" lon="6.59988">
        <ele>285.2</ele>
        <time>2025-05-02T11:06:56Z</time>
      </trkpt>
      <trkpt lat="43.45078" lon="6.59981">
        <ele>285.2</ele>
        <time>2025-05-02T11:07:24Z</time>
      </trkpt>
      <trkpt lat="43.4508" lon="6.59994">
        <ele>285.2</ele>
        <time>2025-05-02T11:07:51Z</time>
      </trkpt>
      <trkpt lat="43.45079" lon="6.59995">
        <ele>285.2</ele>
        <time>2025-05-02T11:08:14Z</time>
      </trkpt>
      <trkpt lat="43.4508" lon="6.59983">
        <ele>285.2</ele>
        <time>2025-05-02T11:08:36Z</time>
      </trkpt>
      <trkpt lat="43.4508" lon="6.59974">
        <ele>285.2</ele>
        <time>2025-05-02T11:09:01Z</time>
      </trkpt>
      <trkpt lat="43.45079" lon="6.59972">
        <ele>285.2</ele>
        <time>2025-05-02T11:09:19Z</time>
      </trkpt>
      <trkpt lat="43.4508" lon="6.59972">
        <ele>285.2</ele>
        <time>2025-05-02T11:09:40Z</time>
      </trkpt>
      <trkpt lat="43.45082" lon="6.59973">
        <ele>281.65</ele>
        <time>2025-05-02T11:09:53Z</time>
      </trkpt>
      <trkpt lat="43.45083" lon="6.59976">
        <ele>280.05</ele>
        <time>2025-05-02T11:10:16Z</time>
      </trkpt>
      <trkpt lat="43.45086" lon="6.59981">
        <ele>280.71</ele>
        <time>2025-05-02T11:10:36Z</time>
      </trkpt>
      <trkpt lat="43.45087" lon="6.59984">
        <ele>280.23</ele>
        <time>2025-05-02T11:11:04Z</time>
      </trkpt>
      <trkpt lat="43.45085" lon="6.59989">
        <ele>280.24</ele>
        <time>2025-05-02T11:11:34Z</time>
      </trkpt>
      <trkpt lat="43.45082" lon="6.59987">
        <ele>279.94</ele>
        <time>2025-05-02T11:11:53Z</time>
      </trkpt>
      <trkpt lat="43.45081" lon="6.59989">
        <ele>276.87</ele>
        <time>2025-05-02T11:12:00Z</time>
      </trkpt>
      <trkpt lat="43.4508" lon="6.59989">
        <ele>277.99</ele>
        <time>2025-05-02T11:12:05Z</time>
      </trkpt>
      <trkpt lat="43.45078" lon="6.59989">
        <ele>275.63</ele>
        <time>2025-05-02T11:12:26Z</time>
      </trkpt>
      <trkpt lat="43.45076" lon="6.5999">
        <ele>275.98</ele>
        <time>2025-05-02T11:12:47Z</time>
      </trkpt>
      <trkpt lat="43.45076" lon="6.59991">
        <ele>275.56</ele>
        <time>2025-05-02T11:13:05Z</time>
      </trkpt>
      <trkpt lat="43.45077" lon="6.59994">
        <ele>275.49</ele>
        <time>2025-05-02T11:13:27Z</time>
      </trkpt>
      <trkpt lat="43.45088" lon="6.59982">
        <ele>276.04</ele>
        <time>2025-05-02T11:13:45Z</time>
      </trkpt>
      <trkpt lat="43.45091" lon="6.59981">
        <ele>276.36</ele>
        <time>2025-05-02T11:14:04Z</time>
      </trkpt>
      <trkpt lat="43.45098" lon="6.59985">
        <ele>276.26</ele>
        <time>2025-05-02T11:14:23Z</time>
      </trkpt>
      <trkpt lat="43.45097" lon="6.59986">
        <ele>275.39</ele>
        <time>2025-05-02T11:14:39Z</time>
      </trkpt>
      <trkpt lat="43.45092" lon="6.59989">
        <ele>275.4</ele>
        <time>2025-05-02T11:15:00Z</time>
      </trkpt>
      <trkpt lat="43.4509" lon="6.5999">
        <ele>275.74</ele>
        <time>2025-05-02T11:15:19Z</time>
      </trkpt>
      <trkpt lat="43.45089" lon="6.59991">
        <ele>275.47</ele>
        <time>2025-05-02T11:15:44Z</time>
      </trkpt>
      <trkpt lat="43.45087" lon="6.59995">
        <ele>275.47</ele>
        <time>2025-05-02T11:16:10Z</time>
      </trkpt>
      <trkpt lat="43.45085" lon="6.59996">
        <ele>275.1</ele>
        <time>2025-05-02T11:16:37Z</time>
      </trkpt>
      <trkpt lat="43.45088" lon="6.59996">
        <ele>274.91</ele>
        <time>2025-05-02T11:17:02Z</time>
      </trkpt>
      <trkpt lat="43.45088" lon="6.59991">
        <ele>274.44</ele>
        <time>2025-05-02T11:17:25Z</time>
      </trkpt>
      <trkpt lat="43.45087" lon="6.5999">
        <ele>269.87</ele>
        <time>2025-05-02T11:17:31Z</time>
      </trkpt>
      <trkpt lat="43.45088" lon="6.5999">
        <ele>273.93</ele>
        <time>2025-05-02T11:17:34Z</time>
      </trkpt>
      <trkpt lat="43.45088" lon="6.59989">
        <ele>277.11</ele>
        <time>2025-05-02T11:17:36Z</time>
      </trkpt>
      <trkpt lat="43.45087" lon="6.59988">
        <ele>278.95</ele>
        <time>2025-05-02T11:17:39Z</time>
      </trkpt>
      <trkpt lat="43.45088" lon="6.59986">
        <ele>278.89</ele>
        <time>2025-05-02T11:17:40Z</time>
      </trkpt>
      <trkpt lat="43.45089" lon="6.59983">
        <ele>275.55</ele>
        <time>2025-05-02T11:17:45Z</time>
      </trkpt>
      <trkpt lat="43.45089" lon="6.59983">
        <ele>274.83</ele>
        <time>2025-05-02T11:17:47Z</time>
      </trkpt>
      <trkpt lat="43.45091" lon="6.59991">
        <ele>272.82</ele>
        <time>2025-05-02T11:18:00Z</time>
      </trkpt>
      <trkpt lat="43.45089" lon="6.60008">
        <ele>272.82</ele>
        <time>2025-05-02T11:18:34Z</time>
      </trkpt>
      <trkpt lat="43.45089" lon="6.60014">
        <ele>272.68</ele>
        <time>2025-05-02T11:18:59Z</time>
      </trkpt>
      <trkpt lat="43.45091" lon="6.60018">
        <ele>272.68</ele>
        <time>2025-05-02T11:19:22Z</time>
      </trkpt>
      <trkpt lat="43.45092" lon="6.60017">
        <ele>272.68</ele>
        <time>2025-05-02T11:19:59Z</time>
      </trkpt>
      <trkpt lat="43.45092" lon="6.60023">
        <ele>272.68</ele>
        <time>2025-05-02T11:20:35Z</time>
      </trkpt>
      <trkpt lat="43.45092" lon="6.60015">
        <ele>272.68</ele>
        <time>2025-05-02T11:21:02Z</time>
      </trkpt>
      <trkpt lat="43.4509" lon="6.60009">
        <ele>272.68</ele>
        <time>2025-05-02T11:21:23Z</time>
      </trkpt>
      <trkpt lat="43.45088" lon="6.60008">
        <ele>272.68</ele>
        <time>2025-05-02T11:21:43Z</time>
      </trkpt>
      <trkpt lat="43.45088" lon="6.60009">
        <ele>272.68</ele>
        <time>2025-05-02T11:21:51Z</time>
      </trkpt>
      <trkpt lat="43.45089" lon="6.60001">
        <ele>268.86</ele>
        <time>2025-05-02T11:22:03Z</time>
      </trkpt>
      <trkpt lat="43.45089" lon="6.6">
        <ele>268.76</ele>
        <time>2025-05-02T11:22:04Z</time>
      </trkpt>
      <trkpt lat="43.45092" lon="6.59984">
        <ele>268.63</ele>
        <time>2025-05-02T11:22:26Z</time>
      </trkpt>
      <trkpt lat="43.45095" lon="6.59977">
        <ele>268.2</ele>
        <time>2025-05-02T11:22:51Z</time>
      </trkpt>
      <trkpt lat="43.45093" lon="6.59982">
        <ele>268.74</ele>
        <time>2025-05-02T11:23:18Z</time>
      </trkpt>
      <trkpt lat="43.45092" lon="6.5998">
        <ele>268.74</ele>
        <time>2025-05-02T11:23:41Z</time>
      </trkpt>
      <trkpt lat="43.4509" lon="6.5998">
        <ele>268.74</ele>
        <time>2025-05-02T11:24:04Z</time>
      </trkpt>
      <trkpt lat="43.45088" lon="6.59977">
        <ele>268.74</ele>
        <time>2025-05-02T11:24:27Z</time>
      </trkpt>
      <trkpt lat="43.45088" lon="6.59978">
        <ele>268.74</ele>
        <time>2025-05-02T11:24:49Z</time>
      </trkpt>
      <trkpt lat="43.45087" lon="6.5998">
        <ele>268.74</ele>
        <time>2025-05-02T11:25:11Z</time>
      </trkpt>
      <trkpt lat="43.45086" lon="6.59987">
        <ele>268.74</ele>
        <time>2025-05-02T11:25:33Z</time>
      </trkpt>
      <trkpt lat="43.45088" lon="6.59989">
        <ele>268.74</ele>
        <time>2025-05-02T11:25:52Z</time>
      </trkpt>
      <trkpt lat="43.45086" lon="6.59994">
        <ele>265.01</ele>
        <time>2025-05-02T11:26:06Z</time>
      </trkpt>
      <trkpt lat="43.45086" lon="6.59994">
        <ele>261.25</ele>
        <time>2025-05-02T11:26:08Z</time>
      </trkpt>
      <trkpt lat="43.45085" lon="6.59994">
        <ele>262.98</ele>
        <time>2025-05-02T11:26:09Z</time>
      </trkpt>
      <trkpt lat="43.45085" lon="6.59994">
        <ele>266.08</ele>
        <time>2025-05-02T11:26:11Z</time>
      </trkpt>
      <trkpt lat="43.45085" lon="6.59994">
        <ele>265.71</ele>
        <time>2025-05-02T11:26:12Z</time>
      </trkpt>
      <trkpt lat="43.45085" lon="6.59993">
        <ele>264.91</ele>
        <time>2025-05-02T11:26:36Z</time>
      </trkpt>
      <trkpt lat="43.45087" lon="6.60005">
        <ele>262.23</ele>
        <time>2025-05-02T11:26:50Z</time>
      </trkpt>
      <trkpt lat="43.4509" lon="6.60012">
        <ele>260.42</ele>
        <time>2025-05-02T11:27:06Z</time>
      </trkpt>
      <trkpt lat="43.45093" lon="6.60016">
        <ele>259.27</ele>
        <time>2025-05-02T11:27:29Z</time>
      </trkpt>
      <trkpt lat="43.45091" lon="6.60018">
        <ele>256.55</ele>
        <time>2025-05-02T11:27:50Z</time>
      </trkpt>
      <trkpt lat="43.45089" lon="6.60025">
        <ele>254</ele>
        <time>2025-05-02T11:28:07Z</time>
      </trkpt>
      <trkpt lat="43.45089" lon="6.60033">
        <ele>251.63</ele>
        <time>2025-05-02T11:28:26Z</time>
      </trkpt>
      <trkpt lat="43.45088" lon="6.60046">
        <ele>251.21</ele>
        <time>2025-05-02T11:28:48Z</time>
      </trkpt>
      <trkpt lat="43.45087" lon="6.60054">
        <ele>250.16</ele>
        <time>2025-05-02T11:28:54Z</time>
      </trkpt>
      <trkpt lat="43.45086" lon="6.60056">
        <ele>250.01</ele>
        <time>2025-05-02T11:28:55Z</time>
      </trkpt>
      <trkpt lat="43.45084" lon="6.60068">
        <ele>250.61</ele>
        <time>2025-05-02T11:29:10Z</time>
      </trkpt>
      <trkpt lat="43.4508" lon="6.60076">
        <ele>252.28</ele>
        <time>2025-05-02T11:29:24Z</time>
      </trkpt>
      <trkpt lat="43.45076" lon="6.60087">
        <ele>251.96</ele>
        <time>2025-05-02T11:29:36Z</time>
      </trkpt>
      <trkpt lat="43.45077" lon="6.60085">
        <ele>251.24</ele>
        <time>2025-05-02T11:29:48Z</time>
      </trkpt>
      <trkpt lat="43.45077" lon="6.60084">
        <ele>251.31</ele>
        <time>2025-05-02T11:29:49Z</time>
      </trkpt>
      <trkpt lat="43.45078" lon="6.60081">
        <ele>251.62</ele>
        <time>2025-05-02T11:30:06Z</time>
      </trkpt>
      <trkpt lat="43.45075" lon="6.60086">
        <ele>251.61</ele>
        <time>2025-05-02T11:30:26Z</time>
      </trkpt>
      <trkpt lat="43.45075" lon="6.60097">
        <ele>251.09</ele>
        <time>2025-05-02T11:30:37Z</time>
      </trkpt>
      <trkpt lat="43.45073" lon="6.60102">
        <ele>252</ele>
        <time>2025-05-02T11:30:50Z</time>
      </trkpt>
      <trkpt lat="43.4507" lon="6.60107">
        <ele>252.46</ele>
        <time>2025-05-02T11:31:07Z</time>
      </trkpt>
      <trkpt lat="43.45067" lon="6.60101">
        <ele>252.56</ele>
        <time>2025-05-02T11:31:25Z</time>
      </trkpt>
      <trkpt lat="43.45065" lon="6.60102">
        <ele>252.91</ele>
        <time>2025-05-02T11:31:38Z</time>
      </trkpt>
      <trkpt lat="43.45065" lon="6.60101">
        <ele>252.42</ele>
        <time>2025-05-02T11:32:57Z</time>
      </trkpt>
      <trkpt lat="43.45064" lon="6.60102">
        <ele>253.13</ele>
        <time>2025-05-02T11:33:33Z</time>
      </trkpt>
      <trkpt lat="43.45064" lon="6.60104">
        <ele>253.13</ele>
        <time>2025-05-02T11:34:11Z</time>
      </trkpt>
      <trkpt lat="43.45064" lon="6.60105">
        <ele>253.13</ele>
        <time>2025-05-02T11:34:53Z</time>
      </trkpt>
      <trkpt lat="43.45066" lon="6.60101">
        <ele>253.13</ele>
        <time>2025-05-02T11:35:33Z</time>
      </trkpt>
      <trkpt lat="43.45065" lon="6.60103">
        <ele>253.13</ele>
        <time>2025-05-02T11:35:37Z</time>
      </trkpt>
      <trkpt lat="43.45063" lon="6.60108">
        <ele>253.13</ele>
        <time>2025-05-02T11:35:41Z</time>
      </trkpt>
      <trkpt lat="43.45062" lon="6.60105">
        <ele>252.31</ele>
        <time>2025-05-02T11:35:47Z</time>
      </trkpt>
      <trkpt lat="43.45065" lon="6.60103">
        <ele>254.24</ele>
        <time>2025-05-02T11:36:07Z</time>
      </trkpt>
      <trkpt lat="43.45062" lon="6.60103">
        <ele>252.41</ele>
        <time>2025-05-02T11:36:32Z</time>
      </trkpt>
      <trkpt lat="43.45062" lon="6.60106">
        <ele>252.79</ele>
        <time>2025-05-02T11:36:34Z</time>
      </trkpt>
      <trkpt lat="43.45062" lon="6.60105">
        <ele>252.57</ele>
        <time>2025-05-02T11:37:10Z</time>
      </trkpt>
      <trkpt lat="43.45063" lon="6.60106">
        <ele>252.57</ele>
        <time>2025-05-02T11:38:05Z</time>
      </trkpt>
      <trkpt lat="43.45058" lon="6.60107">
        <ele>252.57</ele>
        <time>2025-05-02T11:38:42Z</time>
      </trkpt>
      <trkpt lat="43.45059" lon="6.60107">
        <ele>252.57</ele>
        <time>2025-05-02T11:39:08Z</time>
      </trkpt>
      <trkpt lat="43.45063" lon="6.60108">
        <ele>252.57</ele>
        <time>2025-05-02T11:39:35Z</time>
      </trkpt>
      <trkpt lat="43.45067" lon="6.60112">
        <ele>252.57</ele>
        <time>2025-05-02T11:40:03Z</time>
      </trkpt>
      <trkpt lat="43.45063" lon="6.60109">
        <ele>252.57</ele>
        <time>2025-05-02T11:40:28Z</time>
      </trkpt>
      <trkpt lat="43.45063" lon="6.60108">
        <ele>252.57</ele>
        <time>2025-05-02T11:40:52Z</time>
      </trkpt>
      <trkpt lat="43.45064" lon="6.60108">
        <ele>252.57</ele>
        <time>2025-05-02T11:41:18Z</time>
      </trkpt>
      <trkpt lat="43.45062" lon="6.60106">
        <ele>252.57</ele>
        <time>2025-05-02T11:41:46Z</time>
      </trkpt>
      <trkpt lat="43.45063" lon="6.60106">
        <ele>252.57</ele>
        <time>2025-05-02T11:42:13Z</time>
      </trkpt>
      <trkpt lat="43.45061" lon="6.60108">
        <ele>252.57</ele>
        <time>2025-05-02T11:42:41Z</time>
      </trkpt>
      <trkpt lat="43.45057" lon="6.60112">
        <ele>252.57</ele>
        <time>2025-05-02T11:43:06Z</time>
      </trkpt>
      <trkpt lat="43.45057" lon="6.60112">
        <ele>252.57</ele>
        <time>2025-05-02T11:43:32Z</time>
      </trkpt>
      <trkpt lat="43.45058" lon="6.6011">
        <ele>252.57</ele>
        <time>2025-05-02T11:43:56Z</time>
      </trkpt>
      <trkpt lat="43.4506" lon="6.6011">
        <ele>252.57</ele>
        <time>2025-05-02T11:44:19Z</time>
      </trkpt>
      <trkpt lat="43.45061" lon="6.60106">
        <ele>252.57</ele>
        <time>2025-05-02T11:44:44Z</time>
      </trkpt>
      <trkpt lat="43.45062" lon="6.60104">
        <ele>252.57</ele>
        <time>2025-05-02T11:45:09Z</time>
      </trkpt>
      <trkpt lat="43.45064" lon="6.60099">
        <ele>252.57</ele>
        <time>2025-05-02T11:45:36Z</time>
      </trkpt>
      <trkpt lat="43.45064" lon="6.60103">
        <ele>252.57</ele>
        <time>2025-05-02T11:46:11Z</time>
      </trkpt>
      <trkpt lat="43.45064" lon="6.60105">
        <ele>252.57</ele>
        <time>2025-05-02T11:46:42Z</time>
      </trkpt>
      <trkpt lat="43.45066" lon="6.60104">
        <ele>252.57</ele>
        <time>2025-05-02T11:47:10Z</time>
      </trkpt>
      <trkpt lat="43.45063" lon="6.60104">
        <ele>252.57</ele>
        <time>2025-05-02T11:47:38Z</time>
      </trkpt>
      <trkpt lat="43.45061" lon="6.60103">
        <ele>252.57</ele>
        <time>2025-05-02T11:48:06Z</time>
      </trkpt>
      <trkpt lat="43.45063" lon="6.60105">
        <ele>252.57</ele>
        <time>2025-05-02T11:48:34Z</time>
      </trkpt>
      <trkpt lat="43.45066" lon="6.60107">
        <ele>252.57</ele>
        <time>2025-05-02T11:49:04Z</time>
      </trkpt>
      <trkpt lat="43.45065" lon="6.60102">
        <ele>252.57</ele>
        <time>2025-05-02T11:49:27Z</time>
      </trkpt>
      <trkpt lat="43.45067" lon="6.60101">
        <ele>252.57</ele>
        <time>2025-05-02T11:49:54Z</time>
      </trkpt>
      <trkpt lat="43.45065" lon="6.60105">
        <ele>252.57</ele>
        <time>2025-05-02T11:50:23Z</time>
      </trkpt>
      <trkpt lat="43.45066" lon="6.60103">
        <ele>252.57</ele>
        <time>2025-05-02T11:50:54Z</time>
      </trkpt>
      <trkpt lat="43.45066" lon="6.60104">
        <ele>252.57</ele>
        <time>2025-05-02T11:51:21Z</time>
      </trkpt>
      <trkpt lat="43.45067" lon="6.60106">
        <ele>252.57</ele>
        <time>2025-05-02T11:51:53Z</time>
      </trkpt>
      <trkpt lat="43.45067" lon="6.60108">
        <ele>252.57</ele>
        <time>2025-05-02T11:52:17Z</time>
      </trkpt>
      <trkpt lat="43.45065" lon="6.60101">
        <ele>252.57</ele>
        <time>2025-05-02T11:52:42Z</time>
      </trkpt>
      <trkpt lat="43.45064" lon="6.601">
        <ele>252.57</ele>
        <time>2025-05-02T11:53:07Z</time>
      </trkpt>
      <trkpt lat="43.45065" lon="6.60101">
        <ele>252.57</ele>
        <time>2025-05-02T11:53:32Z</time>
      </trkpt>
      <trkpt lat="43.45068" lon="6.60097">
        <ele>252.57</ele>
        <time>2025-05-02T11:53:57Z</time>
      </trkpt>
      <trkpt lat="43.45068" lon="6.60097">
        <ele>252.57</ele>
        <time>2025-05-02T11:54:20Z</time>
      </trkpt>
      <trkpt lat="43.45073" lon="6.60102">
        <ele>252.57</ele>
        <time>2025-05-02T11:54:29Z</time>
      </trkpt>
      <trkpt lat="43.4507" lon="6.60106">
        <ele>252.57</ele>
        <time>2025-05-02T11:54:57Z</time>
      </trkpt>
      <trkpt lat="43.45064" lon="6.60109">
        <ele>252.57</ele>
        <time>2025-05-02T11:55:26Z</time>
      </trkpt>
      <trkpt lat="43.4506" lon="6.60109">
        <ele>252.57</ele>
        <time>2025-05-02T11:55:54Z</time>
      </trkpt>
      <trkpt lat="43.45057" lon="6.6011">
        <ele>252.57</ele>
        <time>2025-05-02T11:56:21Z</time>
      </trkpt>
      <trkpt lat="43.45056" lon="6.60108">
        <ele>252.57</ele>
        <time>2025-05-02T11:56:49Z</time>
      </trkpt>
      <trkpt lat="43.45056" lon="6.60108">
        <ele>252.57</ele>
        <time>2025-05-02T11:57:15Z</time>
      </trkpt>
      <trkpt lat="43.45063" lon="6.6011">
        <ele>252.57</ele>
        <time>2025-05-02T11:57:47Z</time>
      </trkpt>
      <trkpt lat="43.45063" lon="6.6011">
        <ele>252.57</ele>
        <time>2025-05-02T11:58:14Z</time>
      </trkpt>
      <trkpt lat="43.45062" lon="6.60107">
        <ele>252.57</ele>
        <time>2025-05-02T11:58:44Z</time>
      </trkpt>
      <trkpt lat="43.45064" lon="6.60105">
        <ele>252.57</ele>
        <time>2025-05-02T11:59:31Z</time>
      </trkpt>
      <trkpt lat="43.45059" lon="6.60105">
        <ele>252.57</ele>
        <time>2025-05-02T12:00:00Z</time>
      </trkpt>
      <trkpt lat="43.45062" lon="6.60105">
        <ele>252.57</ele>
        <time>2025-05-02T12:00:47Z</time>
      </trkpt>
      <trkpt lat="43.45063" lon="6.60108">
        <ele>252.57</ele>
        <time>2025-05-02T12:01:14Z</time>
      </trkpt>
      <trkpt lat="43.45064" lon="6.60102">
        <ele>252.57</ele>
        <time>2025-05-02T12:01:42Z</time>
      </trkpt>
      <trkpt lat="43.45065" lon="6.60102">
        <ele>252.57</ele>
        <time>2025-05-02T12:02:09Z</time>
      </trkpt>
      <trkpt lat="43.45066" lon="6.60101">
        <ele>252.57</ele>
        <time>2025-05-02T12:02:25Z</time>
      </trkpt>
      <trkpt lat="43.45067" lon="6.60101">
        <ele>252.57</ele>
        <time>2025-05-02T12:02:41Z</time>
      </trkpt>
      <trkpt lat="43.45069" lon="6.60099">
        <ele>252.57</ele>
        <time>2025-05-02T12:03:03Z</time>
      </trkpt>
      <trkpt lat="43.45075" lon="6.60108">
        <ele>251.27</ele>
        <time>2025-05-02T12:03:17Z</time>
      </trkpt>
      <trkpt lat="43.45069" lon="6.60116">
        <ele>253.44</ele>
        <time>2025-05-02T12:03:30Z</time>
      </trkpt>
      <trkpt lat="43.45064" lon="6.60122">
        <ele>253.86</ele>
        <time>2025-05-02T12:03:46Z</time>
      </trkpt>
      <trkpt lat="43.45061" lon="6.60124">
        <ele>254.51</ele>
        <time>2025-05-02T12:04:04Z</time>
      </trkpt>
      <trkpt lat="43.45059" lon="6.60127">
        <ele>257.06</ele>
        <time>2025-05-02T12:04:20Z</time>
      </trkpt>
      <trkpt lat="43.45059" lon="6.60135">
        <ele>259.25</ele>
        <time>2025-05-02T12:04:36Z</time>
      </trkpt>
      <trkpt lat="43.45059" lon="6.60139">
        <ele>260.58</ele>
        <time>2025-05-02T12:04:53Z</time>
      </trkpt>
      <trkpt lat="43.45058" lon="6.6014">
        <ele>261.17</ele>
        <time>2025-05-02T12:05:13Z</time>
      </trkpt>
      <trkpt lat="43.45061" lon="6.60149">
        <ele>263.23</ele>
        <time>2025-05-02T12:05:31Z</time>
      </trkpt>
      <trkpt lat="43.45058" lon="6.60156">
        <ele>264.85</ele>
        <time>2025-05-02T12:05:41Z</time>
      </trkpt>
      <trkpt lat="43.45054" lon="6.60168">
        <ele>264.94</ele>
        <time>2025-05-02T12:05:54Z</time>
      </trkpt>
      <trkpt lat="43.45054" lon="6.6017">
        <ele>265</ele>
        <time>2025-05-02T12:05:55Z</time>
      </trkpt>
      <trkpt lat="43.45055" lon="6.60177">
        <ele>265.49</ele>
        <time>2025-05-02T12:06:00Z</time>
      </trkpt>
      <trkpt lat="43.45059" lon="6.60183">
        <ele>265.7</ele>
        <time>2025-05-02T12:06:06Z</time>
      </trkpt>
      <trkpt lat="43.45057" lon="6.60191">
        <ele>265.94</ele>
        <time>2025-05-02T12:06:14Z</time>
      </trkpt>
      <trkpt lat="43.45061" lon="6.60201">
        <ele>268.08</ele>
        <time>2025-05-02T12:06:28Z</time>
      </trkpt>
      <trkpt lat="43.45064" lon="6.60209">
        <ele>269.74</ele>
        <time>2025-05-02T12:06:46Z</time>
      </trkpt>
      <trkpt lat="43.45065" lon="6.6022">
        <ele>272.07</ele>
        <time>2025-05-02T12:07:04Z</time>
      </trkpt>
      <trkpt lat="43.4507" lon="6.60231">
        <ele>273.59</ele>
        <time>2025-05-02T12:07:20Z</time>
      </trkpt>
      <trkpt lat="43.45069" lon="6.60232">
        <ele>274.49</ele>
        <time>2025-05-02T12:07:35Z</time>
      </trkpt>
      <trkpt lat="43.45067" lon="6.60234">
        <ele>275.25</ele>
        <time>2025-05-02T12:07:50Z</time>
      </trkpt>
      <trkpt lat="43.45063" lon="6.60237">
        <ele>276.57</ele>
        <time>2025-05-02T12:08:06Z</time>
      </trkpt>
      <trkpt lat="43.45064" lon="6.60245">
        <ele>279.37</ele>
        <time>2025-05-02T12:08:23Z</time>
      </trkpt>
      <trkpt lat="43.45065" lon="6.60258">
        <ele>281.85</ele>
        <time>2025-05-02T12:08:42Z</time>
      </trkpt>
      <trkpt lat="43.45067" lon="6.60263">
        <ele>282.92</ele>
        <time>2025-05-02T12:09:04Z</time>
      </trkpt>
      <trkpt lat="43.4507" lon="6.60271">
        <ele>285.21</ele>
        <time>2025-05-02T12:09:23Z</time>
      </trkpt>
      <trkpt lat="43.45069" lon="6.60274">
        <ele>286.6</ele>
        <time>2025-05-02T12:09:51Z</time>
      </trkpt>
      <trkpt lat="43.4507" lon="6.60276">
        <ele>288.01</ele>
        <time>2025-05-02T12:10:30Z</time>
      </trkpt>
      <trkpt lat="43.45075" lon="6.60282">
        <ele>290.79</ele>
        <time>2025-05-02T12:10:51Z</time>
      </trkpt>
      <trkpt lat="43.45071" lon="6.60281">
        <ele>292.72</ele>
        <time>2025-05-02T12:11:10Z</time>
      </trkpt>
      <trkpt lat="43.45066" lon="6.60278">
        <ele>294.98</ele>
        <time>2025-05-02T12:11:30Z</time>
      </trkpt>
      <trkpt lat="43.45066" lon="6.60277">
        <ele>295.03</ele>
        <time>2025-05-02T12:11:48Z</time>
      </trkpt>
      <trkpt lat="43.45065" lon="6.60278">
        <ele>294.96</ele>
        <time>2025-05-02T12:12:02Z</time>
      </trkpt>
      <trkpt lat="43.45064" lon="6.6028">
        <ele>295.69</ele>
        <time>2025-05-02T12:12:22Z</time>
      </trkpt>
      <trkpt lat="43.45057" lon="6.60282">
        <ele>296.07</ele>
        <time>2025-05-02T12:12:42Z</time>
      </trkpt>
      <trkpt lat="43.45055" lon="6.60289">
        <ele>297.47</ele>
        <time>2025-05-02T12:12:55Z</time>
      </trkpt>
      <trkpt lat="43.45051" lon="6.60291">
        <ele>296.89</ele>
        <time>2025-05-02T12:13:08Z</time>
      </trkpt>
      <trkpt lat="43.45048" lon="6.60298">
        <ele>294.54</ele>
        <time>2025-05-02T12:13:26Z</time>
      </trkpt>
      <trkpt lat="43.45035" lon="6.60301">
        <ele>295.4</ele>
        <time>2025-05-02T12:13:43Z</time>
      </trkpt>
      <trkpt lat="43.45032" lon="6.60306">
        <ele>296.08</ele>
        <time>2025-05-02T12:13:55Z</time>
      </trkpt>
      <trkpt lat="43.4503" lon="6.60309">
        <ele>295.67</ele>
        <time>2025-05-02T12:14:08Z</time>
      </trkpt>
      <trkpt lat="43.45027" lon="6.60304">
        <ele>294.7</ele>
        <time>2025-05-02T12:14:22Z</time>
      </trkpt>
      <trkpt lat="43.45025" lon="6.60304">
        <ele>292.65</ele>
        <time>2025-05-02T12:14:35Z</time>
      </trkpt>
      <trkpt lat="43.45021" lon="6.60304">
        <ele>290.8</ele>
        <time>2025-05-02T12:14:53Z</time>
      </trkpt>
      <trkpt lat="43.45017" lon="6.60301">
        <ele>288.17</ele>
        <time>2025-05-02T12:15:14Z</time>
      </trkpt>
      <trkpt lat="43.45014" lon="6.603">
        <ele>287.86</ele>
        <time>2025-05-02T12:15:30Z</time>
      </trkpt>
      <trkpt lat="43.45011" lon="6.60296">
        <ele>285.75</ele>
        <time>2025-05-02T12:15:43Z</time>
      </trkpt>
      <trkpt lat="43.45007" lon="6.60294">
        <ele>283.65</ele>
        <time>2025-05-02T12:15:56Z</time>
      </trkpt>
      <trkpt lat="43.45002" lon="6.6029">
        <ele>281.54</ele>
        <time>2025-05-02T12:16:12Z</time>
      </trkpt>
      <trkpt lat="43.44995" lon="6.60285">
        <ele>279.09</ele>
        <time>2025-05-02T12:16:27Z</time>
      </trkpt>
      <trkpt lat="43.44992" lon="6.60287">
        <ele>278.32</ele>
        <time>2025-05-02T12:16:40Z</time>
      </trkpt>
      <trkpt lat="43.44993" lon="6.60289">
        <ele>278.78</ele>
        <time>2025-05-02T12:17:12Z</time>
      </trkpt>
      <trkpt lat="43.44991" lon="6.60296">
        <ele>278.51</ele>
        <time>2025-05-02T12:17:47Z</time>
      </trkpt>
      <trkpt lat="43.44983" lon="6.60309">
        <ele>279.97</ele>
        <time>2025-05-02T12:18:06Z</time>
      </trkpt>
      <trkpt lat="43.44978" lon="6.6032">
        <ele>278.87</ele>
        <time>2025-05-02T12:18:22Z</time>
      </trkpt>
      <trkpt lat="43.44974" lon="6.60316">
        <ele>278.25</ele>
        <time>2025-05-02T12:18:35Z</time>
      </trkpt>
      <trkpt lat="43.44974" lon="6.60323">
        <ele>276.85</ele>
        <time>2025-05-02T12:18:47Z</time>
      </trkpt>
      <trkpt lat="43.44967" lon="6.6032">
        <ele>275.97</ele>
        <time>2025-05-02T12:18:56Z</time>
      </trkpt>
      <trkpt lat="43.44963" lon="6.6032">
        <ele>274.49</ele>
        <time>2025-05-02T12:19:07Z</time>
      </trkpt>
      <trkpt lat="43.44961" lon="6.60327">
        <ele>273.75</ele>
        <time>2025-05-02T12:19:20Z</time>
      </trkpt>
      <trkpt lat="43.44961" lon="6.60328">
        <ele>274.51</ele>
        <time>2025-05-02T12:19:37Z</time>
      </trkpt>
      <trkpt lat="43.4496" lon="6.6033">
        <ele>274.54</ele>
        <time>2025-05-02T12:19:57Z</time>
      </trkpt>
      <trkpt lat="43.44957" lon="6.60334">
        <ele>276.26</ele>
        <time>2025-05-02T12:20:09Z</time>
      </trkpt>
      <trkpt lat="43.44956" lon="6.60334">
        <ele>276.85</ele>
        <time>2025-05-02T12:20:27Z</time>
      </trkpt>
      <trkpt lat="43.44956" lon="6.60334">
        <ele>277.12</ele>
        <time>2025-05-02T12:20:40Z</time>
      </trkpt>
      <trkpt lat="43.44953" lon="6.60334">
        <ele>276.19</ele>
        <time>2025-05-02T12:20:54Z</time>
      </trkpt>
      <trkpt lat="43.44949" lon="6.6033">
        <ele>274.04</ele>
        <time>2025-05-02T12:21:08Z</time>
      </trkpt>
      <trkpt lat="43.44947" lon="6.60335">
        <ele>273.18</ele>
        <time>2025-05-02T12:21:20Z</time>
      </trkpt>
      <trkpt lat="43.44943" lon="6.60339">
        <ele>271.93</ele>
        <time>2025-05-02T12:21:37Z</time>
      </trkpt>
      <trkpt lat="43.44941" lon="6.60348">
        <ele>271.93</ele>
        <time>2025-05-02T12:22:05Z</time>
      </trkpt>
      <trkpt lat="43.4494" lon="6.60356">
        <ele>275.04</ele>
        <time>2025-05-02T12:22:24Z</time>
      </trkpt>
      <trkpt lat="43.44941" lon="6.60361">
        <ele>278.16</ele>
        <time>2025-05-02T12:22:40Z</time>
      </trkpt>
      <trkpt lat="43.44944" lon="6.60368">
        <ele>280.31</ele>
        <time>2025-05-02T12:23:02Z</time>
      </trkpt>
      <trkpt lat="43.44947" lon="6.60373">
        <ele>283.33</ele>
        <time>2025-05-02T12:23:19Z</time>
      </trkpt>
      <trkpt lat="43.44949" lon="6.60372">
        <ele>284.58</ele>
        <time>2025-05-02T12:23:42Z</time>
      </trkpt>
      <trkpt lat="43.44952" lon="6.60377">
        <ele>284.71</ele>
        <time>2025-05-02T12:24:12Z</time>
      </trkpt>
      <trkpt lat="43.44951" lon="6.60381">
        <ele>286.58</ele>
        <time>2025-05-02T12:24:35Z</time>
      </trkpt>
      <trkpt lat="43.44947" lon="6.60381">
        <ele>289.3</ele>
        <time>2025-05-02T12:25:00Z</time>
      </trkpt>
      <trkpt lat="43.44948" lon="6.6038">
        <ele>289.48</ele>
        <time>2025-05-02T12:25:26Z</time>
      </trkpt>
      <trkpt lat="43.4494" lon="6.60377">
        <ele>291.21</ele>
        <time>2025-05-02T12:25:47Z</time>
      </trkpt>
      <trkpt lat="43.44936" lon="6.60375">
        <ele>291.87</ele>
        <time>2025-05-02T12:26:09Z</time>
      </trkpt>
      <trkpt lat="43.44937" lon="6.60379">
        <ele>293.27</ele>
        <time>2025-05-02T12:26:33Z</time>
      </trkpt>
      <trkpt lat="43.44938" lon="6.60384">
        <ele>296.36</ele>
        <time>2025-05-02T12:26:53Z</time>
      </trkpt>
      <trkpt lat="43.44939" lon="6.60379">
        <ele>299.1</ele>
        <time>2025-05-02T12:27:14Z</time>
      </trkpt>
      <trkpt lat="43.44939" lon="6.60383">
        <ele>301.81</ele>
        <time>2025-05-02T12:27:32Z</time>
      </trkpt>
      <trkpt lat="43.44941" lon="6.60385">
        <ele>301.55</ele>
        <time>2025-05-02T12:27:54Z</time>
      </trkpt>
      <trkpt lat="43.44942" lon="6.60385">
        <ele>303.06</ele>
        <time>2025-05-02T12:28:11Z</time>
      </trkpt>
      <trkpt lat="43.44945" lon="6.60387">
        <ele>304.75</ele>
        <time>2025-05-02T12:28:31Z</time>
      </trkpt>
      <trkpt lat="43.44943" lon="6.60391">
        <ele>304.75</ele>
        <time>2025-05-02T12:28:49Z</time>
      </trkpt>
      <trkpt lat="43.44945" lon="6.60392">
        <ele>304.75</ele>
        <time>2025-05-02T12:29:06Z</time>
      </trkpt>
      <trkpt lat="43.44949" lon="6.60391">
        <ele>304.75</ele>
        <time>2025-05-02T12:29:21Z</time>
      </trkpt>
      <trkpt lat="43.4495" lon="6.60392">
        <ele>310.8</ele>
        <time>2025-05-02T12:29:30Z</time>
      </trkpt>
      <trkpt lat="43.4495" lon="6.60392">
        <ele>310.7</ele>
        <time>2025-05-02T12:29:31Z</time>
      </trkpt>
      <trkpt lat="43.44953" lon="6.6039">
        <ele>311.17</ele>
        <time>2025-05-02T12:29:51Z</time>
      </trkpt>
      <trkpt lat="43.44953" lon="6.6039">
        <ele>311.71</ele>
        <time>2025-05-02T12:30:16Z</time>
      </trkpt>
      <trkpt lat="43.44952" lon="6.6039">
        <ele>311.72</ele>
        <time>2025-05-02T12:30:38Z</time>
      </trkpt>
      <trkpt lat="43.44952" lon="6.6039">
        <ele>312.11</ele>
        <time>2025-05-02T12:31:16Z</time>
      </trkpt>
      <trkpt lat="43.44951" lon="6.6039">
        <ele>311.44</ele>
        <time>2025-05-02T12:31:36Z</time>
      </trkpt>
      <trkpt lat="43.44947" lon="6.60391">
        <ele>311.44</ele>
        <time>2025-05-02T12:31:52Z</time>
      </trkpt>
      <trkpt lat="43.44944" lon="6.60391">
        <ele>311.44</ele>
        <time>2025-05-02T12:32:09Z</time>
      </trkpt>
      <trkpt lat="43.44941" lon="6.60393">
        <ele>311.44</ele>
        <time>2025-05-02T12:32:27Z</time>
      </trkpt>
      <trkpt lat="43.4494" lon="6.60392">
        <ele>311.44</ele>
        <time>2025-05-02T12:32:45Z</time>
      </trkpt>
      <trkpt lat="43.44939" lon="6.60391">
        <ele>311.44</ele>
        <time>2025-05-02T12:33:15Z</time>
      </trkpt>
      <trkpt lat="43.44937" lon="6.60387">
        <ele>311.44</ele>
        <time>2025-05-02T12:33:38Z</time>
      </trkpt>
      <trkpt lat="43.44932" lon="6.60383">
        <ele>311.44</ele>
        <time>2025-05-02T12:33:51Z</time>
      </trkpt>
      <trkpt lat="43.44933" lon="6.60385">
        <ele>311.44</ele>
        <time>2025-05-02T12:34:07Z</time>
      </trkpt>
      <trkpt lat="43.44933" lon="6.60389">
        <ele>311.44</ele>
        <time>2025-05-02T12:34:29Z</time>
      </trkpt>
      <trkpt lat="43.44933" lon="6.6039">
        <ele>314.72</ele>
        <time>2025-05-02T12:34:36Z</time>
      </trkpt>
      <trkpt lat="43.44933" lon="6.60392">
        <ele>315.69</ele>
        <time>2025-05-02T12:35:00Z</time>
      </trkpt>
      <trkpt lat="43.44932" lon="6.60392">
        <ele>315.78</ele>
        <time>2025-05-02T12:35:35Z</time>
      </trkpt>
      <trkpt lat="43.44932" lon="6.6039">
        <ele>315.89</ele>
        <time>2025-05-02T12:36:05Z</time>
      </trkpt>
      <trkpt lat="43.4493" lon="6.6039">
        <ele>316</ele>
        <time>2025-05-02T12:37:03Z</time>
      </trkpt>
      <trkpt lat="43.44931" lon="6.6039">
        <ele>316</ele>
        <time>2025-05-02T12:37:26Z</time>
      </trkpt>
      <trkpt lat="43.4493" lon="6.6039">
        <ele>316</ele>
        <time>2025-05-02T12:37:59Z</time>
      </trkpt>
      <trkpt lat="43.44931" lon="6.6039">
        <ele>316</ele>
        <time>2025-05-02T12:39:03Z</time>
      </trkpt>
      <trkpt lat="43.44931" lon="6.60391">
        <ele>316</ele>
        <time>2025-05-02T12:39:47Z</time>
      </trkpt>
      <trkpt lat="43.44932" lon="6.60392">
        <ele>316</ele>
        <time>2025-05-02T12:40:11Z</time>
      </trkpt>
      <trkpt lat="43.44931" lon="6.60388">
        <ele>316</ele>
        <time>2025-05-02T12:40:27Z</time>
      </trkpt>
      <trkpt lat="43.44931" lon="6.60386">
        <ele>316</ele>
        <time>2025-05-02T12:40:39Z</time>
      </trkpt>
      <trkpt lat="43.44933" lon="6.60382">
        <ele>316</ele>
        <time>2025-05-02T12:40:57Z</time>
      </trkpt>
      <trkpt lat="43.44937" lon="6.60386">
        <ele>316</ele>
        <time>2025-05-02T12:41:13Z</time>
      </trkpt>
      <trkpt lat="43.4494" lon="6.60389">
        <ele>316</ele>
        <time>2025-05-02T12:41:30Z</time>
      </trkpt>
      <trkpt lat="43.4494" lon="6.6039">
        <ele>308.86</ele>
        <time>2025-05-02T12:41:42Z</time>
      </trkpt>
      <trkpt lat="43.44941" lon="6.6039">
        <ele>308.92</ele>
        <time>2025-05-02T12:41:43Z</time>
      </trkpt>
      <trkpt lat="43.44942" lon="6.60392">
        <ele>308.61</ele>
        <time>2025-05-02T12:42:18Z</time>
      </trkpt>
      <trkpt lat="43.44941" lon="6.60391">
        <ele>308.71</ele>
        <time>2025-05-02T12:42:41Z</time>
      </trkpt>
      <trkpt lat="43.44942" lon="6.60389">
        <ele>308.71</ele>
        <time>2025-05-02T12:43:00Z</time>
      </trkpt>
      <trkpt lat="43.44945" lon="6.60384">
        <ele>308.71</ele>
        <time>2025-05-02T12:43:15Z</time>
      </trkpt>
      <trkpt lat="43.44946" lon="6.60384">
        <ele>308.71</ele>
        <time>2025-05-02T12:43:36Z</time>
      </trkpt>
      <trkpt lat="43.44945" lon="6.60382">
        <ele>305.1</ele>
        <time>2025-05-02T12:43:44Z</time>
      </trkpt>
      <trkpt lat="43.44945" lon="6.60382">
        <ele>305.09</ele>
        <time>2025-05-02T12:43:45Z</time>
      </trkpt>
      <trkpt lat="43.44946" lon="6.60382">
        <ele>305.42</ele>
        <time>2025-05-02T12:44:07Z</time>
      </trkpt>
      <trkpt lat="43.44946" lon="6.60381">
        <ele>305.28</ele>
        <time>2025-05-02T12:44:34Z</time>
      </trkpt>
      <trkpt lat="43.44945" lon="6.60378">
        <ele>304.8</ele>
        <time>2025-05-02T12:44:52Z</time>
      </trkpt>
      <trkpt lat="43.44944" lon="6.60376">
        <ele>304.8</ele>
        <time>2025-05-02T12:45:12Z</time>
      </trkpt>
      <trkpt lat="43.44942" lon="6.60377">
        <ele>304.8</ele>
        <time>2025-05-02T12:45:39Z</time>
      </trkpt>
      <trkpt lat="43.4494" lon="6.60373">
        <ele>304.8</ele>
        <time>2025-05-02T12:46:00Z</time>
      </trkpt>
      <trkpt lat="43.44938" lon="6.60372">
        <ele>304.8</ele>
        <time>2025-05-02T12:46:19Z</time>
      </trkpt>
      <trkpt lat="43.44939" lon="6.60375">
        <ele>304.8</ele>
        <time>2025-05-02T12:46:42Z</time>
      </trkpt>
      <trkpt lat="43.44939" lon="6.60375">
        <ele>300.85</ele>
        <time>2025-05-02T12:46:47Z</time>
      </trkpt>
      <trkpt lat="43.4494" lon="6.60375">
        <ele>300.85</ele>
        <time>2025-05-02T12:46:48Z</time>
      </trkpt>
      <trkpt lat="43.44938" lon="6.60375">
        <ele>299.91</ele>
        <time>2025-05-02T12:47:07Z</time>
      </trkpt>
      <trkpt lat="43.44938" lon="6.60371">
        <ele>297.8</ele>
        <time>2025-05-02T12:47:30Z</time>
      </trkpt>
      <trkpt lat="43.44937" lon="6.60366">
        <ele>295.91</ele>
        <time>2025-05-02T12:47:40Z</time>
      </trkpt>
      <trkpt lat="43.44936" lon="6.60364">
        <ele>295.09</ele>
        <time>2025-05-02T12:47:52Z</time>
      </trkpt>
      <trkpt lat="43.44941" lon="6.60366">
        <ele>294.09</ele>
        <time>2025-05-02T12:48:07Z</time>
      </trkpt>
      <trkpt lat="43.44945" lon="6.60366">
        <ele>292.49</ele>
        <time>2025-05-02T12:48:34Z</time>
      </trkpt>
      <trkpt lat="43.44948" lon="6.60367">
        <ele>289.85</ele>
        <time>2025-05-02T12:48:54Z</time>
      </trkpt>
      <trkpt lat="43.44946" lon="6.60368">
        <ele>288.14</ele>
        <time>2025-05-02T12:49:15Z</time>
      </trkpt>
      <trkpt lat="43.44944" lon="6.60367">
        <ele>286.44</ele>
        <time>2025-05-02T12:49:38Z</time>
      </trkpt>
      <trkpt lat="43.44943" lon="6.60366">
        <ele>286.48</ele>
        <time>2025-05-02T12:50:06Z</time>
      </trkpt>
      <trkpt lat="43.44945" lon="6.60367">
        <ele>286.29</ele>
        <time>2025-05-02T12:50:30Z</time>
      </trkpt>
      <trkpt lat="43.44944" lon="6.60366">
        <ele>285.68</ele>
        <time>2025-05-02T12:50:51Z</time>
      </trkpt>
      <trkpt lat="43.44943" lon="6.60363">
        <ele>284.76</ele>
        <time>2025-05-02T12:51:13Z</time>
      </trkpt>
      <trkpt lat="43.44944" lon="6.6036">
        <ele>282.68</ele>
        <time>2025-05-02T12:51:29Z</time>
      </trkpt>
      <trkpt lat="43.44943" lon="6.60356">
        <ele>281.37</ele>
        <time>2025-05-02T12:51:52Z</time>
      </trkpt>
      <trkpt lat="43.44939" lon="6.60352">
        <ele>279.09</ele>
        <time>2025-05-02T12:52:14Z</time>
      </trkpt>
      <trkpt lat="43.44937" lon="6.60347">
        <ele>277.13</ele>
        <time>2025-05-02T12:52:31Z</time>
      </trkpt>
      <trkpt lat="43.44937" lon="6.60345">
        <ele>275.16</ele>
        <time>2025-05-02T12:52:51Z</time>
      </trkpt>
      <trkpt lat="43.4494" lon="6.60339">
        <ele>273.24</ele>
        <time>2025-05-02T12:53:09Z</time>
      </trkpt>
      <trkpt lat="43.44941" lon="6.6034">
        <ele>272.74</ele>
        <time>2025-05-02T12:53:35Z</time>
      </trkpt>
      <trkpt lat="43.4494" lon="6.60339">
        <ele>273.31</ele>
        <time>2025-05-02T12:53:49Z</time>
      </trkpt>
      <trkpt lat="43.44942" lon="6.60337">
        <ele>273.71</ele>
        <time>2025-05-02T12:54:23Z</time>
      </trkpt>
      <trkpt lat="43.44949" lon="6.6033">
        <ele>274.78</ele>
        <time>2025-05-02T12:54:38Z</time>
      </trkpt>
      <trkpt lat="43.44951" lon="6.60328">
        <ele>275.05</ele>
        <time>2025-05-02T12:54:40Z</time>
      </trkpt>
      <trkpt lat="43.44953" lon="6.60331">
        <ele>275.97</ele>
        <time>2025-05-02T12:54:56Z</time>
      </trkpt>
      <trkpt lat="43.44959" lon="6.60332">
        <ele>277.19</ele>
        <time>2025-05-02T12:55:09Z</time>
      </trkpt>
      <trkpt lat="43.44963" lon="6.60328">
        <ele>276.43</ele>
        <time>2025-05-02T12:55:23Z</time>
      </trkpt>
      <trkpt lat="43.44968" lon="6.60331">
        <ele>274.59</ele>
        <time>2025-05-02T12:55:38Z</time>
      </trkpt>
      <trkpt lat="43.4497" lon="6.60335">
        <ele>274.01</ele>
        <time>2025-05-02T12:55:58Z</time>
      </trkpt>
      <trkpt lat="43.44974" lon="6.60341">
        <ele>272.51</ele>
        <time>2025-05-02T12:56:13Z</time>
      </trkpt>
      <trkpt lat="43.44977" lon="6.60348">
        <ele>270.04</ele>
        <time>2025-05-02T12:56:28Z</time>
      </trkpt>
      <trkpt lat="43.4498" lon="6.60357">
        <ele>267.71</ele>
        <time>2025-05-02T12:56:50Z</time>
      </trkpt>
      <trkpt lat="43.44982" lon="6.60357">
        <ele>266.67</ele>
        <time>2025-05-02T12:57:09Z</time>
      </trkpt>
      <trkpt lat="43.44983" lon="6.60361">
        <ele>266.42</ele>
        <time>2025-05-02T12:57:39Z</time>
      </trkpt>
      <trkpt lat="43.44987" lon="6.60367">
        <ele>264.17</ele>
        <time>2025-05-02T12:57:57Z</time>
      </trkpt>
      <trkpt lat="43.44989" lon="6.60367">
        <ele>262.31</ele>
        <time>2025-05-02T12:58:15Z</time>
      </trkpt>
      <trkpt lat="43.4499" lon="6.60371">
        <ele>260.55</ele>
        <time>2025-05-02T12:58:33Z</time>
      </trkpt>
      <trkpt lat="43.44994" lon="6.60375">
        <ele>257.61</ele>
        <time>2025-05-02T12:58:51Z</time>
      </trkpt>
      <trkpt lat="43.45001" lon="6.6038">
        <ele>254.83</ele>
        <time>2025-05-02T12:59:12Z</time>
      </trkpt>
      <trkpt lat="43.45002" lon="6.60386">
        <ele>251.8</ele>
        <time>2025-05-02T12:59:29Z</time>
      </trkpt>
      <trkpt lat="43.45005" lon="6.60389">
        <ele>248.67</ele>
        <time>2025-05-02T12:59:47Z</time>
      </trkpt>
      <trkpt lat="43.45007" lon="6.60393">
        <ele>247.58</ele>
        <time>2025-05-02T13:00:18Z</time>
      </trkpt>
      <trkpt lat="43.45011" lon="6.60394">
        <ele>245.65</ele>
        <time>2025-05-02T13:00:32Z</time>
      </trkpt>
      <trkpt lat="43.45014" lon="6.60396">
        <ele>243.39</ele>
        <time>2025-05-02T13:00:54Z</time>
      </trkpt>
      <trkpt lat="43.45014" lon="6.60401">
        <ele>241.61</ele>
        <time>2025-05-02T13:01:12Z</time>
      </trkpt>
      <trkpt lat="43.45017" lon="6.60404">
        <ele>240.04</ele>
        <time>2025-05-02T13:01:31Z</time>
      </trkpt>
      <trkpt lat="43.45018" lon="6.60405">
        <ele>237.41</ele>
        <time>2025-05-02T13:01:52Z</time>
      </trkpt>
      <trkpt lat="43.45014" lon="6.60411">
        <ele>235.65</ele>
        <time>2025-05-02T13:02:11Z</time>
      </trkpt>
      <trkpt lat="43.45018" lon="6.60413">
        <ele>235.07</ele>
        <time>2025-05-02T13:02:28Z</time>
      </trkpt>
      <trkpt lat="43.45021" lon="6.60414">
        <ele>233.99</ele>
        <time>2025-05-02T13:02:41Z</time>
      </trkpt>
      <trkpt lat="43.45018" lon="6.60413">
        <ele>233.97</ele>
        <time>2025-05-02T13:03:07Z</time>
      </trkpt>
      <trkpt lat="43.45018" lon="6.60414">
        <ele>233.96</ele>
        <time>2025-05-02T13:03:35Z</time>
      </trkpt>
      <trkpt lat="43.45017" lon="6.60417">
        <ele>231.52</ele>
        <time>2025-05-02T13:03:56Z</time>
      </trkpt>
      <trkpt lat="43.4502" lon="6.60417">
        <ele>230.43</ele>
        <time>2025-05-02T13:04:12Z</time>
      </trkpt>
      <trkpt lat="43.45019" lon="6.60417">
        <ele>229.3</ele>
        <time>2025-05-02T13:04:34Z</time>
      </trkpt>
      <trkpt lat="43.45017" lon="6.60417">
        <ele>228.9</ele>
        <time>2025-05-02T13:05:10Z</time>
      </trkpt>
      <trkpt lat="43.45019" lon="6.60418">
        <ele>229.24</ele>
        <time>2025-05-02T13:05:39Z</time>
      </trkpt>
      <trkpt lat="43.45023" lon="6.60421">
        <ele>226.83</ele>
        <time>2025-05-02T13:05:59Z</time>
      </trkpt>
      <trkpt lat="43.45025" lon="6.60424">
        <ele>225.6</ele>
        <time>2025-05-02T13:06:20Z</time>
      </trkpt>
      <trkpt lat="43.45028" lon="6.60425">
        <ele>224.89</ele>
        <time>2025-05-02T13:06:38Z</time>
      </trkpt>
      <trkpt lat="43.45028" lon="6.60425">
        <ele>224.58</ele>
        <time>2025-05-02T13:07:01Z</time>
      </trkpt>
      <trkpt lat="43.45028" lon="6.60424">
        <ele>224.43</ele>
        <time>2025-05-02T13:07:35Z</time>
      </trkpt>
      <trkpt lat="43.45028" lon="6.60422">
        <ele>223.32</ele>
        <time>2025-05-02T13:07:54Z</time>
      </trkpt>
      <trkpt lat="43.45031" lon="6.60425">
        <ele>222.04</ele>
        <time>2025-05-02T13:08:12Z</time>
      </trkpt>
      <trkpt lat="43.45035" lon="6.60428">
        <ele>219.94</ele>
        <time>2025-05-02T13:08:31Z</time>
      </trkpt>
      <trkpt lat="43.45037" lon="6.60431">
        <ele>219.58</ele>
        <time>2025-05-02T13:08:55Z</time>
      </trkpt>
      <trkpt lat="43.4504" lon="6.60434">
        <ele>218.16</ele>
        <time>2025-05-02T13:09:13Z</time>
      </trkpt>
      <trkpt lat="43.45045" lon="6.60437">
        <ele>215.66</ele>
        <time>2025-05-02T13:09:32Z</time>
      </trkpt>
      <trkpt lat="43.45043" lon="6.60437">
        <ele>214.74</ele>
        <time>2025-05-02T13:09:54Z</time>
      </trkpt>
      <trkpt lat="43.45037" lon="6.60435">
        <ele>214.78</ele>
        <time>2025-05-02T13:10:19Z</time>
      </trkpt>
      <trkpt lat="43.45038" lon="6.60441">
        <ele>212.28</ele>
        <time>2025-05-02T13:10:37Z</time>
      </trkpt>
      <trkpt lat="43.45044" lon="6.60448">
        <ele>209.99</ele>
        <time>2025-05-02T13:10:53Z</time>
      </trkpt>
      <trkpt lat="43.45044" lon="6.60445">
        <ele>209.73</ele>
        <time>2025-05-02T13:11:18Z</time>
      </trkpt>
      <trkpt lat="43.45041" lon="6.60438">
        <ele>209.73</ele>
        <time>2025-05-02T13:11:46Z</time>
      </trkpt>
      <trkpt lat="43.45039" lon="6.6044">
        <ele>209.5</ele>
        <time>2025-05-02T13:12:03Z</time>
      </trkpt>
      <trkpt lat="43.45033" lon="6.60438">
        <ele>209.29</ele>
        <time>2025-05-02T13:12:33Z</time>
      </trkpt>
      <trkpt lat="43.45034" lon="6.60442">
        <ele>209.29</ele>
        <time>2025-05-02T13:12:57Z</time>
      </trkpt>
      <trkpt lat="43.45038" lon="6.60443">
        <ele>209.29</ele>
        <time>2025-05-02T13:13:20Z</time>
      </trkpt>
      <trkpt lat="43.45041" lon="6.60443">
        <ele>209.29</ele>
        <time>2025-05-02T13:13:42Z</time>
      </trkpt>
      <trkpt lat="43.45039" lon="6.60443">
        <ele>209.29</ele>
        <time>2025-05-02T13:14:02Z</time>
      </trkpt>
      <trkpt lat="43.45038" lon="6.60443">
        <ele>205.77</ele>
        <time>2025-05-02T13:14:15Z</time>
      </trkpt>
      <trkpt lat="43.45037" lon="6.60444">
        <ele>205.77</ele>
        <time>2025-05-02T13:14:16Z</time>
      </trkpt>
      <trkpt lat="43.45036" lon="6.60442">
        <ele>201.51</ele>
        <time>2025-05-02T13:14:20Z</time>
      </trkpt>
      <trkpt lat="43.45036" lon="6.60442">
        <ele>203.14</ele>
        <time>2025-05-02T13:14:21Z</time>
      </trkpt>
      <trkpt lat="43.45032" lon="6.60443">
        <ele>205.72</ele>
        <time>2025-05-02T13:14:40Z</time>
      </trkpt>
      <trkpt lat="43.45036" lon="6.60444">
        <ele>205.66</ele>
        <time>2025-05-02T13:14:58Z</time>
      </trkpt>
      <trkpt lat="43.45037" lon="6.60446">
        <ele>205.47</ele>
        <time>2025-05-02T13:15:20Z</time>
      </trkpt>
      <trkpt lat="43.45035" lon="6.60444">
        <ele>205.47</ele>
        <time>2025-05-02T13:15:45Z</time>
      </trkpt>
      <trkpt lat="43.45037" lon="6.60443">
        <ele>205.47</ele>
        <time>2025-05-02T13:16:14Z</time>
      </trkpt>
      <trkpt lat="43.45032" lon="6.60441">
        <ele>205.47</ele>
        <time>2025-05-02T13:16:38Z</time>
      </trkpt>
      <trkpt lat="43.45027" lon="6.60438">
        <ele>205.47</ele>
        <time>2025-05-02T13:16:57Z</time>
      </trkpt>
      <trkpt lat="43.45025" lon="6.60443">
        <ele>205.47</ele>
        <time>2025-05-02T13:17:21Z</time>
      </trkpt>
      <trkpt lat="43.45027" lon="6.60446">
        <ele>205.47</ele>
        <time>2025-05-02T13:17:37Z</time>
      </trkpt>
      <trkpt lat="43.45024" lon="6.60451">
        <ele>205.47</ele>
        <time>2025-05-02T13:17:56Z</time>
      </trkpt>
      <trkpt lat="43.45024" lon="6.60455">
        <ele>205.47</ele>
        <time>2025-05-02T13:18:17Z</time>
      </trkpt>
      <trkpt lat="43.45023" lon="6.60455">
        <ele>194.89</ele>
        <time>2025-05-02T13:18:19Z</time>
      </trkpt>
      <trkpt lat="43.45024" lon="6.60456">
        <ele>197.59</ele>
        <time>2025-05-02T13:18:20Z</time>
      </trkpt>
      <trkpt lat="43.45024" lon="6.60457">
        <ele>199.19</ele>
        <time>2025-05-02T13:18:22Z</time>
      </trkpt>
      <trkpt lat="43.45026" lon="6.60465">
        <ele>196.8</ele>
        <time>2025-05-02T13:18:39Z</time>
      </trkpt>
      <trkpt lat="43.45026" lon="6.60471">
        <ele>194.7</ele>
        <time>2025-05-02T13:18:56Z</time>
      </trkpt>
      <trkpt lat="43.45026" lon="6.60475">
        <ele>192.61</ele>
        <time>2025-05-02T13:19:15Z</time>
      </trkpt>
      <trkpt lat="43.45025" lon="6.60475">
        <ele>191.54</ele>
        <time>2025-05-02T13:19:39Z</time>
      </trkpt>
      <trkpt lat="43.45026" lon="6.60477">
        <ele>191.75</ele>
        <time>2025-05-02T13:20:23Z</time>
      </trkpt>
      <trkpt lat="43.45026" lon="6.60485">
        <ele>189.32</ele>
        <time>2025-05-02T13:20:42Z</time>
      </trkpt>
      <trkpt lat="43.45028" lon="6.60489">
        <ele>188.18</ele>
        <time>2025-05-02T13:21:00Z</time>
      </trkpt>
      <trkpt lat="43.4503" lon="6.60493">
        <ele>185.48</ele>
        <time>2025-05-02T13:21:14Z</time>
      </trkpt>
      <trkpt lat="43.45034" lon="6.60497">
        <ele>182.39</ele>
        <time>2025-05-02T13:21:31Z</time>
      </trkpt>
      <trkpt lat="43.45039" lon="6.60496">
        <ele>180.21</ele>
        <time>2025-05-02T13:21:49Z</time>
      </trkpt>
      <trkpt lat="43.45045" lon="6.60496">
        <ele>176.98</ele>
        <time>2025-05-02T13:22:07Z</time>
      </trkpt>
      <trkpt lat="43.45047" lon="6.60498">
        <ele>174.44</ele>
        <time>2025-05-02T13:22:29Z</time>
      </trkpt>
      <trkpt lat="43.45051" lon="6.60503">
        <ele>171.71</ele>
        <time>2025-05-02T13:22:48Z</time>
      </trkpt>
      <trkpt lat="43.45056" lon="6.60504">
        <ele>169.47</ele>
        <time>2025-05-02T13:23:03Z</time>
      </trkpt>
      <trkpt lat="43.45058" lon="6.60505">
        <ele>167.53</ele>
        <time>2025-05-02T13:23:19Z</time>
      </trkpt>
      <trkpt lat="43.45055" lon="6.60506">
        <ele>167.7</ele>
        <time>2025-05-02T13:23:42Z</time>
      </trkpt>
      <trkpt lat="43.45055" lon="6.60502">
        <ele>167.84</ele>
        <time>2025-05-02T13:24:29Z</time>
      </trkpt>
      <trkpt lat="43.4506" lon="6.60507">
        <ele>167.84</ele>
        <time>2025-05-02T13:25:03Z</time>
      </trkpt>
      <trkpt lat="43.45059" lon="6.60514">
        <ele>167.84</ele>
        <time>2025-05-02T13:25:23Z</time>
      </trkpt>
      <trkpt lat="43.45057" lon="6.60515">
        <ele>161.99</ele>
        <time>2025-05-02T13:25:25Z</time>
      </trkpt>
      <trkpt lat="43.45057" lon="6.60515">
        <ele>162.01</ele>
        <time>2025-05-02T13:25:26Z</time>
      </trkpt>
      <trkpt lat="43.45053" lon="6.60522">
        <ele>159.79</ele>
        <time>2025-05-02T13:25:45Z</time>
      </trkpt>
      <trkpt lat="43.45052" lon="6.60528">
        <ele>156.95</ele>
        <time>2025-05-02T13:26:05Z</time>
      </trkpt>
      <trkpt lat="43.45053" lon="6.60533">
        <ele>154.57</ele>
        <time>2025-05-02T13:26:26Z</time>
      </trkpt>
      <trkpt lat="43.45061" lon="6.60539">
        <ele>151.48</ele>
        <time>2025-05-02T13:26:46Z</time>
      </trkpt>
      <trkpt lat="43.45062" lon="6.6054">
        <ele>150.63</ele>
        <time>2025-05-02T13:26:55Z</time>
      </trkpt>
      <trkpt lat="43.45066" lon="6.6054">
        <ele>148.03</ele>
        <time>2025-05-02T13:27:14Z</time>
      </trkpt>
      <trkpt lat="43.45066" lon="6.60539">
        <ele>147.48</ele>
        <time>2025-05-02T13:27:34Z</time>
      </trkpt>
      <trkpt lat="43.45066" lon="6.60542">
        <ele>145.59</ele>
        <time>2025-05-02T13:27:56Z</time>
      </trkpt>
      <trkpt lat="43.45068" lon="6.60546">
        <ele>143.72</ele>
        <time>2025-05-02T13:28:19Z</time>
      </trkpt>
      <trkpt lat="43.45071" lon="6.60555">
        <ele>141.43</ele>
        <time>2025-05-02T13:28:38Z</time>
      </trkpt>
      <trkpt lat="43.45073" lon="6.60557">
        <ele>138.37</ele>
        <time>2025-05-02T13:28:58Z</time>
      </trkpt>
      <trkpt lat="43.4507" lon="6.60564">
        <ele>136.7</ele>
        <time>2025-05-02T13:29:21Z</time>
      </trkpt>
      <trkpt lat="43.45073" lon="6.60569">
        <ele>133.56</ele>
        <time>2025-05-02T13:29:41Z</time>
      </trkpt>
      <trkpt lat="43.45077" lon="6.60574">
        <ele>131.37</ele>
        <time>2025-05-02T13:30:01Z</time>
      </trkpt>
      <trkpt lat="43.45077" lon="6.60576">
        <ele>129.42</ele>
        <time>2025-05-02T13:30:22Z</time>
      </trkpt>
      <trkpt lat="43.45076" lon="6.60582">
        <ele>128.19</ele>
        <time>2025-05-02T13:30:43Z</time>
      </trkpt>
      <trkpt lat="43.45076" lon="6.6059">
        <ele>125.1</ele>
        <time>2025-05-02T13:30:57Z</time>
      </trkpt>
      <trkpt lat="43.45075" lon="6.60592">
        <ele>123.08</ele>
        <time>2025-05-02T13:31:17Z</time>
      </trkpt>
      <trkpt lat="43.45074" lon="6.60589">
        <ele>122.92</ele>
        <time>2025-05-02T13:31:45Z</time>
      </trkpt>
      <trkpt lat="43.45074" lon="6.60597">
        <ele>123.28</ele>
        <time>2025-05-02T13:32:12Z</time>
      </trkpt>
      <trkpt lat="43.45079" lon="6.60605">
        <ele>121.14</ele>
        <time>2025-05-02T13:32:30Z</time>
      </trkpt>
      <trkpt lat="43.45088" lon="6.60607">
        <ele>118</ele>
        <time>2025-05-02T13:32:49Z</time>
      </trkpt>
      <trkpt lat="43.45087" lon="6.60605">
        <ele>116.34</ele>
        <time>2025-05-02T13:33:09Z</time>
      </trkpt>
      <trkpt lat="43.45097" lon="6.60603">
        <ele>115.56</ele>
        <time>2025-05-02T13:33:30Z</time>
      </trkpt>
      <trkpt lat="43.45103" lon="6.60608">
        <ele>113.18</ele>
        <time>2025-05-02T13:33:48Z</time>
      </trkpt>
      <trkpt lat="43.45103" lon="6.60616">
        <ele>111.5</ele>
        <time>2025-05-02T13:34:06Z</time>
      </trkpt>
      <trkpt lat="43.45108" lon="6.6062">
        <ele>108.65</ele>
        <time>2025-05-02T13:34:25Z</time>
      </trkpt>
      <trkpt lat="43.45109" lon="6.60624">
        <ele>106.8</ele>
        <time>2025-05-02T13:34:35Z</time>
      </trkpt>
      <trkpt lat="43.45119" lon="6.60634">
        <ele>103.72</ele>
        <time>2025-05-02T13:34:52Z</time>
      </trkpt>
      <trkpt lat="43.45121" lon="6.60638">
        <ele>102.83</ele>
        <time>2025-05-02T13:35:14Z</time>
      </trkpt>
      <trkpt lat="43.45122" lon="6.60639">
        <ele>102.12</ele>
        <time>2025-05-02T13:35:36Z</time>
      </trkpt>
      <trkpt lat="43.45128" lon="6.60644">
        <ele>99.22</ele>
        <time>2025-05-02T13:35:52Z</time>
      </trkpt>
      <trkpt lat="43.45132" lon="6.60655">
        <ele>96.74</ele>
        <time>2025-05-02T13:36:12Z</time>
      </trkpt>
      <trkpt lat="43.45139" lon="6.60663">
        <ele>93.6</ele>
        <time>2025-05-02T13:36:28Z</time>
      </trkpt>
      <trkpt lat="43.45139" lon="6.60674">
        <ele>91.59</ele>
        <time>2025-05-02T13:36:43Z</time>
      </trkpt>
      <trkpt lat="43.45138" lon="6.60688">
        <ele>89.21</ele>
        <time>2025-05-02T13:37:02Z</time>
      </trkpt>
      <trkpt lat="43.45137" lon="6.60691">
        <ele>88.48</ele>
        <time>2025-05-02T13:37:27Z</time>
      </trkpt>
      <trkpt lat="43.45141" lon="6.60699">
        <ele>88.52</ele>
        <time>2025-05-02T13:37:55Z</time>
      </trkpt>
      <trkpt lat="43.45149" lon="6.60706">
        <ele>86.17</ele>
        <time>2025-05-02T13:38:14Z</time>
      </trkpt>
      <trkpt lat="43.45155" lon="6.60713">
        <ele>84.06</ele>
        <time>2025-05-02T13:38:28Z</time>
      </trkpt>
      <trkpt lat="43.45164" lon="6.60726">
        <ele>81.7</ele>
        <time>2025-05-02T13:38:47Z</time>
      </trkpt>
      <trkpt lat="43.45169" lon="6.6073">
        <ele>80.33</ele>
        <time>2025-05-02T13:39:02Z</time>
      </trkpt>
      <trkpt lat="43.45168" lon="6.60734">
        <ele>80.18</ele>
        <time>2025-05-02T13:39:05Z</time>
      </trkpt>
      <trkpt lat="43.45169" lon="6.60739">
        <ele>79.53</ele>
        <time>2025-05-02T13:39:13Z</time>
      </trkpt>
      <trkpt lat="43.45174" lon="6.60755">
        <ele>78.17</ele>
        <time>2025-05-02T13:39:27Z</time>
      </trkpt>
      <trkpt lat="43.45176" lon="6.60767">
        <ele>77.04</ele>
        <time>2025-05-02T13:39:42Z</time>
      </trkpt>
      <trkpt lat="43.45181" lon="6.60777">
        <ele>75.37</ele>
        <time>2025-05-02T13:39:56Z</time>
      </trkpt>
      <trkpt lat="43.45183" lon="6.60782">
        <ele>73.43</ele>
        <time>2025-05-02T13:40:11Z</time>
      </trkpt>
      <trkpt lat="43.45186" lon="6.60786">
        <ele>72.02</ele>
        <time>2025-05-02T13:40:18Z</time>
      </trkpt>
      <trkpt lat="43.45189" lon="6.60794">
        <ele>70.21</ele>
        <time>2025-05-02T13:40:29Z</time>
      </trkpt>
      <trkpt lat="43.45196" lon="6.60804">
        <ele>69.56</ele>
        <time>2025-05-02T13:40:44Z</time>
      </trkpt>
      <trkpt lat="43.45202" lon="6.60813">
        <ele>67.31</ele>
        <time>2025-05-02T13:40:58Z</time>
      </trkpt>
      <trkpt lat="43.45203" lon="6.60814">
        <ele>67.05</ele>
        <time>2025-05-02T13:41:00Z</time>
      </trkpt>
      <trkpt lat="43.45207" lon="6.60813">
        <ele>66.2</ele>
        <time>2025-05-02T13:41:13Z</time>
      </trkpt>
      <trkpt lat="43.45208" lon="6.60813">
        <ele>66.16</ele>
        <time>2025-05-02T13:41:14Z</time>
      </trkpt>
      <trkpt lat="43.45209" lon="6.60813">
        <ele>66.05</ele>
        <time>2025-05-02T13:41:15Z</time>
      </trkpt>
      <trkpt lat="43.45211" lon="6.60813">
        <ele>66.05</ele>
        <time>2025-05-02T13:41:16Z</time>
      </trkpt>
      <trkpt lat="43.45212" lon="6.60812">
        <ele>66.05</ele>
        <time>2025-05-02T13:41:17Z</time>
      </trkpt>
      <trkpt lat="43.45226" lon="6.60806">
        <ele>64.76</ele>
        <time>2025-05-02T13:41:33Z</time>
      </trkpt>
      <trkpt lat="43.4523" lon="6.60806">
        <ele>64.41</ele>
        <time>2025-05-02T13:41:47Z</time>
      </trkpt>
      <trkpt lat="43.45229" lon="6.60806">
        <ele>64.35</ele>
        <time>2025-05-02T13:42:04Z</time>
      </trkpt>
      <trkpt lat="43.45229" lon="6.60806">
        <ele>64.11</ele>
        <time>2025-05-02T13:42:36Z</time>
      </trkpt>
      <trkpt lat="43.45229" lon="6.60806">
        <ele>63.88</ele>
        <time>2025-05-02T13:43:20Z</time>
      </trkpt>
      <trkpt lat="43.45229" lon="6.60807">
        <ele>63.39</ele>
        <time>2025-05-02T13:43:42Z</time>
      </trkpt>
      <trkpt lat="43.45231" lon="6.60806">
        <ele>63.7</ele>
        <time>2025-05-02T13:44:05Z</time>
      </trkpt>
      <trkpt lat="43.4523" lon="6.60806">
        <ele>63.85</ele>
        <time>2025-05-02T13:44:58Z</time>
      </trkpt>
      <trkpt lat="43.4523" lon="6.60807">
        <ele>64</ele>
        <time>2025-05-02T13:46:03Z</time>
      </trkpt>
      <trkpt lat="43.45229" lon="6.60807">
        <ele>64</ele>
        <time>2025-05-02T13:46:49Z</time>
      </trkpt>
      <trkpt lat="43.4523" lon="6.60807">
        <ele>64</ele>
        <time>2025-05-02T13:47:17Z</time>
      </trkpt>
      <trkpt lat="43.45228" lon="6.60805">
        <ele>64</ele>
        <time>2025-05-02T13:47:25Z</time>
      </trkpt>
      <trkpt lat="43.45228" lon="6.60806">
        <ele>64</ele>
        <time>2025-05-02T13:47:51Z</time>
      </trkpt>
      <trkpt lat="43.4523" lon="6.60806">
        <ele>64</ele>
        <time>2025-05-02T13:49:44Z</time>
      </trkpt>
      <trkpt lat="43.4523" lon="6.60807">
        <ele>64</ele>
        <time>2025-05-02T13:51:18Z</time>
      </trkpt>
      <trkpt lat="43.4523" lon="6.60805">
        <ele>64</ele>
        <time>2025-05-02T13:52:52Z</time>
      </trkpt>
      <trkpt lat="43.45229" lon="6.60806">
        <ele>64</ele>
        <time>2025-05-02T13:54:57Z</time>
      </trkpt>
      <trkpt lat="43.4523" lon="6.60807">
        <ele>64</ele>
        <time>2025-05-02T13:56:41Z</time>
      </trkpt>
      <trkpt lat="43.45231" lon="6.60808">
        <ele>64</ele>
        <time>2025-05-02T13:59:09Z</time>
      </trkpt>
      <trkpt lat="43.45232" lon="6.60808">
        <ele>64</ele>
        <time>2025-05-02T13:59:27Z</time>
      </trkpt>
      <trkpt lat="43.45233" lon="6.60807">
        <ele>64</ele>
        <time>2025-05-02T13:59:50Z</time>
      </trkpt>
      <trkpt lat="43.45232" lon="6.60807">
        <ele>64</ele>
        <time>2025-05-02T14:00:24Z</time>
      </trkpt>
      <trkpt lat="43.45235" lon="6.60806">
        <ele>64</ele>
        <time>2025-05-02T14:00:39Z</time>
      </trkpt>
      <trkpt lat="43.45241" lon="6.60803">
        <ele>64</ele>
        <time>2025-05-02T14:00:52Z</time>
      </trkpt>
      <trkpt lat="43.45244" lon="6.60803">
        <ele>64</ele>
        <time>2025-05-02T14:01:07Z</time>
      </trkpt>
      <trkpt lat="43.45249" lon="6.60797">
        <ele>64</ele>
        <time>2025-05-02T14:01:25Z</time>
      </trkpt>
      <trkpt lat="43.45253" lon="6.60793">
        <ele>64</ele>
        <time>2025-05-02T14:01:40Z</time>
      </trkpt>
      <trkpt lat="43.45263" lon="6.60793">
        <ele>64</ele>
        <time>2025-05-02T14:01:56Z</time>
      </trkpt>
      <trkpt lat="43.45273" lon="6.60789">
        <ele>64</ele>
        <time>2025-05-02T14:02:13Z</time>
      </trkpt>
      <trkpt lat="43.45279" lon="6.60782">
        <ele>56.92</ele>
        <time>2025-05-02T14:02:26Z</time>
      </trkpt>
      <trkpt lat="43.45279" lon="6.60782">
        <ele>56.82</ele>
        <time>2025-05-02T14:02:27Z</time>
      </trkpt>
      <trkpt lat="43.45281" lon="6.60769">
        <ele>56.61</ele>
        <time>2025-05-02T14:02:43Z</time>
      </trkpt>
      <trkpt lat="43.45286" lon="6.60761">
        <ele>58.17</ele>
        <time>2025-05-02T14:03:00Z</time>
      </trkpt>
      <trkpt lat="43.45293" lon="6.60747">
        <ele>58.72</ele>
        <time>2025-05-02T14:03:20Z</time>
      </trkpt>
      <trkpt lat="43.45295" lon="6.60733">
        <ele>59.53</ele>
        <time>2025-05-02T14:03:42Z</time>
      </trkpt>
      <trkpt lat="43.45299" lon="6.60716">
        <ele>59.42</ele>
        <time>2025-05-02T14:04:03Z</time>
      </trkpt>
      <trkpt lat="43.45306" lon="6.60698">
        <ele>60.03</ele>
        <time>2025-05-02T14:04:22Z</time>
      </trkpt>
      <trkpt lat="43.4531" lon="6.60678">
        <ele>61.29</ele>
        <time>2025-05-02T14:04:43Z</time>
      </trkpt>
      <trkpt lat="43.45312" lon="6.60663">
        <ele>62.38</ele>
        <time>2025-05-02T14:05:06Z</time>
      </trkpt>
      <trkpt lat="43.45309" lon="6.60657">
        <ele>62.18</ele>
        <time>2025-05-02T14:05:30Z</time>
      </trkpt>
      <trkpt lat="43.45305" lon="6.60624">
        <ele>62.17</ele>
        <time>2025-05-02T14:05:50Z</time>
      </trkpt>
      <trkpt lat="43.4531" lon="6.60615">
        <ele>64.18</ele>
        <time>2025-05-02T14:06:11Z</time>
      </trkpt>
      <trkpt lat="43.45317" lon="6.60607">
        <ele>64.6</ele>
        <time>2025-05-02T14:06:23Z</time>
      </trkpt>
      <trkpt lat="43.45319" lon="6.60607">
        <ele>66.75</ele>
        <time>2025-05-02T14:06:28Z</time>
      </trkpt>
      <trkpt lat="43.45322" lon="6.60601">
        <ele>67.97</ele>
        <time>2025-05-02T14:06:48Z</time>
      </trkpt>
      <trkpt lat="43.45321" lon="6.60592">
        <ele>70.04</ele>
        <time>2025-05-02T14:07:10Z</time>
      </trkpt>
      <trkpt lat="43.45319" lon="6.60585">
        <ele>70.06</ele>
        <time>2025-05-02T14:07:31Z</time>
      </trkpt>
      <trkpt lat="43.45318" lon="6.60585">
        <ele>71.3</ele>
        <time>2025-05-02T14:07:34Z</time>
      </trkpt>
      <trkpt lat="43.4532" lon="6.60574">
        <ele>74.08</ele>
        <time>2025-05-02T14:07:58Z</time>
      </trkpt>
      <trkpt lat="43.45323" lon="6.60572">
        <ele>76.07</ele>
        <time>2025-05-02T14:08:17Z</time>
      </trkpt>
      <trkpt lat="43.45327" lon="6.60573">
        <ele>75.14</ele>
        <time>2025-05-02T14:08:39Z</time>
      </trkpt>
      <trkpt lat="43.45332" lon="6.60573">
        <ele>75.49</ele>
        <time>2025-05-02T14:08:52Z</time>
      </trkpt>
      <trkpt lat="43.45333" lon="6.60572">
        <ele>76.58</ele>
        <time>2025-05-02T14:09:13Z</time>
      </trkpt>
      <trkpt lat="43.45333" lon="6.60569">
        <ele>79.51</ele>
        <time>2025-05-02T14:09:34Z</time>
      </trkpt>
      <trkpt lat="43.45329" lon="6.60563">
        <ele>79.92</ele>
        <time>2025-05-02T14:10:02Z</time>
      </trkpt>
      <trkpt lat="43.45328" lon="6.6056">
        <ele>80.13</ele>
        <time>2025-05-02T14:10:28Z</time>
      </trkpt>
      <trkpt lat="43.45329" lon="6.60556">
        <ele>79.93</ele>
        <time>2025-05-02T14:10:34Z</time>
      </trkpt>
      <trkpt lat="43.45327" lon="6.60556">
        <ele>79.89</ele>
        <time>2025-05-02T14:11:03Z</time>
      </trkpt>
      <trkpt lat="43.45327" lon="6.60547">
        <ele>79.89</ele>
        <time>2025-05-02T14:11:23Z</time>
      </trkpt>
      <trkpt lat="43.45331" lon="6.60547">
        <ele>86.41</ele>
        <time>2025-05-02T14:11:36Z</time>
      </trkpt>
      <trkpt lat="43.45331" lon="6.60547">
        <ele>86.6</ele>
        <time>2025-05-02T14:11:37Z</time>
      </trkpt>
      <trkpt lat="43.45333" lon="6.60551">
        <ele>89.44</ele>
        <time>2025-05-02T14:11:56Z</time>
      </trkpt>
      <trkpt lat="43.45333" lon="6.60551">
        <ele>89.59</ele>
        <time>2025-05-02T14:11:57Z</time>
      </trkpt>
      <trkpt lat="43.45338" lon="6.60548">
        <ele>90.8</ele>
        <time>2025-05-02T14:12:17Z</time>
      </trkpt>
      <trkpt lat="43.4534" lon="6.60539">
        <ele>92.45</ele>
        <time>2025-05-02T14:12:40Z</time>
      </trkpt>
      <trkpt lat="43.4534" lon="6.60534">
        <ele>93.7</ele>
        <time>2025-05-02T14:13:05Z</time>
      </trkpt>
      <trkpt lat="43.45339" lon="6.60536">
        <ele>95.92</ele>
        <time>2025-05-02T14:13:30Z</time>
      </trkpt>
      <trkpt lat="43.45339" lon="6.60542">
        <ele>95.27</ele>
        <time>2025-05-02T14:13:58Z</time>
      </trkpt>
      <trkpt lat="43.45344" lon="6.60538">
        <ele>95.21</ele>
        <time>2025-05-02T14:14:19Z</time>
      </trkpt>
      <trkpt lat="43.45348" lon="6.60539">
        <ele>97.2</ele>
        <time>2025-05-02T14:14:43Z</time>
      </trkpt>
      <trkpt lat="43.45349" lon="6.60538">
        <ele>100.36</ele>
        <time>2025-05-02T14:14:56Z</time>
      </trkpt>
      <trkpt lat="43.4535" lon="6.60536">
        <ele>101.26</ele>
        <time>2025-05-02T14:15:01Z</time>
      </trkpt>
      <trkpt lat="43.45348" lon="6.60528">
        <ele>101.58</ele>
        <time>2025-05-02T14:15:29Z</time>
      </trkpt>
      <trkpt lat="43.45348" lon="6.60534">
        <ele>102.35</ele>
        <time>2025-05-02T14:15:55Z</time>
      </trkpt>
      <trkpt lat="43.45348" lon="6.60538">
        <ele>101.84</ele>
        <time>2025-05-02T14:16:19Z</time>
      </trkpt>
      <trkpt lat="43.45349" lon="6.6054">
        <ele>101.48</ele>
        <time>2025-05-02T14:16:48Z</time>
      </trkpt>
      <trkpt lat="43.45351" lon="6.60534">
        <ele>101.48</ele>
        <time>2025-05-02T14:17:16Z</time>
      </trkpt>
      <trkpt lat="43.45349" lon="6.60533">
        <ele>101.48</ele>
        <time>2025-05-02T14:17:48Z</time>
      </trkpt>
      <trkpt lat="43.45345" lon="6.6053">
        <ele>101.58</ele>
        <time>2025-05-02T14:18:16Z</time>
      </trkpt>
      <trkpt lat="43.45349" lon="6.60533">
        <ele>104.56</ele>
        <time>2025-05-02T14:18:37Z</time>
      </trkpt>
      <trkpt lat="43.45351" lon="6.60538">
        <ele>102.46</ele>
        <time>2025-05-02T14:19:03Z</time>
      </trkpt>
      <trkpt lat="43.45354" lon="6.60539">
        <ele>103.99</ele>
        <time>2025-05-02T14:19:27Z</time>
      </trkpt>
      <trkpt lat="43.45354" lon="6.60536">
        <ele>104.2</ele>
        <time>2025-05-02T14:19:47Z</time>
      </trkpt>
      <trkpt lat="43.45353" lon="6.6053">
        <ele>105.49</ele>
        <time>2025-05-02T14:20:10Z</time>
      </trkpt>
      <trkpt lat="43.45349" lon="6.60523">
        <ele>107.13</ele>
        <time>2025-05-02T14:20:33Z</time>
      </trkpt>
      <trkpt lat="43.4534" lon="6.60518">
        <ele>108.91</ele>
        <time>2025-05-02T14:20:52Z</time>
      </trkpt>
      <trkpt lat="43.45339" lon="6.60517">
        <ele>109.49</ele>
        <time>2025-05-02T14:21:11Z</time>
      </trkpt>
      <trkpt lat="43.45346" lon="6.60518">
        <ele>109.62</ele>
        <time>2025-05-02T14:21:35Z</time>
      </trkpt>
      <trkpt lat="43.45358" lon="6.60514">
        <ele>108.79</ele>
        <time>2025-05-02T14:21:55Z</time>
      </trkpt>
      <trkpt lat="43.45368" lon="6.60509">
        <ele>105.81</ele>
        <time>2025-05-02T14:22:16Z</time>
      </trkpt>
      <trkpt lat="43.45371" lon="6.60508">
        <ele>105.41</ele>
        <time>2025-05-02T14:22:20Z</time>
      </trkpt>
      <trkpt lat="43.45379" lon="6.60509">
        <ele>102.32</ele>
        <time>2025-05-02T14:22:40Z</time>
      </trkpt>
      <trkpt lat="43.45387" lon="6.60501">
        <ele>100.37</ele>
        <time>2025-05-02T14:22:55Z</time>
      </trkpt>
      <trkpt lat="43.45389" lon="6.60501">
        <ele>99.44</ele>
        <time>2025-05-02T14:23:12Z</time>
      </trkpt>
      <trkpt lat="43.45389" lon="6.605">
        <ele>99.96</ele>
        <time>2025-05-02T14:23:34Z</time>
      </trkpt>
      <trkpt lat="43.45397" lon="6.60494">
        <ele>98.99</ele>
        <time>2025-05-02T14:23:50Z</time>
      </trkpt>
      <trkpt lat="43.45401" lon="6.60481">
        <ele>97.24</ele>
        <time>2025-05-02T14:24:07Z</time>
      </trkpt>
      <trkpt lat="43.45404" lon="6.60469">
        <ele>96.93</ele>
        <time>2025-05-02T14:24:25Z</time>
      </trkpt>
      <trkpt lat="43.45404" lon="6.60457">
        <ele>97.85</ele>
        <time>2025-05-02T14:24:44Z</time>
      </trkpt>
      <trkpt lat="43.45403" lon="6.60443">
        <ele>99.76</ele>
        <time>2025-05-02T14:25:05Z</time>
      </trkpt>
      <trkpt lat="43.45404" lon="6.60431">
        <ele>100.88</ele>
        <time>2025-05-02T14:25:21Z</time>
      </trkpt>
      <trkpt lat="43.45405" lon="6.60428">
        <ele>101.24</ele>
        <time>2025-05-02T14:25:41Z</time>
      </trkpt>
      <trkpt lat="43.45407" lon="6.60417">
        <ele>99.8</ele>
        <time>2025-05-02T14:26:02Z</time>
      </trkpt>
      <trkpt lat="43.4541" lon="6.60415">
        <ele>99.58</ele>
        <time>2025-05-02T14:26:04Z</time>
      </trkpt>
      <trkpt lat="43.45417" lon="6.60407">
        <ele>98.48</ele>
        <time>2025-05-02T14:26:17Z</time>
      </trkpt>
      <trkpt lat="43.45415" lon="6.60409">
        <ele>98.6</ele>
        <time>2025-05-02T14:26:42Z</time>
      </trkpt>
      <trkpt lat="43.45414" lon="6.60399">
        <ele>98.77</ele>
        <time>2025-05-02T14:27:09Z</time>
      </trkpt>
      <trkpt lat="43.45416" lon="6.60387">
        <ele>98.8</ele>
        <time>2025-05-02T14:27:21Z</time>
      </trkpt>
      <trkpt lat="43.4542" lon="6.60369">
        <ele>97.95</ele>
        <time>2025-05-02T14:27:38Z</time>
      </trkpt>
      <trkpt lat="43.45418" lon="6.60354">
        <ele>99.44</ele>
        <time>2025-05-02T14:27:57Z</time>
      </trkpt>
      <trkpt lat="43.45415" lon="6.60345">
        <ele>101.26</ele>
        <time>2025-05-02T14:28:18Z</time>
      </trkpt>
      <trkpt lat="43.45411" lon="6.60336">
        <ele>100.98</ele>
        <time>2025-05-02T14:28:42Z</time>
      </trkpt>
      <trkpt lat="43.45407" lon="6.60321">
        <ele>101.06</ele>
        <time>2025-05-02T14:29:02Z</time>
      </trkpt>
      <trkpt lat="43.45406" lon="6.6031">
        <ele>101.71</ele>
        <time>2025-05-02T14:29:19Z</time>
      </trkpt>
      <trkpt lat="43.45398" lon="6.60294">
        <ele>104.65</ele>
        <time>2025-05-02T14:29:42Z</time>
      </trkpt>
      <trkpt lat="43.45396" lon="6.60292">
        <ele>105</ele>
        <time>2025-05-02T14:30:02Z</time>
      </trkpt>
      <trkpt lat="43.45394" lon="6.60289">
        <ele>105.46</ele>
        <time>2025-05-02T14:30:22Z</time>
      </trkpt>
      <trkpt lat="43.45394" lon="6.60283">
        <ele>104.59</ele>
        <time>2025-05-02T14:30:26Z</time>
      </trkpt>
      <trkpt lat="43.454" lon="6.60273">
        <ele>104.02</ele>
        <time>2025-05-02T14:30:40Z</time>
      </trkpt>
      <trkpt lat="43.45407" lon="6.60274">
        <ele>104.02</ele>
        <time>2025-05-02T14:30:54Z</time>
      </trkpt>
      <trkpt lat="43.45408" lon="6.60273">
        <ele>104.02</ele>
        <time>2025-05-02T14:31:05Z</time>
      </trkpt>
      <trkpt lat="43.45408" lon="6.60273">
        <ele>104.02</ele>
        <time>2025-05-02T14:31:26Z</time>
      </trkpt>
      <trkpt lat="43.45408" lon="6.60273">
        <ele>101.04</ele>
        <time>2025-05-02T14:31:38Z</time>
      </trkpt>
      <trkpt lat="43.45401" lon="6.60273">
        <ele>101.11</ele>
        <time>2025-05-02T14:31:53Z</time>
      </trkpt>
      <trkpt lat="43.45398" lon="6.60275">
        <ele>103.58</ele>
        <time>2025-05-02T14:32:06Z</time>
      </trkpt>
      <trkpt lat="43.45388" lon="6.60276">
        <ele>105.04</ele>
        <time>2025-05-02T14:32:27Z</time>
      </trkpt>
      <trkpt lat="43.45382" lon="6.60262">
        <ele>106.36</ele>
        <time>2025-05-02T14:32:36Z</time>
      </trkpt>
      <trkpt lat="43.45374" lon="6.60249">
        <ele>107.92</ele>
        <time>2025-05-02T14:32:48Z</time>
      </trkpt>
      <trkpt lat="43.45371" lon="6.60232">
        <ele>110.4</ele>
        <time>2025-05-02T14:33:01Z</time>
      </trkpt>
      <trkpt lat="43.4537" lon="6.60224">
        <ele>112.44</ele>
        <time>2025-05-02T14:33:20Z</time>
      </trkpt>
      <trkpt lat="43.45366" lon="6.60222">
        <ele>112.58</ele>
        <time>2025-05-02T14:33:40Z</time>
      </trkpt>
      <trkpt lat="43.45367" lon="6.60216">
        <ele>113.24</ele>
        <time>2025-05-02T14:33:55Z</time>
      </trkpt>
      <trkpt lat="43.45367" lon="6.60218">
        <ele>113.19</ele>
        <time>2025-05-02T14:34:27Z</time>
      </trkpt>
      <trkpt lat="43.45364" lon="6.60216">
        <ele>114.51</ele>
        <time>2025-05-02T14:34:45Z</time>
      </trkpt>
      <trkpt lat="43.4536" lon="6.60207">
        <ele>115.9</ele>
        <time>2025-05-02T14:35:01Z</time>
      </trkpt>
      <trkpt lat="43.45355" lon="6.60198">
        <ele>119.16</ele>
        <time>2025-05-02T14:35:17Z</time>
      </trkpt>
      <trkpt lat="43.45354" lon="6.60197">
        <ele>120.05</ele>
        <time>2025-05-02T14:35:44Z</time>
      </trkpt>
      <trkpt lat="43.45353" lon="6.60186">
        <ele>119.74</ele>
        <time>2025-05-02T14:36:02Z</time>
      </trkpt>
      <trkpt lat="43.45353" lon="6.60169">
        <ele>119.64</ele>
        <time>2025-05-02T14:36:22Z</time>
      </trkpt>
      <trkpt lat="43.45352" lon="6.6016">
        <ele>119.64</ele>
        <time>2025-05-02T14:36:37Z</time>
      </trkpt>
      <trkpt lat="43.45352" lon="6.60147">
        <ele>121.67</ele>
        <time>2025-05-02T14:36:58Z</time>
      </trkpt>
      <trkpt lat="43.4535" lon="6.60141">
        <ele>123.51</ele>
        <time>2025-05-02T14:37:20Z</time>
      </trkpt>
      <trkpt lat="43.45346" lon="6.6014">
        <ele>126.45</ele>
        <time>2025-05-02T14:37:43Z</time>
      </trkpt>
      <trkpt lat="43.45344" lon="6.60133">
        <ele>128</ele>
        <time>2025-05-02T14:38:02Z</time>
      </trkpt>
      <trkpt lat="43.45343" lon="6.60126">
        <ele>130.2</ele>
        <time>2025-05-02T14:38:26Z</time>
      </trkpt>
      <trkpt lat="43.45337" lon="6.60128">
        <ele>133.2</ele>
        <time>2025-05-02T14:38:48Z</time>
      </trkpt>
      <trkpt lat="43.45331" lon="6.60132">
        <ele>136.25</ele>
        <time>2025-05-02T14:39:06Z</time>
      </trkpt>
      <trkpt lat="43.45325" lon="6.60135">
        <ele>138.8</ele>
        <time>2025-05-02T14:39:27Z</time>
      </trkpt>
      <trkpt lat="43.45321" lon="6.60131">
        <ele>140.35</ele>
        <time>2025-05-02T14:39:48Z</time>
      </trkpt>
      <trkpt lat="43.45317" lon="6.60132">
        <ele>141.48</ele>
        <time>2025-05-02T14:39:59Z</time>
      </trkpt>
      <trkpt lat="43.45312" lon="6.60131">
        <ele>144.51</ele>
        <time>2025-05-02T14:40:17Z</time>
      </trkpt>
      <trkpt lat="43.45309" lon="6.60121">
        <ele>147</ele>
        <time>2025-05-02T14:40:40Z</time>
      </trkpt>
      <trkpt lat="43.45304" lon="6.6012">
        <ele>150.01</ele>
        <time>2025-05-02T14:40:55Z</time>
      </trkpt>
      <trkpt lat="43.45297" lon="6.60123">
        <ele>153.2</ele>
        <time>2025-05-02T14:41:14Z</time>
      </trkpt>
      <trkpt lat="43.45295" lon="6.60121">
        <ele>154.14</ele>
        <time>2025-05-02T14:41:39Z</time>
      </trkpt>
      <trkpt lat="43.45296" lon="6.6012">
        <ele>155.63</ele>
        <time>2025-05-02T14:42:02Z</time>
      </trkpt>
      <trkpt lat="43.45299" lon="6.6012">
        <ele>156.46</ele>
        <time>2025-05-02T14:42:22Z</time>
      </trkpt>
      <trkpt lat="43.45295" lon="6.60123">
        <ele>156.98</ele>
        <time>2025-05-02T14:42:42Z</time>
      </trkpt>
      <trkpt lat="43.45294" lon="6.60125">
        <ele>157.19</ele>
        <time>2025-05-02T14:42:45Z</time>
      </trkpt>
      <trkpt lat="43.45288" lon="6.6013">
        <ele>160.45</ele>
        <time>2025-05-02T14:43:05Z</time>
      </trkpt>
      <trkpt lat="43.45286" lon="6.60131">
        <ele>161.14</ele>
        <time>2025-05-02T14:43:07Z</time>
      </trkpt>
      <trkpt lat="43.45279" lon="6.60135">
        <ele>162.71</ele>
        <time>2025-05-02T14:43:28Z</time>
      </trkpt>
      <trkpt lat="43.45274" lon="6.60137">
        <ele>165.88</ele>
        <time>2025-05-02T14:43:43Z</time>
      </trkpt>
      <trkpt lat="43.45271" lon="6.60146">
        <ele>168.94</ele>
        <time>2025-05-02T14:43:59Z</time>
      </trkpt>
      <trkpt lat="43.45269" lon="6.6015">
        <ele>169.82</ele>
        <time>2025-05-02T14:44:04Z</time>
      </trkpt>
      <trkpt lat="43.45261" lon="6.60148">
        <ele>172.95</ele>
        <time>2025-05-02T14:44:18Z</time>
      </trkpt>
      <trkpt lat="43.45255" lon="6.60149">
        <ele>175.95</ele>
        <time>2025-05-02T14:44:39Z</time>
      </trkpt>
      <trkpt lat="43.4525" lon="6.60151">
        <ele>178.58</ele>
        <time>2025-05-02T14:45:03Z</time>
      </trkpt>
      <trkpt lat="43.45246" lon="6.60153">
        <ele>181.6</ele>
        <time>2025-05-02T14:45:19Z</time>
      </trkpt>
      <trkpt lat="43.4524" lon="6.60146">
        <ele>183.54</ele>
        <time>2025-05-02T14:45:41Z</time>
      </trkpt>
      <trkpt lat="43.45236" lon="6.60138">
        <ele>184.62</ele>
        <time>2025-05-02T14:46:01Z</time>
      </trkpt>
      <trkpt lat="43.45237" lon="6.60139">
        <ele>184.94</ele>
        <time>2025-05-02T14:46:25Z</time>
      </trkpt>
      <trkpt lat="43.45233" lon="6.60143">
        <ele>187</ele>
        <time>2025-05-02T14:46:48Z</time>
      </trkpt>
      <trkpt lat="43.4523" lon="6.60145">
        <ele>187.61</ele>
        <time>2025-05-02T14:47:09Z</time>
      </trkpt>
      <trkpt lat="43.45227" lon="6.60144">
        <ele>190.64</ele>
        <time>2025-05-02T14:47:21Z</time>
      </trkpt>
      <trkpt lat="43.45226" lon="6.60143">
        <ele>191.4</ele>
        <time>2025-05-02T14:47:50Z</time>
      </trkpt>
      <trkpt lat="43.45226" lon="6.6014">
        <ele>191.51</ele>
        <time>2025-05-02T14:48:18Z</time>
      </trkpt>
      <trkpt lat="43.45224" lon="6.60142">
        <ele>191.4</ele>
        <time>2025-05-02T14:48:44Z</time>
      </trkpt>
      <trkpt lat="43.45226" lon="6.60142">
        <ele>191.4</ele>
        <time>2025-05-02T14:49:13Z</time>
      </trkpt>
      <trkpt lat="43.45224" lon="6.6014">
        <ele>191.4</ele>
        <time>2025-05-02T14:49:37Z</time>
      </trkpt>
      <trkpt lat="43.45218" lon="6.60138">
        <ele>191.4</ele>
        <time>2025-05-02T14:49:58Z</time>
      </trkpt>
      <trkpt lat="43.45213" lon="6.6014">
        <ele>191.4</ele>
        <time>2025-05-02T14:50:20Z</time>
      </trkpt>
      <trkpt lat="43.45211" lon="6.60138">
        <ele>199.77</ele>
        <time>2025-05-02T14:50:28Z</time>
      </trkpt>
      <trkpt lat="43.4521" lon="6.60137">
        <ele>200.39</ele>
        <time>2025-05-02T14:50:30Z</time>
      </trkpt>
      <trkpt lat="43.45209" lon="6.60128">
        <ele>202.04</ele>
        <time>2025-05-02T14:50:49Z</time>
      </trkpt>
      <trkpt lat="43.45208" lon="6.60118">
        <ele>203.64</ele>
        <time>2025-05-02T14:51:14Z</time>
      </trkpt>
      <trkpt lat="43.45211" lon="6.60111">
        <ele>202.6</ele>
        <time>2025-05-02T14:51:33Z</time>
      </trkpt>
      <trkpt lat="43.45216" lon="6.60101">
        <ele>201.16</ele>
        <time>2025-05-02T14:51:51Z</time>
      </trkpt>
      <trkpt lat="43.45214" lon="6.60102">
        <ele>202.1</ele>
        <time>2025-05-02T14:52:12Z</time>
      </trkpt>
      <trkpt lat="43.45207" lon="6.60105">
        <ele>205.27</ele>
        <time>2025-05-02T14:52:27Z</time>
      </trkpt>
      <trkpt lat="43.45204" lon="6.60105">
        <ele>208.47</ele>
        <time>2025-05-02T14:52:42Z</time>
      </trkpt>
      <trkpt lat="43.452" lon="6.60104">
        <ele>211.68</ele>
        <time>2025-05-02T14:52:56Z</time>
      </trkpt>
      <trkpt lat="43.45194" lon="6.60104">
        <ele>214.69</ele>
        <time>2025-05-02T14:53:10Z</time>
      </trkpt>
      <trkpt lat="43.4519" lon="6.60098">
        <ele>217.79</ele>
        <time>2025-05-02T14:53:25Z</time>
      </trkpt>
      <trkpt lat="43.45186" lon="6.60096">
        <ele>218.7</ele>
        <time>2025-05-02T14:53:31Z</time>
      </trkpt>
      <trkpt lat="43.45183" lon="6.60096">
        <ele>220.23</ele>
        <time>2025-05-02T14:53:52Z</time>
      </trkpt>
      <trkpt lat="43.45181" lon="6.60097">
        <ele>221.51</ele>
        <time>2025-05-02T14:54:04Z</time>
      </trkpt>
      <trkpt lat="43.45182" lon="6.601">
        <ele>220.8</ele>
        <time>2025-05-02T14:54:33Z</time>
      </trkpt>
      <trkpt lat="43.45179" lon="6.60098">
        <ele>222.2</ele>
        <time>2025-05-02T14:55:03Z</time>
      </trkpt>
      <trkpt lat="43.45176" lon="6.60096">
        <ele>225.37</ele>
        <time>2025-05-02T14:55:18Z</time>
      </trkpt>
      <trkpt lat="43.45172" lon="6.60089">
        <ele>228.34</ele>
        <time>2025-05-02T14:55:36Z</time>
      </trkpt>
      <trkpt lat="43.45166" lon="6.60087">
        <ele>231.24</ele>
        <time>2025-05-02T14:55:53Z</time>
      </trkpt>
      <trkpt lat="43.45161" lon="6.60084">
        <ele>234.38</ele>
        <time>2025-05-02T14:56:10Z</time>
      </trkpt>
      <trkpt lat="43.45158" lon="6.60081">
        <ele>237.39</ele>
        <time>2025-05-02T14:56:27Z</time>
      </trkpt>
      <trkpt lat="43.45149" lon="6.6008">
        <ele>240.49</ele>
        <time>2025-05-02T14:56:44Z</time>
      </trkpt>
      <trkpt lat="43.45147" lon="6.6008">
        <ele>242.08</ele>
        <time>2025-05-02T14:57:08Z</time>
      </trkpt>
      <trkpt lat="43.45144" lon="6.60084">
        <ele>241.63</ele>
        <time>2025-05-02T14:57:36Z</time>
      </trkpt>
      <trkpt lat="43.45142" lon="6.60084">
        <ele>242.81</ele>
        <time>2025-05-02T14:57:56Z</time>
      </trkpt>
      <trkpt lat="43.45138" lon="6.60086">
        <ele>245.82</ele>
        <time>2025-05-02T14:58:07Z</time>
      </trkpt>
      <trkpt lat="43.45133" lon="6.6009">
        <ele>247.98</ele>
        <time>2025-05-02T14:58:27Z</time>
      </trkpt>
      <trkpt lat="43.45129" lon="6.60094">
        <ele>249.04</ele>
        <time>2025-05-02T14:58:44Z</time>
      </trkpt>
      <trkpt lat="43.45128" lon="6.60097">
        <ele>250.14</ele>
        <time>2025-05-02T14:59:04Z</time>
      </trkpt>
      <trkpt lat="43.45124" lon="6.60099">
        <ele>250.6</ele>
        <time>2025-05-02T14:59:20Z</time>
      </trkpt>
      <trkpt lat="43.45124" lon="6.6011">
        <ele>251.9</ele>
        <time>2025-05-02T14:59:37Z</time>
      </trkpt>
      <trkpt lat="43.45113" lon="6.60116">
        <ele>254.39</ele>
        <time>2025-05-02T14:59:56Z</time>
      </trkpt>
      <trkpt lat="43.45109" lon="6.60115">
        <ele>254.75</ele>
        <time>2025-05-02T15:00:05Z</time>
      </trkpt>
      <trkpt lat="43.45102" lon="6.60103">
        <ele>256.48</ele>
        <time>2025-05-02T15:00:20Z</time>
      </trkpt>
      <trkpt lat="43.45099" lon="6.601">
        <ele>256.54</ele>
        <time>2025-05-02T15:00:34Z</time>
      </trkpt>
      <trkpt lat="43.45095" lon="6.60102">
        <ele>259.13</ele>
        <time>2025-05-02T15:00:40Z</time>
      </trkpt>
      <trkpt lat="43.45087" lon="6.601">
        <ele>260.32</ele>
        <time>2025-05-02T15:00:53Z</time>
      </trkpt>
      <trkpt lat="43.45079" lon="6.601">
        <ele>262.24</ele>
        <time>2025-05-02T15:01:08Z</time>
      </trkpt>
      <trkpt lat="43.45074" lon="6.601">
        <ele>262.55</ele>
        <time>2025-05-02T15:01:22Z</time>
      </trkpt>
      <trkpt lat="43.45071" lon="6.60097">
        <ele>263.34</ele>
        <time>2025-05-02T15:01:35Z</time>
      </trkpt>
      <trkpt lat="43.45071" lon="6.60096">
        <ele>264.22</ele>
        <time>2025-05-02T15:01:55Z</time>
      </trkpt>
      <trkpt lat="43.45073" lon="6.60091">
        <ele>262.78</ele>
        <time>2025-05-02T15:02:08Z</time>
      </trkpt>
      <trkpt lat="43.45071" lon="6.6008">
        <ele>260.54</ele>
        <time>2025-05-02T15:02:22Z</time>
      </trkpt>
      <trkpt lat="43.45067" lon="6.60074">
        <ele>259.48</ele>
        <time>2025-05-02T15:02:37Z</time>
      </trkpt>
      <trkpt lat="43.45068" lon="6.60075">
        <ele>259.1</ele>
        <time>2025-05-02T15:02:45Z</time>
      </trkpt>
      <trkpt lat="43.45066" lon="6.60082">
        <ele>259.17</ele>
        <time>2025-05-02T15:02:59Z</time>
      </trkpt>
      <trkpt lat="43.45061" lon="6.60088">
        <ele>260.94</ele>
        <time>2025-05-02T15:03:16Z</time>
      </trkpt>
      <trkpt lat="43.45059" lon="6.60086">
        <ele>261.64</ele>
        <time>2025-05-02T15:03:33Z</time>
      </trkpt>
      <trkpt lat="43.45057" lon="6.60082">
        <ele>262.45</ele>
        <time>2025-05-02T15:03:49Z</time>
      </trkpt>
      <trkpt lat="43.45057" lon="6.60077">
        <ele>261.52</ele>
        <time>2025-05-02T15:04:06Z</time>
      </trkpt>
      <trkpt lat="43.45056" lon="6.60076">
        <ele>261.22</ele>
        <time>2025-05-02T15:04:28Z</time>
      </trkpt>
      <trkpt lat="43.45055" lon="6.60084">
        <ele>263</ele>
        <time>2025-05-02T15:04:40Z</time>
      </trkpt>
      <trkpt lat="43.45052" lon="6.60088">
        <ele>263.1</ele>
        <time>2025-05-02T15:04:44Z</time>
      </trkpt>
      <trkpt lat="43.45046" lon="6.60088">
        <ele>263.46</ele>
        <time>2025-05-02T15:05:00Z</time>
      </trkpt>
      <trkpt lat="43.45049" lon="6.60088">
        <ele>263.67</ele>
        <time>2025-05-02T15:05:09Z</time>
      </trkpt>
      <trkpt lat="43.4506" lon="6.60085">
        <ele>262.73</ele>
        <time>2025-05-02T15:05:25Z</time>
      </trkpt>
      <trkpt lat="43.45065" lon="6.60087">
        <ele>261.88</ele>
        <time>2025-05-02T15:05:40Z</time>
      </trkpt>
      <trkpt lat="43.45065" lon="6.60082">
        <ele>260.01</ele>
        <time>2025-05-02T15:05:57Z</time>
      </trkpt>
      <trkpt lat="43.45068" lon="6.60074">
        <ele>259.71</ele>
        <time>2025-05-02T15:06:11Z</time>
      </trkpt>
      <trkpt lat="43.45064" lon="6.60071">
        <ele>258.15</ele>
        <time>2025-05-02T15:06:32Z</time>
      </trkpt>
      <trkpt lat="43.45065" lon="6.60071">
        <ele>258.51</ele>
        <time>2025-05-02T15:06:54Z</time>
      </trkpt>
      <trkpt lat="43.45063" lon="6.60071">
        <ele>258.52</ele>
        <time>2025-05-02T15:07:16Z</time>
      </trkpt>
      <trkpt lat="43.45053" lon="6.60074">
        <ele>256.73</ele>
        <time>2025-05-02T15:07:36Z</time>
      </trkpt>
      <trkpt lat="43.45048" lon="6.60076">
        <ele>254.69</ele>
        <time>2025-05-02T15:07:55Z</time>
      </trkpt>
      <trkpt lat="43.45045" lon="6.60076">
        <ele>253.59</ele>
        <time>2025-05-02T15:08:12Z</time>
      </trkpt>
      <trkpt lat="43.45046" lon="6.60072">
        <ele>254.28</ele>
        <time>2025-05-02T15:08:29Z</time>
      </trkpt>
      <trkpt lat="43.45043" lon="6.60072">
        <ele>253.37</ele>
        <time>2025-05-02T15:08:45Z</time>
      </trkpt>
      <trkpt lat="43.45042" lon="6.60069">
        <ele>252.66</ele>
        <time>2025-05-02T15:09:00Z</time>
      </trkpt>
      <trkpt lat="43.45039" lon="6.60069">
        <ele>249.87</ele>
        <time>2025-05-02T15:09:19Z</time>
      </trkpt>
      <trkpt lat="43.45037" lon="6.6007">
        <ele>249.4</ele>
        <time>2025-05-02T15:09:44Z</time>
      </trkpt>
      <trkpt lat="43.45036" lon="6.60058">
        <ele>246.67</ele>
        <time>2025-05-02T15:10:01Z</time>
      </trkpt>
      <trkpt lat="43.45036" lon="6.60056">
        <ele>246.54</ele>
        <time>2025-05-02T15:10:02Z</time>
      </trkpt>
      <trkpt lat="43.4504" lon="6.60047">
        <ele>244.91</ele>
        <time>2025-05-02T15:10:19Z</time>
      </trkpt>
      <trkpt lat="43.45042" lon="6.60039">
        <ele>243.69</ele>
        <time>2025-05-02T15:10:38Z</time>
      </trkpt>
      <trkpt lat="43.45039" lon="6.60042">
        <ele>243</ele>
        <time>2025-05-02T15:11:01Z</time>
      </trkpt>
      <trkpt lat="43.45034" lon="6.60044">
        <ele>240.59</ele>
        <time>2025-05-02T15:11:19Z</time>
      </trkpt>
      <trkpt lat="43.45033" lon="6.60041">
        <ele>238.62</ele>
        <time>2025-05-02T15:11:43Z</time>
      </trkpt>
      <trkpt lat="43.45027" lon="6.60037">
        <ele>236.52</ele>
        <time>2025-05-02T15:12:07Z</time>
      </trkpt>
      <trkpt lat="43.45023" lon="6.60034">
        <ele>234.32</ele>
        <time>2025-05-02T15:12:24Z</time>
      </trkpt>
      <trkpt lat="43.45019" lon="6.60034">
        <ele>232.2</ele>
        <time>2025-05-02T15:12:42Z</time>
      </trkpt>
      <trkpt lat="43.45017" lon="6.60034">
        <ele>230.91</ele>
        <time>2025-05-02T15:13:04Z</time>
      </trkpt>
      <trkpt lat="43.45016" lon="6.60031">
        <ele>230.8</ele>
        <time>2025-05-02T15:13:23Z</time>
      </trkpt>
      <trkpt lat="43.45013" lon="6.6003">
        <ele>228.44</ele>
        <time>2025-05-02T15:13:44Z</time>
      </trkpt>
      <trkpt lat="43.45008" lon="6.60032">
        <ele>226.93</ele>
        <time>2025-05-02T15:13:59Z</time>
      </trkpt>
      <trkpt lat="43.45002" lon="6.6003">
        <ele>224.76</ele>
        <time>2025-05-02T15:14:15Z</time>
      </trkpt>
      <trkpt lat="43.45002" lon="6.60034">
        <ele>222.84</ele>
        <time>2025-05-02T15:14:35Z</time>
      </trkpt>
      <trkpt lat="43.44998" lon="6.60033">
        <ele>220.65</ele>
        <time>2025-05-02T15:14:54Z</time>
      </trkpt>
      <trkpt lat="43.44995" lon="6.60033">
        <ele>220.12</ele>
        <time>2025-05-02T15:15:11Z</time>
      </trkpt>
      <trkpt lat="43.44992" lon="6.60035">
        <ele>217.06</ele>
        <time>2025-05-02T15:15:25Z</time>
      </trkpt>
      <trkpt lat="43.44987" lon="6.60036">
        <ele>215.1</ele>
        <time>2025-05-02T15:15:41Z</time>
      </trkpt>
      <trkpt lat="43.44982" lon="6.60031">
        <ele>212.55</ele>
        <time>2025-05-02T15:16:01Z</time>
      </trkpt>
      <trkpt lat="43.4498" lon="6.60025">
        <ele>210.76</ele>
        <time>2025-05-02T15:16:21Z</time>
      </trkpt>
      <trkpt lat="43.44979" lon="6.60025">
        <ele>210.77</ele>
        <time>2025-05-02T15:16:47Z</time>
      </trkpt>
      <trkpt lat="43.44979" lon="6.60024">
        <ele>211.61</ele>
        <time>2025-05-02T15:17:07Z</time>
      </trkpt>
      <trkpt lat="43.44977" lon="6.6002">
        <ele>209.62</ele>
        <time>2025-05-02T15:17:26Z</time>
      </trkpt>
      <trkpt lat="43.44977" lon="6.6002">
        <ele>209.23</ele>
        <time>2025-05-02T15:17:49Z</time>
      </trkpt>
      <trkpt lat="43.44975" lon="6.60021">
        <ele>209.29</ele>
        <time>2025-05-02T15:18:35Z</time>
      </trkpt>
      <trkpt lat="43.44978" lon="6.6002">
        <ele>209.17</ele>
        <time>2025-05-02T15:19:04Z</time>
      </trkpt>
      <trkpt lat="43.4498" lon="6.60016">
        <ele>209.17</ele>
        <time>2025-05-02T15:19:30Z</time>
      </trkpt>
      <trkpt lat="43.44981" lon="6.60016">
        <ele>209.17</ele>
        <time>2025-05-02T15:19:55Z</time>
      </trkpt>
      <trkpt lat="43.44979" lon="6.60018">
        <ele>209.17</ele>
        <time>2025-05-02T15:20:24Z</time>
      </trkpt>
      <trkpt lat="43.44978" lon="6.60021">
        <ele>209.17</ele>
        <time>2025-05-02T15:21:07Z</time>
      </trkpt>
      <trkpt lat="43.44979" lon="6.60018">
        <ele>209.17</ele>
        <time>2025-05-02T15:21:30Z</time>
      </trkpt>
      <trkpt lat="43.44979" lon="6.60018">
        <ele>209.17</ele>
        <time>2025-05-02T15:22:17Z</time>
      </trkpt>
      <trkpt lat="43.4498" lon="6.60016">
        <ele>209.17</ele>
        <time>2025-05-02T15:22:42Z</time>
      </trkpt>
      <trkpt lat="43.44979" lon="6.60014">
        <ele>209.17</ele>
        <time>2025-05-02T15:23:07Z</time>
      </trkpt>
      <trkpt lat="43.44979" lon="6.60012">
        <ele>209.17</ele>
        <time>2025-05-02T15:23:31Z</time>
      </trkpt>
      <trkpt lat="43.44978" lon="6.60016">
        <ele>209.17</ele>
        <time>2025-05-02T15:24:00Z</time>
      </trkpt>
      <trkpt lat="43.44978" lon="6.60015">
        <ele>209.17</ele>
        <time>2025-05-02T15:24:24Z</time>
      </trkpt>
      <trkpt lat="43.44981" lon="6.60015">
        <ele>209.17</ele>
        <time>2025-05-02T15:25:21Z</time>
      </trkpt>
      <trkpt lat="43.44981" lon="6.60015">
        <ele>209.17</ele>
        <time>2025-05-02T15:26:02Z</time>
      </trkpt>
      <trkpt lat="43.44982" lon="6.60015">
        <ele>209.17</ele>
        <time>2025-05-02T15:26:29Z</time>
      </trkpt>
      <trkpt lat="43.44981" lon="6.60017">
        <ele>209.17</ele>
        <time>2025-05-02T15:26:52Z</time>
      </trkpt>
      <trkpt lat="43.44978" lon="6.60017">
        <ele>209.17</ele>
        <time>2025-05-02T15:27:07Z</time>
      </trkpt>
      <trkpt lat="43.44972" lon="6.60016">
        <ele>209.17</ele>
        <time>2025-05-02T15:27:27Z</time>
      </trkpt>
      <trkpt lat="43.44969" lon="6.60015">
        <ele>209.17</ele>
        <time>2025-05-02T15:27:37Z</time>
      </trkpt>
      <trkpt lat="43.44965" lon="6.60018">
        <ele>209.17</ele>
        <time>2025-05-02T15:28:01Z</time>
      </trkpt>
      <trkpt lat="43.44965" lon="6.60018">
        <ele>204.23</ele>
        <time>2025-05-02T15:28:05Z</time>
      </trkpt>
      <trkpt lat="43.44965" lon="6.60018">
        <ele>204.14</ele>
        <time>2025-05-02T15:28:06Z</time>
      </trkpt>
      <trkpt lat="43.44961" lon="6.60017">
        <ele>202.81</ele>
        <time>2025-05-02T15:28:35Z</time>
      </trkpt>
      <trkpt lat="43.44958" lon="6.60016">
        <ele>202.35</ele>
        <time>2025-05-02T15:28:52Z</time>
      </trkpt>
      <trkpt lat="43.44955" lon="6.60018">
        <ele>200.59</ele>
        <time>2025-05-02T15:29:14Z</time>
      </trkpt>
      <trkpt lat="43.44949" lon="6.60019">
        <ele>198.17</ele>
        <time>2025-05-02T15:29:38Z</time>
      </trkpt>
      <trkpt lat="43.44947" lon="6.60019">
        <ele>197.35</ele>
        <time>2025-05-02T15:29:58Z</time>
      </trkpt>
      <trkpt lat="43.44941" lon="6.60017">
        <ele>194.79</ele>
        <time>2025-05-02T15:30:16Z</time>
      </trkpt>
      <trkpt lat="43.44935" lon="6.60019">
        <ele>192.74</ele>
        <time>2025-05-02T15:30:34Z</time>
      </trkpt>
      <trkpt lat="43.44929" lon="6.60026">
        <ele>190.43</ele>
        <time>2025-05-02T15:30:52Z</time>
      </trkpt>
      <trkpt lat="43.44925" lon="6.60026">
        <ele>188.15</ele>
        <time>2025-05-02T15:31:10Z</time>
      </trkpt>
      <trkpt lat="43.44919" lon="6.60021">
        <ele>187.55</ele>
        <time>2025-05-02T15:31:31Z</time>
      </trkpt>
      <trkpt lat="43.44914" lon="6.60025">
        <ele>184.45</ele>
        <time>2025-05-02T15:31:48Z</time>
      </trkpt>
      <trkpt lat="43.44911" lon="6.60028">
        <ele>182.68</ele>
        <time>2025-05-02T15:32:04Z</time>
      </trkpt>
      <trkpt lat="43.44905" lon="6.6003">
        <ele>180.64</ele>
        <time>2025-05-02T15:32:24Z</time>
      </trkpt>
      <trkpt lat="43.44901" lon="6.60026">
        <ele>178.62</ele>
        <time>2025-05-02T15:32:42Z</time>
      </trkpt>
      <trkpt lat="43.44895" lon="6.60026">
        <ele>176.92</ele>
        <time>2025-05-02T15:33:00Z</time>
      </trkpt>
      <trkpt lat="43.44891" lon="6.60023">
        <ele>175.38</ele>
        <time>2025-05-02T15:33:15Z</time>
      </trkpt>
      <trkpt lat="43.4489" lon="6.60018">
        <ele>174.25</ele>
        <time>2025-05-02T15:33:32Z</time>
      </trkpt>
      <trkpt lat="43.44886" lon="6.60004">
        <ele>171.96</ele>
        <time>2025-05-02T15:33:52Z</time>
      </trkpt>
      <trkpt lat="43.44881" lon="6.60001">
        <ele>170.69</ele>
        <time>2025-05-02T15:34:06Z</time>
      </trkpt>
      <trkpt lat="43.44877" lon="6.59998">
        <ele>169.1</ele>
        <time>2025-05-02T15:34:20Z</time>
      </trkpt>
      <trkpt lat="43.44874" lon="6.59994">
        <ele>167.7</ele>
        <time>2025-05-02T15:34:34Z</time>
      </trkpt>
      <trkpt lat="43.44868" lon="6.59986">
        <ele>166.23</ele>
        <time>2025-05-02T15:34:49Z</time>
      </trkpt>
      <trkpt lat="43.44863" lon="6.5998">
        <ele>164.8</ele>
        <time>2025-05-02T15:35:03Z</time>
      </trkpt>
      <trkpt lat="43.44858" lon="6.59973">
        <ele>163.39</ele>
        <time>2025-05-02T15:35:15Z</time>
      </trkpt>
      <trkpt lat="43.44858" lon="6.59963">
        <ele>164.34</ele>
        <time>2025-05-02T15:35:27Z</time>
      </trkpt>
      <trkpt lat="43.44858" lon="6.59962">
        <ele>163.07</ele>
        <time>2025-05-02T15:35:30Z</time>
      </trkpt>
      <trkpt lat="43.44855" lon="6.59957">
        <ele>161.86</ele>
        <time>2025-05-02T15:35:45Z</time>
      </trkpt>
      <trkpt lat="43.44848" lon="6.59953">
        <ele>160.26</ele>
        <time>2025-05-02T15:36:03Z</time>
      </trkpt>
      <trkpt lat="43.44845" lon="6.59944">
        <ele>159.04</ele>
        <time>2025-05-02T15:36:19Z</time>
      </trkpt>
      <trkpt lat="43.44846" lon="6.59937">
        <ele>157.62</ele>
        <time>2025-05-02T15:36:36Z</time>
      </trkpt>
      <trkpt lat="43.44842" lon="6.59934">
        <ele>155.32</ele>
        <time>2025-05-02T15:36:58Z</time>
      </trkpt>
      <trkpt lat="43.44838" lon="6.59926">
        <ele>154.63</ele>
        <time>2025-05-02T15:37:18Z</time>
      </trkpt>
      <trkpt lat="43.44831" lon="6.59911">
        <ele>154.87</ele>
        <time>2025-05-02T15:37:37Z</time>
      </trkpt>
      <trkpt lat="43.44827" lon="6.59911">
        <ele>153.45</ele>
        <time>2025-05-02T15:37:54Z</time>
      </trkpt>
      <trkpt lat="43.44822" lon="6.59915">
        <ele>152.49</ele>
        <time>2025-05-02T15:38:08Z</time>
      </trkpt>
      <trkpt lat="43.44816" lon="6.59913">
        <ele>151.24</ele>
        <time>2025-05-02T15:38:22Z</time>
      </trkpt>
      <trkpt lat="43.4481" lon="6.59906">
        <ele>150.21</ele>
        <time>2025-05-02T15:38:43Z</time>
      </trkpt>
      <trkpt lat="43.44802" lon="6.59901">
        <ele>148.87</ele>
        <time>2025-05-02T15:39:00Z</time>
      </trkpt>
      <trkpt lat="43.44798" lon="6.59895">
        <ele>147.77</ele>
        <time>2025-05-02T15:39:16Z</time>
      </trkpt>
      <trkpt lat="43.4479" lon="6.59889">
        <ele>146.18</ele>
        <time>2025-05-02T15:39:36Z</time>
      </trkpt>
      <trkpt lat="43.44788" lon="6.59888">
        <ele>147.52</ele>
        <time>2025-05-02T15:39:43Z</time>
      </trkpt>
      <trkpt lat="43.4478" lon="6.59883">
        <ele>144.42</ele>
        <time>2025-05-02T15:40:00Z</time>
      </trkpt>
      <trkpt lat="43.4478" lon="6.59865">
        <ele>144.65</ele>
        <time>2025-05-02T15:40:20Z</time>
      </trkpt>
      <trkpt lat="43.4478" lon="6.59852">
        <ele>144.54</ele>
        <time>2025-05-02T15:40:38Z</time>
      </trkpt>
      <trkpt lat="43.44773" lon="6.59845">
        <ele>143.83</ele>
        <time>2025-05-02T15:40:53Z</time>
      </trkpt>
      <trkpt lat="43.44763" lon="6.59844">
        <ele>142.21</ele>
        <time>2025-05-02T15:41:09Z</time>
      </trkpt>
      <trkpt lat="43.44761" lon="6.59832">
        <ele>141.08</ele>
        <time>2025-05-02T15:41:24Z</time>
      </trkpt>
      <trkpt lat="43.44757" lon="6.59826">
        <ele>140.49</ele>
        <time>2025-05-02T15:41:38Z</time>
      </trkpt>
      <trkpt lat="43.44752" lon="6.5982">
        <ele>139.74</ele>
        <time>2025-05-02T15:42:03Z</time>
      </trkpt>
      <trkpt lat="43.44747" lon="6.59811">
        <ele>138.08</ele>
        <time>2025-05-02T15:42:19Z</time>
      </trkpt>
      <trkpt lat="43.44742" lon="6.59804">
        <ele>135.63</ele>
        <time>2025-05-02T15:42:33Z</time>
      </trkpt>
      <trkpt lat="43.44743" lon="6.59793">
        <ele>135.36</ele>
        <time>2025-05-02T15:43:11Z</time>
      </trkpt>
      <trkpt lat="43.44744" lon="6.59779">
        <ele>135.63</ele>
        <time>2025-05-02T15:43:22Z</time>
      </trkpt>
      <trkpt lat="43.44743" lon="6.59757">
        <ele>136.37</ele>
        <time>2025-05-02T15:43:40Z</time>
      </trkpt>
      <trkpt lat="43.44743" lon="6.59755">
        <ele>137.82</ele>
        <time>2025-05-02T15:43:42Z</time>
      </trkpt>
      <trkpt lat="43.44743" lon="6.59737">
        <ele>137.96</ele>
        <time>2025-05-02T15:43:57Z</time>
      </trkpt>
      <trkpt lat="43.44743" lon="6.59734">
        <ele>138.01</ele>
        <time>2025-05-02T15:43:59Z</time>
      </trkpt>
      <trkpt lat="43.44743" lon="6.59713">
        <ele>137.74</ele>
        <time>2025-05-02T15:44:17Z</time>
      </trkpt>
      <trkpt lat="43.44741" lon="6.5971">
        <ele>137.68</ele>
        <time>2025-05-02T15:44:21Z</time>
      </trkpt>
      <trkpt lat="43.44737" lon="6.59694">
        <ele>138.65</ele>
        <time>2025-05-02T15:44:36Z</time>
      </trkpt>
      <trkpt lat="43.44734" lon="6.59675">
        <ele>137.46</ele>
        <time>2025-05-02T15:44:52Z</time>
      </trkpt>
      <trkpt lat="43.44728" lon="6.59652">
        <ele>136.52</ele>
        <time>2025-05-02T15:45:11Z</time>
      </trkpt>
      <trkpt lat="43.44715" lon="6.59656">
        <ele>136.55</ele>
        <time>2025-05-02T15:45:26Z</time>
      </trkpt>
      <trkpt lat="43.44697" lon="6.59655">
        <ele>138.43</ele>
        <time>2025-05-02T15:45:47Z</time>
      </trkpt>
      <trkpt lat="43.44692" lon="6.59643">
        <ele>139.77</ele>
        <time>2025-05-02T15:46:05Z</time>
      </trkpt>
      <trkpt lat="43.4469" lon="6.59615">
        <ele>141.76</ele>
        <time>2025-05-02T15:46:28Z</time>
      </trkpt>
      <trkpt lat="43.44689" lon="6.59594">
        <ele>143.84</ele>
        <time>2025-05-02T15:46:47Z</time>
      </trkpt>
      <trkpt lat="43.4469" lon="6.59581">
        <ele>143.93</ele>
        <time>2025-05-02T15:46:58Z</time>
      </trkpt>
      <trkpt lat="43.44696" lon="6.59564">
        <ele>144.05</ele>
        <time>2025-05-02T15:47:15Z</time>
      </trkpt>
      <trkpt lat="43.44698" lon="6.59557">
        <ele>144.15</ele>
        <time>2025-05-02T15:47:21Z</time>
      </trkpt>
      <trkpt lat="43.44705" lon="6.59541">
        <ele>144.31</ele>
        <time>2025-05-02T15:47:38Z</time>
      </trkpt>
      <trkpt lat="43.44714" lon="6.59521">
        <ele>144.95</ele>
        <time>2025-05-02T15:47:57Z</time>
      </trkpt>
      <trkpt lat="43.44727" lon="6.59497">
        <ele>145.44</ele>
        <time>2025-05-02T15:48:18Z</time>
      </trkpt>
      <trkpt lat="43.44736" lon="6.59483">
        <ele>147.35</ele>
        <time>2025-05-02T15:48:33Z</time>
      </trkpt>
      <trkpt lat="43.44744" lon="6.59475">
        <ele>147.41</ele>
        <time>2025-05-02T15:48:53Z</time>
      </trkpt>
      <trkpt lat="43.44763" lon="6.59476">
        <ele>148.14</ele>
        <time>2025-05-02T15:49:11Z</time>
      </trkpt>
      <trkpt lat="43.44779" lon="6.59467">
        <ele>149.01</ele>
        <time>2025-05-02T15:49:30Z</time>
      </trkpt>
      <trkpt lat="43.44789" lon="6.59455">
        <ele>150</ele>
        <time>2025-05-02T15:49:46Z</time>
      </trkpt>
      <trkpt lat="43.44799" lon="6.5944">
        <ele>151.45</ele>
        <time>2025-05-02T15:50:03Z</time>
      </trkpt>
      <trkpt lat="43.44811" lon="6.59431">
        <ele>152.62</ele>
        <time>2025-05-02T15:50:17Z</time>
      </trkpt>
      <trkpt lat="43.44814" lon="6.59426">
        <ele>152.46</ele>
        <time>2025-05-02T15:50:36Z</time>
      </trkpt>
      <trkpt lat="43.44811" lon="6.59419">
        <ele>152.13</ele>
        <time>2025-05-02T15:50:57Z</time>
      </trkpt>
      <trkpt lat="43.44808" lon="6.59414">
        <ele>151.51</ele>
        <time>2025-05-02T15:51:15Z</time>
      </trkpt>
      <trkpt lat="43.44807" lon="6.59414">
        <ele>151.66</ele>
        <time>2025-05-02T15:51:16Z</time>
      </trkpt>
      <trkpt lat="43.44798" lon="6.59401">
        <ele>150.97</ele>
        <time>2025-05-02T15:51:35Z</time>
      </trkpt>
      <trkpt lat="43.44791" lon="6.59379">
        <ele>150.26</ele>
        <time>2025-05-02T15:51:53Z</time>
      </trkpt>
      <trkpt lat="43.44792" lon="6.59359">
        <ele>148.97</ele>
        <time>2025-05-02T15:52:12Z</time>
      </trkpt>
      <trkpt lat="43.44795" lon="6.59344">
        <ele>148.26</ele>
        <time>2025-05-02T15:52:27Z</time>
      </trkpt>
      <trkpt lat="43.44803" lon="6.59332">
        <ele>147.37</ele>
        <time>2025-05-02T15:52:45Z</time>
      </trkpt>
      <trkpt lat="43.44807" lon="6.59319">
        <ele>146.36</ele>
        <time>2025-05-02T15:53:02Z</time>
      </trkpt>
      <trkpt lat="43.44807" lon="6.59317">
        <ele>145.96</ele>
        <time>2025-05-02T15:53:46Z</time>
      </trkpt>
      <trkpt lat="43.44812" lon="6.59309">
        <ele>145.31</ele>
        <time>2025-05-02T15:54:02Z</time>
      </trkpt>
      <trkpt lat="43.44817" lon="6.59296">
        <ele>143.52</ele>
        <time>2025-05-02T15:54:18Z</time>
      </trkpt>
      <trkpt lat="43.44822" lon="6.59282">
        <ele>142.39</ele>
        <time>2025-05-02T15:54:35Z</time>
      </trkpt>
      <trkpt lat="43.44827" lon="6.59268">
        <ele>141.81</ele>
        <time>2025-05-02T15:54:51Z</time>
      </trkpt>
      <trkpt lat="43.44835" lon="6.59253">
        <ele>141.18</ele>
        <time>2025-05-02T15:55:08Z</time>
      </trkpt>
      <trkpt lat="43.44837" lon="6.5925">
        <ele>140.74</ele>
        <time>2025-05-02T15:55:23Z</time>
      </trkpt>
      <trkpt lat="43.44844" lon="6.59239">
        <ele>140.65</ele>
        <time>2025-05-02T15:55:40Z</time>
      </trkpt>
      <trkpt lat="43.44848" lon="6.59222">
        <ele>139.56</ele>
        <time>2025-05-02T15:55:59Z</time>
      </trkpt>
      <trkpt lat="43.44853" lon="6.59201">
        <ele>139.49</ele>
        <time>2025-05-02T15:56:16Z</time>
      </trkpt>
      <trkpt lat="43.44859" lon="6.59184">
        <ele>139.3</ele>
        <time>2025-05-02T15:56:31Z</time>
      </trkpt>
      <trkpt lat="43.44866" lon="6.59166">
        <ele>139.17</ele>
        <time>2025-05-02T15:56:47Z</time>
      </trkpt>
      <trkpt lat="43.44871" lon="6.59144">
        <ele>138.92</ele>
        <time>2025-05-02T15:57:03Z</time>
      </trkpt>
      <trkpt lat="43.44872" lon="6.59125">
        <ele>139.07</ele>
        <time>2025-05-02T15:57:20Z</time>
      </trkpt>
      <trkpt lat="43.4488" lon="6.59113">
        <ele>137.76</ele>
        <time>2025-05-02T15:57:35Z</time>
      </trkpt>
      <trkpt lat="43.44889" lon="6.59099">
        <ele>136.25</ele>
        <time>2025-05-02T15:57:51Z</time>
      </trkpt>
      <trkpt lat="43.44893" lon="6.59091">
        <ele>134.85</ele>
        <time>2025-05-02T15:58:02Z</time>
      </trkpt>
      <trkpt lat="43.44897" lon="6.59076">
        <ele>133.42</ele>
        <time>2025-05-02T15:58:18Z</time>
      </trkpt>
      <trkpt lat="43.44901" lon="6.59063">
        <ele>132.15</ele>
        <time>2025-05-02T15:58:32Z</time>
      </trkpt>
      <trkpt lat="43.44903" lon="6.5905">
        <ele>131.39</ele>
        <time>2025-05-02T15:58:48Z</time>
      </trkpt>
      <trkpt lat="43.44905" lon="6.59047">
        <ele>131.07</ele>
        <time>2025-05-02T15:58:51Z</time>
      </trkpt>
      <trkpt lat="43.44908" lon="6.5904">
        <ele>130.72</ele>
        <time>2025-05-02T15:58:57Z</time>
      </trkpt>
      <trkpt lat="43.44909" lon="6.59029">
        <ele>130.4</ele>
        <time>2025-05-02T15:59:06Z</time>
      </trkpt>
      <trkpt lat="43.4491" lon="6.59019">
        <ele>129.61</ele>
        <time>2025-05-02T15:59:18Z</time>
      </trkpt>
      <trkpt lat="43.44912" lon="6.59008">
        <ele>129.18</ele>
        <time>2025-05-02T15:59:29Z</time>
      </trkpt>
      <trkpt lat="43.44917" lon="6.58994">
        <ele>128.27</ele>
        <time>2025-05-02T15:59:43Z</time>
      </trkpt>
      <trkpt lat="43.44922" lon="6.58972">
        <ele>127.3</ele>
        <time>2025-05-02T16:00:01Z</time>
      </trkpt>
      <trkpt lat="43.44929" lon="6.58953">
        <ele>127.06</ele>
        <time>2025-05-02T16:00:18Z</time>
      </trkpt>
      <trkpt lat="43.44931" lon="6.58948">
        <ele>126.89</ele>
        <time>2025-05-02T16:00:23Z</time>
      </trkpt>
      <trkpt lat="43.44936" lon="6.58932">
        <ele>126.31</ele>
        <time>2025-05-02T16:00:37Z</time>
      </trkpt>
      <trkpt lat="43.4494" lon="6.58915">
        <ele>125.87</ele>
        <time>2025-05-02T16:00:51Z</time>
      </trkpt>
      <trkpt lat="43.44944" lon="6.58901">
        <ele>126.25</ele>
        <time>2025-05-02T16:01:04Z</time>
      </trkpt>
      <trkpt lat="43.44945" lon="6.58886">
        <ele>125.32</ele>
        <time>2025-05-02T16:01:19Z</time>
      </trkpt>
      <trkpt lat="43.44945" lon="6.58877">
        <ele>125.44</ele>
        <time>2025-05-02T16:01:31Z</time>
      </trkpt>
      <trkpt lat="43.44936" lon="6.58872">
        <ele>126.3</ele>
        <time>2025-05-02T16:01:47Z</time>
      </trkpt>
      <trkpt lat="43.44923" lon="6.58867">
        <ele>127.6</ele>
        <time>2025-05-02T16:02:06Z</time>
      </trkpt>
      <trkpt lat="43.44909" lon="6.58863">
        <ele>130.73</ele>
        <time>2025-05-02T16:02:26Z</time>
      </trkpt>
      <trkpt lat="43.44901" lon="6.58861">
        <ele>133.34</ele>
        <time>2025-05-02T16:02:43Z</time>
      </trkpt>
      <trkpt lat="43.44888" lon="6.58854">
        <ele>135.52</ele>
        <time>2025-05-02T16:03:00Z</time>
      </trkpt>
      <trkpt lat="43.44877" lon="6.5885">
        <ele>138.26</ele>
        <time>2025-05-02T16:03:17Z</time>
      </trkpt>
      <trkpt lat="43.44876" lon="6.58839">
        <ele>139.86</ele>
        <time>2025-05-02T16:03:34Z</time>
      </trkpt>
      <trkpt lat="43.44877" lon="6.58828">
        <ele>141.33</ele>
        <time>2025-05-02T16:03:52Z</time>
      </trkpt>
      <trkpt lat="43.44879" lon="6.58814">
        <ele>144.46</ele>
        <time>2025-05-02T16:04:12Z</time>
      </trkpt>
      <trkpt lat="43.44874" lon="6.58807">
        <ele>147.54</ele>
        <time>2025-05-02T16:04:30Z</time>
      </trkpt>
      <trkpt lat="43.44871" lon="6.58797">
        <ele>150.57</ele>
        <time>2025-05-02T16:04:47Z</time>
      </trkpt>
      <trkpt lat="43.44871" lon="6.58781">
        <ele>153.59</ele>
        <time>2025-05-02T16:05:02Z</time>
      </trkpt>
      <trkpt lat="43.4488" lon="6.58771">
        <ele>156.41</ele>
        <time>2025-05-02T16:05:20Z</time>
      </trkpt>
      <trkpt lat="43.44882" lon="6.58754">
        <ele>158.91</ele>
        <time>2025-05-02T16:05:41Z</time>
      </trkpt>
      <trkpt lat="43.44882" lon="6.58739">
        <ele>159.94</ele>
        <time>2025-05-02T16:05:57Z</time>
      </trkpt>
      <trkpt lat="43.44886" lon="6.58718">
        <ele>159.68</ele>
        <time>2025-05-02T16:06:13Z</time>
      </trkpt>
      <trkpt lat="43.44886" lon="6.58698">
        <ele>159.99</ele>
        <time>2025-05-02T16:06:30Z</time>
      </trkpt>
      <trkpt lat="43.44868" lon="6.58691">
        <ele>158.32</ele>
        <time>2025-05-02T16:06:49Z</time>
      </trkpt>
      <trkpt lat="43.44851" lon="6.58697">
        <ele>157.67</ele>
        <time>2025-05-02T16:07:07Z</time>
      </trkpt>
      <trkpt lat="43.44833" lon="6.58694">
        <ele>157.97</ele>
        <time>2025-05-02T16:07:24Z</time>
      </trkpt>
      <trkpt lat="43.44826" lon="6.58688">
        <ele>158.17</ele>
        <time>2025-05-02T16:07:31Z</time>
      </trkpt>
      <trkpt lat="43.44817" lon="6.58668">
        <ele>158.78</ele>
        <time>2025-05-02T16:07:47Z</time>
      </trkpt>
      <trkpt lat="43.44813" lon="6.58653">
        <ele>159.73</ele>
        <time>2025-05-02T16:08:04Z</time>
      </trkpt>
      <trkpt lat="43.44813" lon="6.58652">
        <ele>159.92</ele>
        <time>2025-05-02T16:08:28Z</time>
      </trkpt>
      <trkpt lat="43.44813" lon="6.58651">
        <ele>159.88</ele>
        <time>2025-05-02T16:08:57Z</time>
      </trkpt>
      <trkpt lat="43.44813" lon="6.5865">
        <ele>159.08</ele>
        <time>2025-05-02T16:09:07Z</time>
      </trkpt>
    </trkseg>
  </trk>
</gpx>